<?xml version='1.0' encoding='UTF-8'?><gpx version="1.1" creator="JPX - https://github.com/jenetics/jpx" xmlns="http://www.topografix.com/GPX/1/1"><trk><trkseg><trkpt lat="45.855280887259376" lon="11.548858005853887"><ele>1076.0</ele><time>2026-04-03T06:00:07.483Z</time></trkpt><trkpt lat="45.85545428560184" lon="11.548956761216624"><ele>1076.0</ele><time>2026-04-03T06:00:08.433Z</time></trkpt><trkpt lat="45.85564384476028" lon="11.549056225468684"><ele>1076.0</ele><time>2026-04-03T06:00:09.383Z</time></trkpt><trkpt lat="45.85582111003204" lon="11.549144702518523"><ele>1075.0</ele><time>2026-04-03T06:00:10.332Z</time></trkpt><trkpt lat="45.85599442342866" lon="11.549231378971596"><ele>1074.0</ele><time>2026-04-03T06:00:11.282Z</time></trkpt><trkpt lat="45.85617218644828" lon="11.549325130859938"><ele>1073.0</ele><time>2026-04-03T06:00:12.233Z</time></trkpt><trkpt lat="45.85634141542416" lon="11.549412356660373"><ele>1073.0</ele><time>2026-04-03T06:00:13.182Z</time></trkpt><trkpt lat="45.85652596977402" lon="11.549509241144161"><ele>1073.0</ele><time>2026-04-03T06:00:14.132Z</time></trkpt><trkpt lat="45.85670318550032" lon="11.549609270061207"><ele>1073.0</ele><time>2026-04-03T06:00:15.082Z</time></trkpt><trkpt lat="45.85688161125459" lon="11.549728613511782"><ele>1074.6666666666667</ele><time>2026-04-03T06:00:16.032Z</time></trkpt><trkpt lat="45.85705562072824" lon="11.549850120476629"><ele>1076.3333333333333</ele><time>2026-04-03T06:00:17.001Z</time></trkpt><trkpt lat="45.857225668344896" lon="11.549981718895735"><ele>1078.0</ele><time>2026-04-03T06:00:18.002Z</time></trkpt><trkpt lat="45.85739939728301" lon="11.550096207902685"><ele>1078.0</ele><time>2026-04-03T06:00:19.002Z</time></trkpt><trkpt lat="45.85757924305442" lon="11.550212450917533"><ele>1078.0</ele><time>2026-04-03T06:00:20.001Z</time></trkpt><trkpt lat="45.85776786667623" lon="11.550344580294972"><ele>1078.0</ele><time>2026-04-03T06:00:21.001Z</time></trkpt><trkpt lat="45.85795815752652" lon="11.550465320158487"><ele>1079.3333333333333</ele><time>2026-04-03T06:00:22.001Z</time></trkpt><trkpt lat="45.85813470435361" lon="11.550594152017217"><ele>1080.6666666666667</ele><time>2026-04-03T06:00:23.001Z</time></trkpt><trkpt lat="45.85831335900149" lon="11.550698846682053"><ele>1082.0</ele><time>2026-04-03T06:00:24.001Z</time></trkpt><trkpt lat="45.858495782473014" lon="11.550771818211318"><ele>1082.0</ele><time>2026-04-03T06:00:25.001Z</time></trkpt><trkpt lat="45.85867765328481" lon="11.550853273561604"><ele>1082.0</ele><time>2026-04-03T06:00:26.001Z</time></trkpt><trkpt lat="45.85886738991535" lon="11.5509269679401"><ele>1082.0</ele><time>2026-04-03T06:00:27.001Z</time></trkpt><trkpt lat="45.859057821103" lon="11.550978872672655"><ele>1082.0</ele><time>2026-04-03T06:00:28.001Z</time></trkpt><trkpt lat="45.85925079168064" lon="11.551025412410702"><ele>1082.0</ele><time>2026-04-03T06:00:29.001Z</time></trkpt><trkpt lat="45.85944308310087" lon="11.5510818753376"><ele>1082.0</ele><time>2026-04-03T06:00:30.001Z</time></trkpt><trkpt lat="45.85963775628559" lon="11.551137709612513"><ele>1082.3333333333335</ele><time>2026-04-03T06:00:31.001Z</time></trkpt><trkpt lat="45.859832173339655" lon="11.551195333910897"><ele>1082.6666666666667</ele><time>2026-04-03T06:00:32.001Z</time></trkpt><trkpt lat="45.86005916709" lon="11.551286050179188"><ele>1083.0</ele><time>2026-04-03T06:00:33.001Z</time></trkpt><trkpt lat="45.860237881397815" lon="11.551384898541775"><ele>1083.3333333333333</ele><time>2026-04-03T06:00:34.001Z</time></trkpt><trkpt lat="45.86039581024348" lon="11.55151103825085"><ele>1083.6666666666665</ele><time>2026-04-03T06:00:35.001Z</time></trkpt><trkpt lat="45.86054384557596" lon="11.551619357484254"><ele>1084.0</ele><time>2026-04-03T06:00:36.001Z</time></trkpt><trkpt lat="45.86070246804231" lon="11.551788486718262"><ele>1084.0</ele><time>2026-04-03T06:00:37.001Z</time></trkpt><trkpt lat="45.86086544472966" lon="11.55195813246962"><ele>1084.0</ele><time>2026-04-03T06:00:38.001Z</time></trkpt><trkpt lat="45.861020166735976" lon="11.552115853832845"><ele>1084.0</ele><time>2026-04-03T06:00:39.001Z</time></trkpt><trkpt lat="45.86118884930494" lon="11.552305119864707"><ele>1084.0</ele><time>2026-04-03T06:00:40.001Z</time></trkpt><trkpt lat="45.86135100220415" lon="11.552428943073549"><ele>1084.0</ele><time>2026-04-03T06:00:41.001Z</time></trkpt><trkpt lat="45.86154390893557" lon="11.5524931509897"><ele>1084.0</ele><time>2026-04-03T06:00:42.001Z</time></trkpt><trkpt lat="45.86173735336844" lon="11.552559057540053"><ele>1084.3333333333333</ele><time>2026-04-03T06:00:43.001Z</time></trkpt><trkpt lat="45.86193771732157" lon="11.55262622147361"><ele>1084.6666666666667</ele><time>2026-04-03T06:00:44.001Z</time></trkpt><trkpt lat="45.86215830423527" lon="11.552741888303217"><ele>1085.0</ele><time>2026-04-03T06:00:45.001Z</time></trkpt><trkpt lat="45.86233173512776" lon="11.55278052075048"><ele>1085.0</ele><time>2026-04-03T06:00:46.001Z</time></trkpt><trkpt lat="45.86251876062352" lon="11.552835753182572"><ele>1085.0</ele><time>2026-04-03T06:00:47.001Z</time></trkpt><trkpt lat="45.862712482929474" lon="11.552893218703677"><ele>1085.0</ele><time>2026-04-03T06:00:48.001Z</time></trkpt><trkpt lat="45.8629021627175" lon="11.552966618177702"><ele>1086.0</ele><time>2026-04-03T06:00:49.001Z</time></trkpt><trkpt lat="45.863099958375685" lon="11.552916959010865"><ele>1087.0</ele><time>2026-04-03T06:00:50.001Z</time></trkpt><trkpt lat="45.863287646388436" lon="11.552875216022857"><ele>1088.0</ele><time>2026-04-03T06:00:51.001Z</time></trkpt><trkpt lat="45.86347663828966" lon="11.552833615479512"><ele>1089.0</ele><time>2026-04-03T06:00:52.001Z</time></trkpt><trkpt lat="45.863666928000434" lon="11.552794444652136"><ele>1090.0</ele><time>2026-04-03T06:00:53.001Z</time></trkpt><trkpt lat="45.86385532842329" lon="11.552755002572175"><ele>1091.0</ele><time>2026-04-03T06:00:54.001Z</time></trkpt><trkpt lat="45.8640297041436" lon="11.552731746811887"><ele>1091.0</ele><time>2026-04-03T06:00:55.001Z</time></trkpt><trkpt lat="45.86421270214879" lon="11.552675155845698"><ele>1091.0</ele><time>2026-04-03T06:00:56.001Z</time></trkpt><trkpt lat="45.864391706057866" lon="11.552593904891767"><ele>1091.0</ele><time>2026-04-03T06:00:57.001Z</time></trkpt><trkpt lat="45.864558475557025" lon="11.55251095972018"><ele>1093.3333333333335</ele><time>2026-04-03T06:00:58.001Z</time></trkpt><trkpt lat="45.864724518722525" lon="11.552427283047932"><ele>1095.6666666666667</ele><time>2026-04-03T06:00:59.001Z</time></trkpt><trkpt lat="45.86487752616723" lon="11.552334970394062"><ele>1098.0</ele><time>2026-04-03T06:01:00.001Z</time></trkpt><trkpt lat="45.86503107193622" lon="11.552236396779879"><ele>1099.0</ele><time>2026-04-03T06:01:01.001Z</time></trkpt><trkpt lat="45.865177649662094" lon="11.552105314529383"><ele>1100.0</ele><time>2026-04-03T06:01:02.001Z</time></trkpt><trkpt lat="45.86531616448628" lon="11.55199140891005"><ele>1101.0</ele><time>2026-04-03T06:01:03.001Z</time></trkpt><trkpt lat="45.86545259682725" lon="11.55186681688869"><ele>1101.0</ele><time>2026-04-03T06:01:04.001Z</time></trkpt><trkpt lat="45.86559403577062" lon="11.551729880548766"><ele>1101.0</ele><time>2026-04-03T06:01:05.001Z</time></trkpt><trkpt lat="45.865745770626845" lon="11.551571800536493"><ele>1101.0</ele><time>2026-04-03T06:01:06.001Z</time></trkpt><trkpt lat="45.86588402755398" lon="11.551419480110102"><ele>1101.0</ele><time>2026-04-03T06:01:07.001Z</time></trkpt><trkpt lat="45.866033350585724" lon="11.551266580536966"><ele>1101.0</ele><time>2026-04-03T06:01:08.001Z</time></trkpt><trkpt lat="45.86618105986754" lon="11.55109846931043"><ele>1101.0</ele><time>2026-04-03T06:01:09.001Z</time></trkpt><trkpt lat="45.86632992746702" lon="11.550921677524144"><ele>1101.0</ele><time>2026-04-03T06:01:10.001Z</time></trkpt><trkpt lat="45.86646789613085" lon="11.55072155577303"><ele>1101.0</ele><time>2026-04-03T06:01:11.001Z</time></trkpt><trkpt lat="45.866596949937694" lon="11.550517306963485"><ele>1101.0</ele><time>2026-04-03T06:01:12.001Z</time></trkpt><trkpt lat="45.86673028863726" lon="11.550304880410675"><ele>1102.6666666666667</ele><time>2026-04-03T06:01:13.001Z</time></trkpt><trkpt lat="45.86686443520705" lon="11.550092736544963"><ele>1104.3333333333335</ele><time>2026-04-03T06:01:14.001Z</time></trkpt><trkpt lat="45.86698663051894" lon="11.549893673896593"><ele>1106.0</ele><time>2026-04-03T06:01:15.001Z</time></trkpt><trkpt lat="45.86709509617944" lon="11.549697188133724"><ele>1102.3333333333335</ele><time>2026-04-03T06:01:16.001Z</time></trkpt><trkpt lat="45.8672041325222" lon="11.549513777057431"><ele>1098.6666666666667</ele><time>2026-04-03T06:01:17.001Z</time></trkpt><trkpt lat="45.86732023604238" lon="11.549375970418621"><ele>1095.0</ele><time>2026-04-03T06:01:18.001Z</time></trkpt><trkpt lat="45.867441794759046" lon="11.549266966697605"><ele>1095.0</ele><time>2026-04-03T06:01:19.001Z</time></trkpt><trkpt lat="45.867588559737435" lon="11.549180242348893"><ele>1095.0</ele><time>2026-04-03T06:01:20.001Z</time></trkpt><trkpt lat="45.86776060157036" lon="11.549126900512844"><ele>1095.0</ele><time>2026-04-03T06:01:21.001Z</time></trkpt><trkpt lat="45.867942766290746" lon="11.549067767545878"><ele>1096.3333333333333</ele><time>2026-04-03T06:01:22.001Z</time></trkpt><trkpt lat="45.86813414417648" lon="11.548991124681436"><ele>1097.6666666666665</ele><time>2026-04-03T06:01:23.001Z</time></trkpt><trkpt lat="45.868333704692475" lon="11.548932408120441"><ele>1099.0</ele><time>2026-04-03T06:01:24.001Z</time></trkpt><trkpt lat="45.86852922600387" lon="11.548861133146136"><ele>1099.0</ele><time>2026-04-03T06:01:25.001Z</time></trkpt><trkpt lat="45.86872837250075" lon="11.548793576131022"><ele>1099.0</ele><time>2026-04-03T06:01:26.001Z</time></trkpt><trkpt lat="45.86892851328823" lon="11.548734787147948"><ele>1099.0</ele><time>2026-04-03T06:01:27.001Z</time></trkpt><trkpt lat="45.869130974873386" lon="11.548669341891822"><ele>1094.3333333333333</ele><time>2026-04-03T06:01:28.001Z</time></trkpt><trkpt lat="45.86933795327498" lon="11.548598453331802"><ele>1089.6666666666667</ele><time>2026-04-03T06:01:29.001Z</time></trkpt><trkpt lat="45.869547749924735" lon="11.548528220295328"><ele>1085.0</ele><time>2026-04-03T06:01:30.001Z</time></trkpt><trkpt lat="45.86975910176922" lon="11.548460854441654"><ele>1085.0</ele><time>2026-04-03T06:01:31.001Z</time></trkpt><trkpt lat="45.86996728591832" lon="11.548392027466168"><ele>1085.0</ele><time>2026-04-03T06:01:32.001Z</time></trkpt><trkpt lat="45.87017288674836" lon="11.548321751057287"><ele>1085.0</ele><time>2026-04-03T06:01:33Z</time></trkpt><trkpt lat="45.87037760850575" lon="11.54825728457278"><ele>1086.3333333333335</ele><time>2026-04-03T06:01:34Z</time></trkpt><trkpt lat="45.870579874370584" lon="11.54819537837714"><ele>1087.6666666666667</ele><time>2026-04-03T06:01:35Z</time></trkpt><trkpt lat="45.87078177626426" lon="11.548126342924855"><ele>1089.0</ele><time>2026-04-03T06:01:36Z</time></trkpt><trkpt lat="45.870980072536604" lon="11.548055016670233"><ele>1090.3333333333333</ele><time>2026-04-03T06:01:37Z</time></trkpt><trkpt lat="45.87117323174288" lon="11.547955849304644"><ele>1091.6666666666665</ele><time>2026-04-03T06:01:38Z</time></trkpt><trkpt lat="45.87135994611013" lon="11.547821077672749"><ele>1093.0</ele><time>2026-04-03T06:01:39Z</time></trkpt><trkpt lat="45.87153465343555" lon="11.547656971490362"><ele>1091.0</ele><time>2026-04-03T06:01:40Z</time></trkpt><trkpt lat="45.87169356827173" lon="11.547472968315905"><ele>1089.0</ele><time>2026-04-03T06:01:41Z</time></trkpt><trkpt lat="45.8718514718" lon="11.547294720282064"><ele>1087.0</ele><time>2026-04-03T06:01:42Z</time></trkpt><trkpt lat="45.87201790990993" lon="11.547121958467605"><ele>1085.0</ele><time>2026-04-03T06:01:43Z</time></trkpt><trkpt lat="45.87217312901374" lon="11.546954518446604"><ele>1083.0</ele><time>2026-04-03T06:01:44Z</time></trkpt><trkpt lat="45.872332828105165" lon="11.54679434422652"><ele>1081.0</ele><time>2026-04-03T06:01:45Z</time></trkpt><trkpt lat="45.87247750346733" lon="11.54663270770471"><ele>1080.0</ele><time>2026-04-03T06:01:46Z</time></trkpt><trkpt lat="45.87262296425206" lon="11.546480733437674"><ele>1079.0</ele><time>2026-04-03T06:01:47Z</time></trkpt><trkpt lat="45.87277667362258" lon="11.546351244323754"><ele>1078.0</ele><time>2026-04-03T06:01:48Z</time></trkpt><trkpt lat="45.87293708014433" lon="11.5462454409239"><ele>1078.0</ele><time>2026-04-03T06:01:49Z</time></trkpt><trkpt lat="45.87311174451081" lon="11.546169341467849"><ele>1078.0</ele><time>2026-04-03T06:01:50Z</time></trkpt><trkpt lat="45.87329425040841" lon="11.546134104840057"><ele>1078.0</ele><time>2026-04-03T06:01:51Z</time></trkpt><trkpt lat="45.87348296730187" lon="11.546140185383194"><ele>1076.0</ele><time>2026-04-03T06:01:52Z</time></trkpt><trkpt lat="45.87366865791531" lon="11.546171609494749"><ele>1074.0</ele><time>2026-04-03T06:01:53Z</time></trkpt><trkpt lat="45.87386041999268" lon="11.54623482328654"><ele>1072.0</ele><time>2026-04-03T06:01:54Z</time></trkpt><trkpt lat="45.87405806497385" lon="11.546317903884804"><ele>1072.0</ele><time>2026-04-03T06:01:55Z</time></trkpt><trkpt lat="45.87425880062344" lon="11.546393519170227"><ele>1072.0</ele><time>2026-04-03T06:01:56Z</time></trkpt><trkpt lat="45.87445862611582" lon="11.546467269648891"><ele>1072.0</ele><time>2026-04-03T06:01:57Z</time></trkpt><trkpt lat="45.874669312683444" lon="11.546544123953987"><ele>1070.3333333333333</ele><time>2026-04-03T06:01:58Z</time></trkpt><trkpt lat="45.874878472536956" lon="11.546622026482906"><ele>1068.6666666666667</ele><time>2026-04-03T06:01:59Z</time></trkpt><trkpt lat="45.875084908527974" lon="11.546701502038188"><ele>1067.0</ele><time>2026-04-03T06:02:00Z</time></trkpt><trkpt lat="45.87529235549516" lon="11.546778699357182"><ele>1066.6666666666667</ele><time>2026-04-03T06:02:01Z</time></trkpt><trkpt lat="45.87549166751242" lon="11.54685926525124"><ele>1066.3333333333333</ele><time>2026-04-03T06:02:02Z</time></trkpt><trkpt lat="45.87567503032438" lon="11.546935170548903"><ele>1066.0</ele><time>2026-04-03T06:02:03Z</time></trkpt><trkpt lat="45.87583874214397" lon="11.547024847465007"><ele>1066.6666666666665</ele><time>2026-04-03T06:02:04Z</time></trkpt><trkpt lat="45.8759867917336" lon="11.547116271974023"><ele>1067.3333333333333</ele><time>2026-04-03T06:02:05Z</time></trkpt><trkpt lat="45.876111493228116" lon="11.54721567523766"><ele>1068.0</ele><time>2026-04-03T06:02:06Z</time></trkpt><trkpt lat="45.876254958976695" lon="11.547315207783182"><ele>1068.0</ele><time>2026-04-03T06:02:07Z</time></trkpt><trkpt lat="45.87640476661916" lon="11.547400093271337"><ele>1068.0</ele><time>2026-04-03T06:02:08Z</time></trkpt><trkpt lat="45.87657202414953" lon="11.547523045279414"><ele>1068.0</ele><time>2026-04-03T06:02:09Z</time></trkpt><trkpt lat="45.876734237967575" lon="11.547630003218657"><ele>1068.0</ele><time>2026-04-03T06:02:10Z</time></trkpt><trkpt lat="45.87690175668412" lon="11.547745082012534"><ele>1068.0</ele><time>2026-04-03T06:02:11Z</time></trkpt><trkpt lat="45.87707429817446" lon="11.547859598084752"><ele>1068.0</ele><time>2026-04-03T06:02:12.002Z</time></trkpt><trkpt lat="45.87724548831384" lon="11.547978599256655"><ele>1069.3333333333333</ele><time>2026-04-03T06:02:13.002Z</time></trkpt><trkpt lat="45.877423037907725" lon="11.54807568643274"><ele>1070.6666666666665</ele><time>2026-04-03T06:02:14.002Z</time></trkpt><trkpt lat="45.87760627020387" lon="11.548157215806203"><ele>1072.0</ele><time>2026-04-03T06:02:15.002Z</time></trkpt><trkpt lat="45.87779953836327" lon="11.548213891960412"><ele>1073.0</ele><time>2026-04-03T06:02:16.001Z</time></trkpt><trkpt lat="45.87799411215628" lon="11.548255486097492"><ele>1074.0</ele><time>2026-04-03T06:02:17.001Z</time></trkpt><trkpt lat="45.87819533379232" lon="11.548296601951398"><ele>1075.0</ele><time>2026-04-03T06:02:18.001Z</time></trkpt><trkpt lat="45.878395371123275" lon="11.548333868843185"><ele>1074.3333333333333</ele><time>2026-04-03T06:02:19.002Z</time></trkpt><trkpt lat="45.87859596609355" lon="11.548380171894976"><ele>1073.6666666666667</ele><time>2026-04-03T06:02:20.002Z</time></trkpt><trkpt lat="45.878797629556914" lon="11.548429148030184"><ele>1073.0</ele><time>2026-04-03T06:02:21.002Z</time></trkpt><trkpt lat="45.878999801814594" lon="11.548468755688047"><ele>1073.0</ele><time>2026-04-03T06:02:22.001Z</time></trkpt><trkpt lat="45.87920311440834" lon="11.548512977717339"><ele>1073.0</ele><time>2026-04-03T06:02:23.001Z</time></trkpt><trkpt lat="45.8794073184743" lon="11.548557641939723"><ele>1073.0</ele><time>2026-04-03T06:02:24.001Z</time></trkpt><trkpt lat="45.87960966334227" lon="11.548570780421791"><ele>1073.0</ele><time>2026-04-03T06:02:25.002Z</time></trkpt><trkpt lat="45.8798145212012" lon="11.548568478682219"><ele>1073.0</ele><time>2026-04-03T06:02:26.002Z</time></trkpt><trkpt lat="45.880021971758666" lon="11.548552371347606"><ele>1073.0</ele><time>2026-04-03T06:02:27.002Z</time></trkpt><trkpt lat="45.88022958161363" lon="11.54852048136018"><ele>1073.0</ele><time>2026-04-03T06:02:28.002Z</time></trkpt><trkpt lat="45.88043980585287" lon="11.548492637827486"><ele>1073.0</ele><time>2026-04-03T06:02:29.002Z</time></trkpt><trkpt lat="45.880647176775035" lon="11.548461898763774"><ele>1073.0</ele><time>2026-04-03T06:02:30.002Z</time></trkpt><trkpt lat="45.88085518162102" lon="11.54843225887459"><ele>1075.6666666666667</ele><time>2026-04-03T06:02:31.002Z</time></trkpt><trkpt lat="45.8810607512887" lon="11.548398126340961"><ele>1078.3333333333333</ele><time>2026-04-03T06:02:32.002Z</time></trkpt><trkpt lat="45.8812643830744" lon="11.548371898519571"><ele>1081.0</ele><time>2026-04-03T06:02:33.002Z</time></trkpt><trkpt lat="45.88146713094139" lon="11.548346887132947"><ele>1081.0</ele><time>2026-04-03T06:02:34.002Z</time></trkpt><trkpt lat="45.88166863977112" lon="11.548320358571107"><ele>1081.0</ele><time>2026-04-03T06:02:35.002Z</time></trkpt><trkpt lat="45.881868675730175" lon="11.548291750726438"><ele>1081.0</ele><time>2026-04-03T06:02:36.002Z</time></trkpt><trkpt lat="45.8820680079772" lon="11.548264735107356"><ele>1081.3333333333333</ele><time>2026-04-03T06:02:37.002Z</time></trkpt><trkpt lat="45.88226522771856" lon="11.548235101272518"><ele>1081.6666666666667</ele><time>2026-04-03T06:02:38.002Z</time></trkpt><trkpt lat="45.88246597754385" lon="11.548205175610885"><ele>1082.0</ele><time>2026-04-03T06:02:39.002Z</time></trkpt><trkpt lat="45.882667524338665" lon="11.54817508366677"><ele>1083.3333333333335</ele><time>2026-04-03T06:02:40.002Z</time></trkpt><trkpt lat="45.88286991179888" lon="11.548142968698096"><ele>1084.6666666666667</ele><time>2026-04-03T06:02:41.002Z</time></trkpt><trkpt lat="45.88307020522019" lon="11.548115986032254"><ele>1086.0</ele><time>2026-04-03T06:02:42.002Z</time></trkpt><trkpt lat="45.883271046860436" lon="11.548087747164448"><ele>1083.0</ele><time>2026-04-03T06:02:43.002Z</time></trkpt><trkpt lat="45.88347482475982" lon="11.548055926914348"><ele>1080.0</ele><time>2026-04-03T06:02:44.001Z</time></trkpt><trkpt lat="45.88367909284327" lon="11.54802614702674"><ele>1077.0</ele><time>2026-04-03T06:02:45.001Z</time></trkpt><trkpt lat="45.88388297361783" lon="11.548000429863814"><ele>1077.0</ele><time>2026-04-03T06:02:46.001Z</time></trkpt><trkpt lat="45.884087492082955" lon="11.547983738182424"><ele>1077.0</ele><time>2026-04-03T06:02:47.001Z</time></trkpt><trkpt lat="45.88428770612231" lon="11.547982712783535"><ele>1077.0</ele><time>2026-04-03T06:02:48.001Z</time></trkpt><trkpt lat="45.88448681662025" lon="11.548002288964826"><ele>1076.0</ele><time>2026-04-03T06:02:49.001Z</time></trkpt><trkpt lat="45.88468852125287" lon="11.548033011986668"><ele>1075.0</ele><time>2026-04-03T06:02:50.001Z</time></trkpt><trkpt lat="45.88489024783882" lon="11.54807225720127"><ele>1074.0</ele><time>2026-04-03T06:02:51.001Z</time></trkpt><trkpt lat="45.88507832250844" lon="11.548121006031923"><ele>1074.6666666666667</ele><time>2026-04-03T06:02:52.001Z</time></trkpt><trkpt lat="45.885254485055604" lon="11.54816561400319"><ele>1075.3333333333335</ele><time>2026-04-03T06:02:53.001Z</time></trkpt><trkpt lat="45.885428097513646" lon="11.54821903126057"><ele>1076.0</ele><time>2026-04-03T06:02:54.001Z</time></trkpt><trkpt lat="45.885599834982145" lon="11.548259761001496"><ele>1076.0</ele><time>2026-04-03T06:02:55.001Z</time></trkpt><trkpt lat="45.885760900715674" lon="11.548302452253862"><ele>1076.0</ele><time>2026-04-03T06:02:56.001Z</time></trkpt><trkpt lat="45.885912502985136" lon="11.548346618540071"><ele>1076.0</ele><time>2026-04-03T06:02:57.001Z</time></trkpt><trkpt lat="45.88605297431455" lon="11.548392330457158"><ele>1076.25</ele><time>2026-04-03T06:02:58.001Z</time></trkpt><trkpt lat="45.886188271886596" lon="11.548441322836126"><ele>1076.5</ele><time>2026-04-03T06:02:59.001Z</time></trkpt><trkpt lat="45.886320395904605" lon="11.548489773970624"><ele>1076.75</ele><time>2026-04-03T06:03:00.001Z</time></trkpt><trkpt lat="45.886452340330486" lon="11.548515914148991"><ele>1077.0</ele><time>2026-04-03T06:03:01.001Z</time></trkpt><trkpt lat="45.88659157695743" lon="11.548548401471155"><ele>1077.0</ele><time>2026-04-03T06:03:02.001Z</time></trkpt><trkpt lat="45.886737224161465" lon="11.548581598524587"><ele>1077.0</ele><time>2026-04-03T06:03:03.001Z</time></trkpt><trkpt lat="45.88689011662492" lon="11.548609836319104"><ele>1077.0</ele><time>2026-04-03T06:03:04.001Z</time></trkpt><trkpt lat="45.88704632542252" lon="11.54863201793389"><ele>1078.6666666666667</ele><time>2026-04-03T06:03:05.001Z</time></trkpt><trkpt lat="45.88720466513176" lon="11.548638816032216"><ele>1080.3333333333335</ele><time>2026-04-03T06:03:06.001Z</time></trkpt><trkpt lat="45.88737255469935" lon="11.548636457845538"><ele>1082.0</ele><time>2026-04-03T06:03:07.001Z</time></trkpt><trkpt lat="45.88752548249907" lon="11.548631278509784"><ele>1082.0</ele><time>2026-04-03T06:03:08.001Z</time></trkpt><trkpt lat="45.88768155534685" lon="11.54860489693145"><ele>1082.0</ele><time>2026-04-03T06:03:09.001Z</time></trkpt><trkpt lat="45.887828920378816" lon="11.548562380929226"><ele>1082.0</ele><time>2026-04-03T06:03:10.001Z</time></trkpt><trkpt lat="45.88796256226097" lon="11.548483141106752"><ele>1082.0</ele><time>2026-04-03T06:03:11.001Z</time></trkpt><trkpt lat="45.888083675266785" lon="11.548382086217636"><ele>1082.0</ele><time>2026-04-03T06:03:12.001Z</time></trkpt><trkpt lat="45.88818542788183" lon="11.548248351302107"><ele>1082.0</ele><time>2026-04-03T06:03:13.001Z</time></trkpt><trkpt lat="45.88828487757564" lon="11.548113502747615"><ele>1082.0</ele><time>2026-04-03T06:03:14.001Z</time></trkpt><trkpt lat="45.88839712029721" lon="11.54799770306488"><ele>1081.5</ele><time>2026-04-03T06:03:15.001Z</time></trkpt><trkpt lat="45.88851889924154" lon="11.547915290798647"><ele>1081.0</ele><time>2026-04-03T06:03:16.001Z</time></trkpt><trkpt lat="45.88864979044147" lon="11.547861501267406"><ele>1080.5</ele><time>2026-04-03T06:03:17.001Z</time></trkpt><trkpt lat="45.88879183277761" lon="11.547803309834253"><ele>1080.0</ele><time>2026-04-03T06:03:18.001Z</time></trkpt><trkpt lat="45.88893111134782" lon="11.547776688064024"><ele>1079.6666666666667</ele><time>2026-04-03T06:03:19.001Z</time></trkpt><trkpt lat="45.889091368193476" lon="11.547746282660382"><ele>1079.3333333333335</ele><time>2026-04-03T06:03:20.001Z</time></trkpt><trkpt lat="45.8892511364728" lon="11.547764742388628"><ele>1079.0</ele><time>2026-04-03T06:03:21.001Z</time></trkpt><trkpt lat="45.88941458063951" lon="11.547767085640231"><ele>1079.0</ele><time>2026-04-03T06:03:22.001Z</time></trkpt><trkpt lat="45.889583724405135" lon="11.547779544781488"><ele>1079.0</ele><time>2026-04-03T06:03:23.001Z</time></trkpt><trkpt lat="45.88974795412013" lon="11.547791426288619"><ele>1079.0</ele><time>2026-04-03T06:03:24.001Z</time></trkpt><trkpt lat="45.88991113493561" lon="11.54780692754239"><ele>1079.0</ele><time>2026-04-03T06:03:25.001Z</time></trkpt><trkpt lat="45.89006876391635" lon="11.54782839590017"><ele>1079.0</ele><time>2026-04-03T06:03:26.001Z</time></trkpt><trkpt lat="45.890226040284" lon="11.547858782345552"><ele>1079.0</ele><time>2026-04-03T06:03:27.001Z</time></trkpt><trkpt lat="45.89038231675167" lon="11.54790583218056"><ele>1079.3333333333335</ele><time>2026-04-03T06:03:28.001Z</time></trkpt><trkpt lat="45.890536170145786" lon="11.54796600108266"><ele>1079.6666666666667</ele><time>2026-04-03T06:03:29.001Z</time></trkpt><trkpt lat="45.89068648705178" lon="11.548026376529377"><ele>1080.0</ele><time>2026-04-03T06:03:30.001Z</time></trkpt><trkpt lat="45.89083200534618" lon="11.548084767064092"><ele>1081.0</ele><time>2026-04-03T06:03:31.001Z</time></trkpt><trkpt lat="45.890975068433704" lon="11.548134103559917"><ele>1082.0</ele><time>2026-04-03T06:03:32.001Z</time></trkpt><trkpt lat="45.89111420066299" lon="11.548135959984172"><ele>1083.0</ele><time>2026-04-03T06:03:33.001Z</time></trkpt><trkpt lat="45.89125106768429" lon="11.548116328827271"><ele>1084.0</ele><time>2026-04-03T06:03:34.001Z</time></trkpt><trkpt lat="45.89139652955762" lon="11.54806969776233"><ele>1084.0</ele><time>2026-04-03T06:03:35.001Z</time></trkpt><trkpt lat="45.89154032720125" lon="11.5480093422017"><ele>1084.0</ele><time>2026-04-03T06:03:36.001Z</time></trkpt><trkpt lat="45.891672968174795" lon="11.547947610030608"><ele>1084.0</ele><time>2026-04-03T06:03:37.001Z</time></trkpt><trkpt lat="45.89179743798277" lon="11.547891168456967"><ele>1084.0</ele><time>2026-04-03T06:03:38.001Z</time></trkpt><trkpt lat="45.89191527915509" lon="11.547841345094021"><ele>1084.4</ele><time>2026-04-03T06:03:39.001Z</time></trkpt><trkpt lat="45.89202860580282" lon="11.547805317926958"><ele>1084.8000000000002</ele><time>2026-04-03T06:03:40.001Z</time></trkpt><trkpt lat="45.892134117233034" lon="11.547791572561282"><ele>1085.1999999999998</ele><time>2026-04-03T06:03:41.001Z</time></trkpt><trkpt lat="45.89223051766119" lon="11.547807245309002"><ele>1085.6</ele><time>2026-04-03T06:03:42.001Z</time></trkpt><trkpt lat="45.892315204616565" lon="11.547831426509603"><ele>1086.0</ele><time>2026-04-03T06:03:43.001Z</time></trkpt><trkpt lat="45.8924041437851" lon="11.547879242234174"><ele>1086.0</ele><time>2026-04-03T06:03:45.001Z</time></trkpt><trkpt lat="45.892468415380016" lon="11.547952219312807"><ele>1086.0</ele><time>2026-04-03T06:03:50.001Z</time></trkpt><trkpt lat="45.892466965789176" lon="11.548109670463093"><ele>1086.0</ele><time>2026-04-03T06:03:52.001Z</time></trkpt><trkpt lat="45.8924556659855" lon="11.548222387731796"><ele>1086.0</ele><time>2026-04-03T06:03:53.001Z</time></trkpt><trkpt lat="45.89244189710281" lon="11.548355447549492"><ele>1086.0</ele><time>2026-04-03T06:03:54.001Z</time></trkpt><trkpt lat="45.89242813461451" lon="11.548489977989243"><ele>1086.0</ele><time>2026-04-03T06:03:55.001Z</time></trkpt><trkpt lat="45.89240986098095" lon="11.54862683719006"><ele>1086.0</ele><time>2026-04-03T06:03:56.001Z</time></trkpt><trkpt lat="45.8923906840669" lon="11.548761373740296"><ele>1086.0</ele><time>2026-04-03T06:03:57.001Z</time></trkpt><trkpt lat="45.89237415062864" lon="11.548895182931012"><ele>1086.0</ele><time>2026-04-03T06:03:58.001Z</time></trkpt><trkpt lat="45.89235872298806" lon="11.54902153275732"><ele>1086.0</ele><time>2026-04-03T06:03:59.001Z</time></trkpt><trkpt lat="45.89234312547049" lon="11.549145308077824"><ele>1086.0</ele><time>2026-04-03T06:04:00.001Z</time></trkpt><trkpt lat="45.892313715980094" lon="11.549262480525261"><ele>1086.0</ele><time>2026-04-03T06:04:01.001Z</time></trkpt><trkpt lat="45.89229781534635" lon="11.549387414085832"><ele>1086.0</ele><time>2026-04-03T06:04:02.001Z</time></trkpt><trkpt lat="45.89227953329623" lon="11.549529138333336"><ele>1086.0</ele><time>2026-04-03T06:04:03.001Z</time></trkpt><trkpt lat="45.89227402769076" lon="11.54969733846696"><ele>1086.0</ele><time>2026-04-03T06:04:04.001Z</time></trkpt><trkpt lat="45.89223921643534" lon="11.549876765112755"><ele>1087.0</ele><time>2026-04-03T06:04:05.001Z</time></trkpt><trkpt lat="45.89220246625385" lon="11.55007347888733"><ele>1088.0</ele><time>2026-04-03T06:04:06.001Z</time></trkpt><trkpt lat="45.89216721058159" lon="11.55028792597821"><ele>1089.0</ele><time>2026-04-03T06:04:07.001Z</time></trkpt><trkpt lat="45.89213725186442" lon="11.550498870674096"><ele>1090.0</ele><time>2026-04-03T06:04:08.001Z</time></trkpt><trkpt lat="45.892101957116736" lon="11.550710725839187"><ele>1092.0</ele><time>2026-04-03T06:04:09.001Z</time></trkpt><trkpt lat="45.89208479742587" lon="11.550929679396491"><ele>1094.0</ele><time>2026-04-03T06:04:10.001Z</time></trkpt><trkpt lat="45.89206111835805" lon="11.551156160784116"><ele>1096.0</ele><time>2026-04-03T06:04:11.001Z</time></trkpt><trkpt lat="45.89203526173731" lon="11.551375398115972"><ele>1096.5</ele><time>2026-04-03T06:04:12.001Z</time></trkpt><trkpt lat="45.89200661525668" lon="11.551588888895957"><ele>1097.0</ele><time>2026-04-03T06:04:13.001Z</time></trkpt><trkpt lat="45.891984894247486" lon="11.551791354850998"><ele>1097.5</ele><time>2026-04-03T06:04:14.001Z</time></trkpt><trkpt lat="45.89196281081446" lon="11.551977857252774"><ele>1098.0</ele><time>2026-04-03T06:04:15.001Z</time></trkpt><trkpt lat="45.89194943766484" lon="11.552152278378353"><ele>1098.5</ele><time>2026-04-03T06:04:16.001Z</time></trkpt><trkpt lat="45.89192452462104" lon="11.552316956579679"><ele>1099.0</ele><time>2026-04-03T06:04:17.001Z</time></trkpt><trkpt lat="45.89197649351958" lon="11.55248615271958"><ele>1099.5</ele><time>2026-04-03T06:04:18.002Z</time></trkpt><trkpt lat="45.89200734865277" lon="11.552652139328256"><ele>1100.0</ele><time>2026-04-03T06:04:19.001Z</time></trkpt><trkpt lat="45.8920333592058" lon="11.552829785728061"><ele>1100.5</ele><time>2026-04-03T06:04:20.001Z</time></trkpt><trkpt lat="45.89205238987134" lon="11.553006751250566"><ele>1101.0</ele><time>2026-04-03T06:04:21.002Z</time></trkpt><trkpt lat="45.892063625685275" lon="11.553189064121577"><ele>1101.5</ele><time>2026-04-03T06:04:22.002Z</time></trkpt><trkpt lat="45.892056384603116" lon="11.553371454978901"><ele>1102.0</ele><time>2026-04-03T06:04:23.002Z</time></trkpt><trkpt lat="45.89205018390922" lon="11.553553579729485"><ele>1104.0</ele><time>2026-04-03T06:04:24.002Z</time></trkpt><trkpt lat="45.89203959543752" lon="11.553744200447314"><ele>1106.0</ele><time>2026-04-03T06:04:25.002Z</time></trkpt><trkpt lat="45.89203220566687" lon="11.553938680174983"><ele>1108.0</ele><time>2026-04-03T06:04:26.002Z</time></trkpt><trkpt lat="45.89202849372082" lon="11.5541438812525"><ele>1110.0</ele><time>2026-04-03T06:04:27.001Z</time></trkpt><trkpt lat="45.89204157206883" lon="11.554353218223408"><ele>1111.0</ele><time>2026-04-03T06:04:28.002Z</time></trkpt><trkpt lat="45.89206205979034" lon="11.554563611972148"><ele>1112.0</ele><time>2026-04-03T06:04:29.002Z</time></trkpt><trkpt lat="45.892099376302646" lon="11.55478612770811"><ele>1113.0</ele><time>2026-04-03T06:04:30.002Z</time></trkpt><trkpt lat="45.89213998039637" lon="11.55500254196134"><ele>1113.0</ele><time>2026-04-03T06:04:31.002Z</time></trkpt><trkpt lat="45.892188354436904" lon="11.555215605532831"><ele>1113.0</ele><time>2026-04-03T06:04:32.002Z</time></trkpt><trkpt lat="45.89222000841302" lon="11.555427839775977"><ele>1113.0</ele><time>2026-04-03T06:04:33.002Z</time></trkpt><trkpt lat="45.89224361281622" lon="11.555644236356146"><ele>1113.0</ele><time>2026-04-03T06:04:34.002Z</time></trkpt><trkpt lat="45.89226667069248" lon="11.555859226388534"><ele>1113.0</ele><time>2026-04-03T06:04:35.002Z</time></trkpt><trkpt lat="45.89230256046806" lon="11.556065761194455"><ele>1113.0</ele><time>2026-04-03T06:04:36.002Z</time></trkpt><trkpt lat="45.89234990232657" lon="11.556265684909613"><ele>1113.0</ele><time>2026-04-03T06:04:37.002Z</time></trkpt><trkpt lat="45.89240324714823" lon="11.556452941017076"><ele>1112.5</ele><time>2026-04-03T06:04:38.002Z</time></trkpt><trkpt lat="45.892465866641516" lon="11.556629108590652"><ele>1112.0</ele><time>2026-04-03T06:04:39.001Z</time></trkpt><trkpt lat="45.89254503874926" lon="11.556800489350408"><ele>1111.5</ele><time>2026-04-03T06:04:40.001Z</time></trkpt><trkpt lat="45.89262606101182" lon="11.556973462238659"><ele>1111.0</ele><time>2026-04-03T06:04:41.001Z</time></trkpt><trkpt lat="45.89271428812788" lon="11.557145136227007"><ele>1115.6666666666665</ele><time>2026-04-03T06:04:42.001Z</time></trkpt><trkpt lat="45.89281014929749" lon="11.5573170639447"><ele>1120.3333333333333</ele><time>2026-04-03T06:04:43.001Z</time></trkpt><trkpt lat="45.89291372217658" lon="11.557487737904681"><ele>1125.0</ele><time>2026-04-03T06:04:44.001Z</time></trkpt><trkpt lat="45.89302061754627" lon="11.557660424232395"><ele>1125.0</ele><time>2026-04-03T06:04:45.001Z</time></trkpt><trkpt lat="45.89312992606323" lon="11.557839787817533"><ele>1125.0</ele><time>2026-04-03T06:04:46.001Z</time></trkpt><trkpt lat="45.893245661457264" lon="11.558017847758505"><ele>1125.0</ele><time>2026-04-03T06:04:47.001Z</time></trkpt><trkpt lat="45.893367250576965" lon="11.558196442963585"><ele>1126.3333333333333</ele><time>2026-04-03T06:04:48.001Z</time></trkpt><trkpt lat="45.89348947106034" lon="11.55837807220937"><ele>1127.6666666666665</ele><time>2026-04-03T06:04:49.001Z</time></trkpt><trkpt lat="45.89361557667637" lon="11.558555574544792"><ele>1129.0</ele><time>2026-04-03T06:04:50.001Z</time></trkpt><trkpt lat="45.89374933611997" lon="11.558722344521913"><ele>1129.0</ele><time>2026-04-03T06:04:51.001Z</time></trkpt><trkpt lat="45.893892262635696" lon="11.558879369296484"><ele>1129.0</ele><time>2026-04-03T06:04:52.001Z</time></trkpt><trkpt lat="45.89404389492259" lon="11.559023454000537"><ele>1129.0</ele><time>2026-04-03T06:04:53.001Z</time></trkpt><trkpt lat="45.8942005697327" lon="11.559158804096535"><ele>1133.3333333333333</ele><time>2026-04-03T06:04:54.001Z</time></trkpt><trkpt lat="45.89435975961234" lon="11.559296752827114"><ele>1137.6666666666667</ele><time>2026-04-03T06:04:55.001Z</time></trkpt><trkpt lat="45.89450969077839" lon="11.559452657794008"><ele>1142.0</ele><time>2026-04-03T06:04:56.001Z</time></trkpt><trkpt lat="45.89464677152776" lon="11.559628863581672"><ele>1142.0</ele><time>2026-04-03T06:04:57.001Z</time></trkpt><trkpt lat="45.89477848938275" lon="11.55981780988378"><ele>1142.0</ele><time>2026-04-03T06:04:58.001Z</time></trkpt><trkpt lat="45.894905668827974" lon="11.560010265356288"><ele>1142.0</ele><time>2026-04-03T06:04:59.001Z</time></trkpt><trkpt lat="45.89502628476452" lon="11.560193871518734"><ele>1140.75</ele><time>2026-04-03T06:05:00.001Z</time></trkpt><trkpt lat="45.89513417676032" lon="11.560368704274072"><ele>1139.5</ele><time>2026-04-03T06:05:01.001Z</time></trkpt><trkpt lat="45.895230783623674" lon="11.560524997134483"><ele>1138.25</ele><time>2026-04-03T06:05:02.001Z</time></trkpt><trkpt lat="45.895325996244104" lon="11.560649370652301"><ele>1137.0</ele><time>2026-04-03T06:05:03.001Z</time></trkpt><trkpt lat="45.8954334168775" lon="11.560724647397604"><ele>1137.0</ele><time>2026-04-03T06:05:04.001Z</time></trkpt><trkpt lat="45.895535472703536" lon="11.560732490981996"><ele>1137.0</ele><time>2026-04-03T06:05:05.001Z</time></trkpt><trkpt lat="45.89564377555159" lon="11.56068004378229"><ele>1137.0</ele><time>2026-04-03T06:05:06.001Z</time></trkpt><trkpt lat="45.89573170038166" lon="11.560562843846114"><ele>1137.0</ele><time>2026-04-03T06:05:07.001Z</time></trkpt><trkpt lat="45.895816769824584" lon="11.560418879690094"><ele>1136.25</ele><time>2026-04-03T06:05:08.001Z</time></trkpt><trkpt lat="45.895886828410234" lon="11.560240906482216"><ele>1135.5</ele><time>2026-04-03T06:05:09.001Z</time></trkpt><trkpt lat="45.89593848855318" lon="11.560045485433369"><ele>1134.75</ele><time>2026-04-03T06:05:10.001Z</time></trkpt><trkpt lat="45.895974347406614" lon="11.559844848721593"><ele>1134.0</ele><time>2026-04-03T06:05:11.001Z</time></trkpt><trkpt lat="45.89599631826531" lon="11.559649949588879"><ele>1141.6000000000001</ele><time>2026-04-03T06:05:12.001Z</time></trkpt><trkpt lat="45.896007703413254" lon="11.559468540049936"><ele>1149.2</ele><time>2026-04-03T06:05:13.001Z</time></trkpt><trkpt lat="45.896035983710526" lon="11.559311107180525"><ele>1156.8000000000002</ele><time>2026-04-03T06:05:14.001Z</time></trkpt><trkpt lat="45.89607882923293" lon="11.559171760045205"><ele>1164.4</ele><time>2026-04-03T06:05:15.001Z</time></trkpt><trkpt lat="45.896152450852526" lon="11.559070376768387"><ele>1172.0</ele><time>2026-04-03T06:05:16.001Z</time></trkpt><trkpt lat="45.896273966163974" lon="11.559023980909155"><ele>1172.0</ele><time>2026-04-03T06:05:17.001Z</time></trkpt><trkpt lat="45.89638832953723" lon="11.559024533176816"><ele>1172.0</ele><time>2026-04-03T06:05:18.001Z</time></trkpt><trkpt lat="45.89650970860148" lon="11.55905494953386"><ele>1172.0</ele><time>2026-04-03T06:05:19.001Z</time></trkpt><trkpt lat="45.896645427525215" lon="11.559088151966408"><ele>1172.0</ele><time>2026-04-03T06:05:20.001Z</time></trkpt><trkpt lat="45.8967871252019" lon="11.559106491844082"><ele>1174.0</ele><time>2026-04-03T06:05:21.001Z</time></trkpt><trkpt lat="45.89692836076512" lon="11.559067656323455"><ele>1176.0</ele><time>2026-04-03T06:05:22.001Z</time></trkpt><trkpt lat="45.89705455953381" lon="11.559017680819437"><ele>1178.0</ele><time>2026-04-03T06:05:23.001Z</time></trkpt><trkpt lat="45.89718146605088" lon="11.55894061644446"><ele>1180.0</ele><time>2026-04-03T06:05:24.001Z</time></trkpt><trkpt lat="45.89730497553723" lon="11.55889265033848"><ele>1180.0</ele><time>2026-04-03T06:05:25.001Z</time></trkpt><trkpt lat="45.89742337145552" lon="11.55891898342759"><ele>1180.0</ele><time>2026-04-03T06:05:26.001Z</time></trkpt><trkpt lat="45.89753266138301" lon="11.559033491257056"><ele>1180.0</ele><time>2026-04-03T06:05:27.001Z</time></trkpt><trkpt lat="45.89765172596567" lon="11.559149775437879"><ele>1180.0</ele><time>2026-04-03T06:05:28.001Z</time></trkpt><trkpt lat="45.89777920545763" lon="11.55926828908302"><ele>1180.6666666666665</ele><time>2026-04-03T06:05:29.001Z</time></trkpt><trkpt lat="45.8978791705028" lon="11.559434352748085"><ele>1181.3333333333333</ele><time>2026-04-03T06:05:30.001Z</time></trkpt><trkpt lat="45.89797508376738" lon="11.559592988891438"><ele>1182.0</ele><time>2026-04-03T06:05:31.001Z</time></trkpt><trkpt lat="45.8980779756096" lon="11.559752135123848"><ele>1182.0</ele><time>2026-04-03T06:05:32.001Z</time></trkpt><trkpt lat="45.89819883377363" lon="11.559896382342787"><ele>1182.0</ele><time>2026-04-03T06:05:33.001Z</time></trkpt><trkpt lat="45.89830852622435" lon="11.560058228919415"><ele>1182.0</ele><time>2026-04-03T06:05:34.001Z</time></trkpt><trkpt lat="45.89839130007735" lon="11.560241308445859"><ele>1185.25</ele><time>2026-04-03T06:05:35.001Z</time></trkpt><trkpt lat="45.898480590224345" lon="11.560415041031353"><ele>1188.5</ele><time>2026-04-03T06:05:36.001Z</time></trkpt><trkpt lat="45.89858610811535" lon="11.56056908702134"><ele>1191.75</ele><time>2026-04-03T06:05:37.001Z</time></trkpt><trkpt lat="45.89869630704505" lon="11.560712570403618"><ele>1195.0</ele><time>2026-04-03T06:05:38.001Z</time></trkpt><trkpt lat="45.898826705968524" lon="11.560830598403692"><ele>1195.0</ele><time>2026-04-03T06:05:39.001Z</time></trkpt><trkpt lat="45.89897424169494" lon="11.560923460853548"><ele>1195.0</ele><time>2026-04-03T06:05:40.001Z</time></trkpt><trkpt lat="45.89911920318368" lon="11.561031877449958"><ele>1195.0</ele><time>2026-04-03T06:05:41.001Z</time></trkpt><trkpt lat="45.89925508551433" lon="11.561135832176976"><ele>1193.75</ele><time>2026-04-03T06:05:42.001Z</time></trkpt><trkpt lat="45.89937963105378" lon="11.561227970582888"><ele>1192.5</ele><time>2026-04-03T06:05:43.001Z</time></trkpt><trkpt lat="45.89949619819566" lon="11.561285042164029"><ele>1191.25</ele><time>2026-04-03T06:05:44.001Z</time></trkpt><trkpt lat="45.89960881486439" lon="11.561290094665997"><ele>1190.0</ele><time>2026-04-03T06:05:45.001Z</time></trkpt><trkpt lat="45.89969830255386" lon="11.561227564111821"><ele>1192.75</ele><time>2026-04-03T06:05:46.001Z</time></trkpt><trkpt lat="45.89976246757466" lon="11.561114994341988"><ele>1195.5</ele><time>2026-04-03T06:05:47.001Z</time></trkpt><trkpt lat="45.89982069953965" lon="11.56097914047631"><ele>1198.25</ele><time>2026-04-03T06:05:48.001Z</time></trkpt><trkpt lat="45.899900741615376" lon="11.560847224101968"><ele>1201.0</ele><time>2026-04-03T06:05:49.001Z</time></trkpt><trkpt lat="45.90002590767094" lon="11.560773806918325"><ele>1205.25</ele><time>2026-04-03T06:05:50.001Z</time></trkpt><trkpt lat="45.90014605646861" lon="11.560670407839899"><ele>1209.5</ele><time>2026-04-03T06:05:51.001Z</time></trkpt><trkpt lat="45.900255269952815" lon="11.560562045120632"><ele>1213.75</ele><time>2026-04-03T06:05:52.001Z</time></trkpt><trkpt lat="45.90035694746098" lon="11.560455610719991"><ele>1218.0</ele><time>2026-04-03T06:05:53.001Z</time></trkpt><trkpt lat="45.900441920420015" lon="11.560367926852114"><ele>1218.0</ele><time>2026-04-03T06:05:54.001Z</time></trkpt><trkpt lat="45.90052467534195" lon="11.56032596940575"><ele>1218.0</ele><time>2026-04-03T06:05:55.001Z</time></trkpt><trkpt lat="45.900601246259846" lon="11.560354327386534"><ele>1218.0</ele><time>2026-04-03T06:05:56.001Z</time></trkpt><trkpt lat="45.9006556402854" lon="11.560446104257407"><ele>1218.0</ele><time>2026-04-03T06:05:57.001Z</time></trkpt><trkpt lat="45.90064168387733" lon="11.560579721573006"><ele>1218.0</ele><time>2026-04-03T06:05:58.001Z</time></trkpt><trkpt lat="45.90065754220185" lon="11.560706304379044"><ele>1218.0</ele><time>2026-04-03T06:05:59.001Z</time></trkpt><trkpt lat="45.900690058054735" lon="11.560842253947555"><ele>1218.0</ele><time>2026-04-03T06:06:00.001Z</time></trkpt><trkpt lat="45.90075508299966" lon="11.560966100032484"><ele>1218.0</ele><time>2026-04-03T06:06:01.001Z</time></trkpt><trkpt lat="45.90081402508635" lon="11.561107962096568"><ele>1218.0</ele><time>2026-04-03T06:06:02.001Z</time></trkpt><trkpt lat="45.900871298835945" lon="11.561258809590315"><ele>1218.0</ele><time>2026-04-03T06:06:03.001Z</time></trkpt><trkpt lat="45.900930955871054" lon="11.561414156340819"><ele>1223.25</ele><time>2026-04-03T06:06:04.001Z</time></trkpt><trkpt lat="45.901007858248875" lon="11.561553722245204"><ele>1228.5</ele><time>2026-04-03T06:06:05.001Z</time></trkpt><trkpt lat="45.901097230072" lon="11.561688181122255"><ele>1233.75</ele><time>2026-04-03T06:06:06.001Z</time></trkpt><trkpt lat="45.90121711790803" lon="11.561757499221898"><ele>1239.0</ele><time>2026-04-03T06:06:07.001Z</time></trkpt><trkpt lat="45.901319668797115" lon="11.561856307395555"><ele>1239.0</ele><time>2026-04-03T06:06:08.001Z</time></trkpt><trkpt lat="45.90138316075796" lon="11.562004204699978"><ele>1239.0</ele><time>2026-04-03T06:06:09.001Z</time></trkpt><trkpt lat="45.90138513491929" lon="11.562188607699818"><ele>1239.0</ele><time>2026-04-03T06:06:10.001Z</time></trkpt><trkpt lat="45.90140555924396" lon="11.562386127745599"><ele>1239.0</ele><time>2026-04-03T06:06:11.001Z</time></trkpt><trkpt lat="45.90141000673886" lon="11.562592274565596"><ele>1239.0</ele><time>2026-04-03T06:06:12.001Z</time></trkpt><trkpt lat="45.901406445867856" lon="11.562794278365471"><ele>1239.0</ele><time>2026-04-03T06:06:13.001Z</time></trkpt><trkpt lat="45.90138832948325" lon="11.56298446058024"><ele>1239.0</ele><time>2026-04-03T06:06:14.001Z</time></trkpt><trkpt lat="45.901360756711064" lon="11.563163956153042"><ele>1239.0</ele><time>2026-04-03T06:06:15.001Z</time></trkpt><trkpt lat="45.901345534023235" lon="11.563321298740878"><ele>1239.2</ele><time>2026-04-03T06:06:16.001Z</time></trkpt><trkpt lat="45.901353798552186" lon="11.563461206479904"><ele>1239.4</ele><time>2026-04-03T06:06:17Z</time></trkpt><trkpt lat="45.90140289682918" lon="11.563594727966823"><ele>1239.6</ele><time>2026-04-03T06:06:18Z</time></trkpt><trkpt lat="45.9014750905455" lon="11.563728637449794"><ele>1239.8</ele><time>2026-04-03T06:06:19Z</time></trkpt><trkpt lat="45.90155297822295" lon="11.563867317119197"><ele>1240.0</ele><time>2026-04-03T06:06:20Z</time></trkpt><trkpt lat="45.901641614809776" lon="11.564012360555415"><ele>1240.75</ele><time>2026-04-03T06:06:21Z</time></trkpt><trkpt lat="45.901734482196964" lon="11.564155894887826"><ele>1241.5</ele><time>2026-04-03T06:06:22Z</time></trkpt><trkpt lat="45.901811743091024" lon="11.564309556068874"><ele>1242.25</ele><time>2026-04-03T06:06:23Z</time></trkpt><trkpt lat="45.90188005511845" lon="11.564463248565113"><ele>1243.0</ele><time>2026-04-03T06:06:24.002Z</time></trkpt><trkpt lat="45.9019554421535" lon="11.564602033743409"><ele>1243.0</ele><time>2026-04-03T06:06:25.001Z</time></trkpt><trkpt lat="45.9020608624525" lon="11.564718791943216"><ele>1243.0</ele><time>2026-04-03T06:06:26.001Z</time></trkpt><trkpt lat="45.902186832132614" lon="11.564804284852368"><ele>1243.0</ele><time>2026-04-03T06:06:27.001Z</time></trkpt><trkpt lat="45.902319253359686" lon="11.564879394052953"><ele>1243.0</ele><time>2026-04-03T06:06:28.002Z</time></trkpt><trkpt lat="45.902455318948256" lon="11.564967368749711"><ele>1251.5</ele><time>2026-04-03T06:06:29.002Z</time></trkpt><trkpt lat="45.90259329139685" lon="11.565058548759183"><ele>1260.0</ele><time>2026-04-03T06:06:30.001Z</time></trkpt><trkpt lat="45.902723222097464" lon="11.565149075231576"><ele>1268.5</ele><time>2026-04-03T06:06:31.001Z</time></trkpt><trkpt lat="45.90285681955272" lon="11.565248339712367"><ele>1277.0</ele><time>2026-04-03T06:06:32.001Z</time></trkpt><trkpt lat="45.90299620252417" lon="11.565351781877036"><ele>1276.0</ele><time>2026-04-03T06:06:33.002Z</time></trkpt><trkpt lat="45.90313698607533" lon="11.565457819847508"><ele>1275.0</ele><time>2026-04-03T06:06:34.001Z</time></trkpt><trkpt lat="45.9032777408318" lon="11.565559631797194"><ele>1274.0</ele><time>2026-04-03T06:06:35.001Z</time></trkpt><trkpt lat="45.90341964437509" lon="11.565658143764365"><ele>1274.0</ele><time>2026-04-03T06:06:36.001Z</time></trkpt><trkpt lat="45.90356647329956" lon="11.56574699645919"><ele>1274.0</ele><time>2026-04-03T06:06:37.001Z</time></trkpt><trkpt lat="45.90370733072154" lon="11.56585502346426"><ele>1274.0</ele><time>2026-04-03T06:06:38.001Z</time></trkpt><trkpt lat="45.903864214332955" lon="11.565924666474698"><ele>1274.0</ele><time>2026-04-03T06:06:39.001Z</time></trkpt><trkpt lat="45.90402406828792" lon="11.565975862200391"><ele>1274.0</ele><time>2026-04-03T06:06:40.001Z</time></trkpt><trkpt lat="45.90418063725807" lon="11.566044185689034"><ele>1274.0</ele><time>2026-04-03T06:06:41.001Z</time></trkpt><trkpt lat="45.90433584668062" lon="11.56612634088889"><ele>1275.3333333333335</ele><time>2026-04-03T06:06:42.001Z</time></trkpt><trkpt lat="45.904484605631495" lon="11.566246742590355"><ele>1276.6666666666667</ele><time>2026-04-03T06:06:43.001Z</time></trkpt><trkpt lat="45.9046313309822" lon="11.566373385369442"><ele>1278.0</ele><time>2026-04-03T06:06:44.001Z</time></trkpt><trkpt lat="45.90477807077447" lon="11.566497153751907"><ele>1278.0</ele><time>2026-04-03T06:06:45.001Z</time></trkpt><trkpt lat="45.90492635197541" lon="11.566621452987691"><ele>1278.0</ele><time>2026-04-03T06:06:46.001Z</time></trkpt><trkpt lat="45.90507975304177" lon="11.566741146213559"><ele>1278.0</ele><time>2026-04-03T06:06:47.001Z</time></trkpt><trkpt lat="45.90523102224203" lon="11.566871600948659"><ele>1279.6666666666667</ele><time>2026-04-03T06:06:48.001Z</time></trkpt><trkpt lat="45.905380450602934" lon="11.567007766528056"><ele>1281.3333333333335</ele><time>2026-04-03T06:06:49.001Z</time></trkpt><trkpt lat="45.905530568176" lon="11.567144217458058"><ele>1283.0</ele><time>2026-04-03T06:06:50.001Z</time></trkpt><trkpt lat="45.90568131001053" lon="11.567283454146997"><ele>1283.0</ele><time>2026-04-03T06:06:51.001Z</time></trkpt><trkpt lat="45.90583337206114" lon="11.567419714158348"><ele>1283.0</ele><time>2026-04-03T06:06:52.001Z</time></trkpt><trkpt lat="45.905988773508845" lon="11.56755008839659"><ele>1283.0</ele><time>2026-04-03T06:06:53.001Z</time></trkpt><trkpt lat="45.906150624705234" lon="11.567672460915256"><ele>1284.6666666666667</ele><time>2026-04-03T06:06:54.001Z</time></trkpt><trkpt lat="45.90630905586413" lon="11.567784148768654"><ele>1286.3333333333333</ele><time>2026-04-03T06:06:55.001Z</time></trkpt><trkpt lat="45.90646319290509" lon="11.567896955709505"><ele>1288.0</ele><time>2026-04-03T06:06:56.001Z</time></trkpt><trkpt lat="45.90661695772483" lon="11.568009178598446"><ele>1295.6666666666665</ele><time>2026-04-03T06:06:57.001Z</time></trkpt><trkpt lat="45.90677567850431" lon="11.568099807565808"><ele>1303.3333333333333</ele><time>2026-04-03T06:06:58.001Z</time></trkpt><trkpt lat="45.9069314820533" lon="11.568185902667"><ele>1311.0</ele><time>2026-04-03T06:06:59.001Z</time></trkpt><trkpt lat="45.90708937958553" lon="11.568266705043303"><ele>1311.0</ele><time>2026-04-03T06:07:00.001Z</time></trkpt><trkpt lat="45.907245516156536" lon="11.568341347778544"><ele>1311.0</ele><time>2026-04-03T06:07:01.001Z</time></trkpt><trkpt lat="45.90740650110587" lon="11.568402347415748"><ele>1311.0</ele><time>2026-04-03T06:07:02.001Z</time></trkpt><trkpt lat="45.90757173575182" lon="11.568429015809663"><ele>1316.0</ele><time>2026-04-03T06:07:03.001Z</time></trkpt><trkpt lat="45.907736840724226" lon="11.568433387480423"><ele>1321.0</ele><time>2026-04-03T06:07:04.001Z</time></trkpt><trkpt lat="45.90790253968089" lon="11.568425374186749"><ele>1326.0</ele><time>2026-04-03T06:07:05.001Z</time></trkpt><trkpt lat="45.90807134406164" lon="11.568409924048336"><ele>1326.0</ele><time>2026-04-03T06:07:06.001Z</time></trkpt><trkpt lat="45.90823789930727" lon="11.568396967765187"><ele>1326.0</ele><time>2026-04-03T06:07:07.001Z</time></trkpt><trkpt lat="45.9084025280733" lon="11.568383652836197"><ele>1326.0</ele><time>2026-04-03T06:07:08.001Z</time></trkpt><trkpt lat="45.90856714317007" lon="11.568365034484591"><ele>1330.3333333333333</ele><time>2026-04-03T06:07:09.001Z</time></trkpt><trkpt lat="45.90872720358926" lon="11.56834783393622"><ele>1334.6666666666665</ele><time>2026-04-03T06:07:10.001Z</time></trkpt><trkpt lat="45.90889018958841" lon="11.568323614518903"><ele>1339.0</ele><time>2026-04-03T06:07:11.001Z</time></trkpt><trkpt lat="45.90905689778671" lon="11.5682992637827"><ele>1339.0</ele><time>2026-04-03T06:07:12.001Z</time></trkpt><trkpt lat="45.9092200012802" lon="11.568279178184623"><ele>1339.0</ele><time>2026-04-03T06:07:13.001Z</time></trkpt><trkpt lat="45.90938284447108" lon="11.568255825305096"><ele>1339.0</ele><time>2026-04-03T06:07:14.001Z</time></trkpt><trkpt lat="45.90954479837474" lon="11.568240114767624"><ele>1340.6666666666665</ele><time>2026-04-03T06:07:15.001Z</time></trkpt><trkpt lat="45.90970287908344" lon="11.568222823872002"><ele>1342.3333333333333</ele><time>2026-04-03T06:07:16.001Z</time></trkpt><trkpt lat="45.90986361954972" lon="11.568186817079836"><ele>1344.0</ele><time>2026-04-03T06:07:17.001Z</time></trkpt><trkpt lat="45.91001820922103" lon="11.568144087800095"><ele>1347.0</ele><time>2026-04-03T06:07:18.001Z</time></trkpt><trkpt lat="45.910175849364975" lon="11.568098653844366"><ele>1350.0</ele><time>2026-04-03T06:07:19.001Z</time></trkpt><trkpt lat="45.91033521594952" lon="11.568054800270705"><ele>1353.0</ele><time>2026-04-03T06:07:20.001Z</time></trkpt><trkpt lat="45.910494843454785" lon="11.568023803547728"><ele>1353.0</ele><time>2026-04-03T06:07:21.001Z</time></trkpt><trkpt lat="45.91065024241227" lon="11.567984063321953"><ele>1353.0</ele><time>2026-04-03T06:07:22.001Z</time></trkpt><trkpt lat="45.91080028267333" lon="11.567927028747437"><ele>1353.0</ele><time>2026-04-03T06:07:23.001Z</time></trkpt><trkpt lat="45.91094622954158" lon="11.567851483476892"><ele>1363.3333333333333</ele><time>2026-04-03T06:07:24.001Z</time></trkpt><trkpt lat="45.91109813165236" lon="11.567789486129493"><ele>1373.6666666666665</ele><time>2026-04-03T06:07:25.001Z</time></trkpt><trkpt lat="45.91125124844044" lon="11.567752959314692"><ele>1384.0</ele><time>2026-04-03T06:07:26.001Z</time></trkpt><trkpt lat="45.91140006049011" lon="11.56772708720822"><ele>1384.0</ele><time>2026-04-03T06:07:27.001Z</time></trkpt><trkpt lat="45.91153638468184" lon="11.567706732703083"><ele>1384.0</ele><time>2026-04-03T06:07:28.001Z</time></trkpt><trkpt lat="45.91167009770175" lon="11.567716223914037"><ele>1384.0</ele><time>2026-04-03T06:07:29.001Z</time></trkpt><trkpt lat="45.91180322615056" lon="11.567759344886662"><ele>1384.0</ele><time>2026-04-03T06:07:30.001Z</time></trkpt><trkpt lat="45.91192725831297" lon="11.567831308318084"><ele>1385.75</ele><time>2026-04-03T06:07:31.001Z</time></trkpt><trkpt lat="45.91205568223658" lon="11.567896617271684"><ele>1387.5</ele><time>2026-04-03T06:07:32.001Z</time></trkpt><trkpt lat="45.91218612623485" lon="11.56793682336818"><ele>1389.25</ele><time>2026-04-03T06:07:33.001Z</time></trkpt><trkpt lat="45.91231964435507" lon="11.567942216889438"><ele>1391.0</ele><time>2026-04-03T06:07:34.001Z</time></trkpt><trkpt lat="45.91245923541567" lon="11.567919486292297"><ele>1391.75</ele><time>2026-04-03T06:07:35.001Z</time></trkpt><trkpt lat="45.9125945404233" lon="11.567859723485263"><ele>1392.5</ele><time>2026-04-03T06:07:36.001Z</time></trkpt><trkpt lat="45.912728683123426" lon="11.567772942555331"><ele>1393.25</ele><time>2026-04-03T06:07:37.001Z</time></trkpt><trkpt lat="45.91286984590657" lon="11.567689798835106"><ele>1394.0</ele><time>2026-04-03T06:07:38.001Z</time></trkpt><trkpt lat="45.913019542902035" lon="11.567628078316782"><ele>1394.0</ele><time>2026-04-03T06:07:39.001Z</time></trkpt><trkpt lat="45.913172551490945" lon="11.567580838640282"><ele>1394.0</ele><time>2026-04-03T06:07:40.001Z</time></trkpt><trkpt lat="45.91333003645352" lon="11.567551534726306"><ele>1394.0</ele><time>2026-04-03T06:07:41.001Z</time></trkpt><trkpt lat="45.913481367523275" lon="11.567495762401775"><ele>1397.0</ele><time>2026-04-03T06:07:42.001Z</time></trkpt><trkpt lat="45.91364122022414" lon="11.567419989462026"><ele>1400.0</ele><time>2026-04-03T06:07:43.001Z</time></trkpt><trkpt lat="45.91380164531532" lon="11.567338114783684"><ele>1403.0</ele><time>2026-04-03T06:07:44.001Z</time></trkpt><trkpt lat="45.913968442642556" lon="11.567255351528713"><ele>1403.0</ele><time>2026-04-03T06:07:45.001Z</time></trkpt><trkpt lat="45.91413873672184" lon="11.567168099330578"><ele>1403.0</ele><time>2026-04-03T06:07:46.001Z</time></trkpt><trkpt lat="45.91430952051909" lon="11.567084351702874"><ele>1403.0</ele><time>2026-04-03T06:07:47.001Z</time></trkpt><trkpt lat="45.914477845180315" lon="11.567004040208806"><ele>1405.0</ele><time>2026-04-03T06:07:48.001Z</time></trkpt><trkpt lat="45.91464432000266" lon="11.566924216702681"><ele>1407.0</ele><time>2026-04-03T06:07:49.001Z</time></trkpt><trkpt lat="45.91480812079377" lon="11.566848377156308"><ele>1409.0</ele><time>2026-04-03T06:07:50.001Z</time></trkpt><trkpt lat="45.91496930063598" lon="11.566774043649726"><ele>1410.6666666666667</ele><time>2026-04-03T06:07:51.001Z</time></trkpt><trkpt lat="45.91512673522325" lon="11.566698606429226"><ele>1412.3333333333333</ele><time>2026-04-03T06:07:52.001Z</time></trkpt><trkpt lat="45.915279204452034" lon="11.5666108433555"><ele>1414.0</ele><time>2026-04-03T06:07:53.001Z</time></trkpt><trkpt lat="45.91542635562218" lon="11.566508204079312"><ele>1414.0</ele><time>2026-04-03T06:07:54.001Z</time></trkpt><trkpt lat="45.91557055421162" lon="11.566401153958521"><ele>1414.0</ele><time>2026-04-03T06:07:55.001Z</time></trkpt><trkpt lat="45.915714483521036" lon="11.566289670733031"><ele>1414.0</ele><time>2026-04-03T06:07:56.001Z</time></trkpt><trkpt lat="45.915857901529904" lon="11.566172521937446"><ele>1413.3333333333333</ele><time>2026-04-03T06:07:57.001Z</time></trkpt><trkpt lat="45.91599525078161" lon="11.566048006033666"><ele>1412.6666666666667</ele><time>2026-04-03T06:07:58.001Z</time></trkpt><trkpt lat="45.91612598580296" lon="11.565918311425056"><ele>1412.0</ele><time>2026-04-03T06:07:59.001Z</time></trkpt><trkpt lat="45.91625185330606" lon="11.565785523603726"><ele>1412.0</ele><time>2026-04-03T06:08:00.001Z</time></trkpt><trkpt lat="45.91637683493993" lon="11.565649787800995"><ele>1412.0</ele><time>2026-04-03T06:08:01Z</time></trkpt><trkpt lat="45.91650499957232" lon="11.56551570592576"><ele>1412.0</ele><time>2026-04-03T06:08:02Z</time></trkpt><trkpt lat="45.91663133637648" lon="11.565383213188454"><ele>1415.25</ele><time>2026-04-03T06:08:03Z</time></trkpt><trkpt lat="45.916752996498325" lon="11.565253431854735"><ele>1418.5</ele><time>2026-04-03T06:08:04Z</time></trkpt><trkpt lat="45.91687295973412" lon="11.565127851802178"><ele>1421.75</ele><time>2026-04-03T06:08:05Z</time></trkpt><trkpt lat="45.91699098393819" lon="11.565006647661326"><ele>1425.0</ele><time>2026-04-03T06:08:06Z</time></trkpt><trkpt lat="45.91710184057581" lon="11.564883796572767"><ele>1425.0</ele><time>2026-04-03T06:08:07Z</time></trkpt><trkpt lat="45.91720534448347" lon="11.564750305406797"><ele>1425.0</ele><time>2026-04-03T06:08:08Z</time></trkpt><trkpt lat="45.917306840512126" lon="11.564606835366353"><ele>1425.0</ele><time>2026-04-03T06:08:09Z</time></trkpt><trkpt lat="45.91739848600777" lon="11.564456141142113"><ele>1425.0</ele><time>2026-04-03T06:08:10Z</time></trkpt><trkpt lat="45.9174872041643" lon="11.564311641267508"><ele>1426.25</ele><time>2026-04-03T06:08:11Z</time></trkpt><trkpt lat="45.917576132700724" lon="11.564171755171516"><ele>1427.5</ele><time>2026-04-03T06:08:12Z</time></trkpt><trkpt lat="45.917656187138206" lon="11.56402489822059"><ele>1428.75</ele><time>2026-04-03T06:08:13Z</time></trkpt><trkpt lat="45.91772050508546" lon="11.563861842999852"><ele>1430.0</ele><time>2026-04-03T06:08:14Z</time></trkpt><trkpt lat="45.91777269025317" lon="11.563688318590787"><ele>1430.0</ele><time>2026-04-03T06:08:15Z</time></trkpt><trkpt lat="45.917807879909056" lon="11.563498955132422"><ele>1430.0</ele><time>2026-04-03T06:08:16Z</time></trkpt><trkpt lat="45.91782830473033" lon="11.563303521241401"><ele>1430.0</ele><time>2026-04-03T06:08:17Z</time></trkpt><trkpt lat="45.91784566133776" lon="11.563106129131576"><ele>1430.0</ele><time>2026-04-03T06:08:18Z</time></trkpt><trkpt lat="45.91786639641523" lon="11.562925874382081"><ele>1429.25</ele><time>2026-04-03T06:08:19Z</time></trkpt><trkpt lat="45.91789700854292" lon="11.562750192734288"><ele>1428.5</ele><time>2026-04-03T06:08:20Z</time></trkpt><trkpt lat="45.91794266232508" lon="11.5625841441787"><ele>1427.75</ele><time>2026-04-03T06:08:21Z</time></trkpt><trkpt lat="45.91799972320516" lon="11.562415450956058"><ele>1427.0</ele><time>2026-04-03T06:08:22Z</time></trkpt><trkpt lat="45.918079024331426" lon="11.562268936548705"><ele>1427.0</ele><time>2026-04-03T06:08:23Z</time></trkpt><trkpt lat="45.91816891345481" lon="11.56213460042876"><ele>1427.0</ele><time>2026-04-03T06:08:24Z</time></trkpt><trkpt lat="45.91826580967513" lon="11.562009129303547"><ele>1427.0</ele><time>2026-04-03T06:08:25Z</time></trkpt><trkpt lat="45.918372074788174" lon="11.561900242551436"><ele>1427.0</ele><time>2026-04-03T06:08:26Z</time></trkpt><trkpt lat="45.91848984416306" lon="11.56181137706609"><ele>1427.25</ele><time>2026-04-03T06:08:27Z</time></trkpt><trkpt lat="45.91861518457048" lon="11.561736452238229"><ele>1427.5</ele><time>2026-04-03T06:08:28Z</time></trkpt><trkpt lat="45.91874956218355" lon="11.561676147564174"><ele>1427.75</ele><time>2026-04-03T06:08:29Z</time></trkpt><trkpt lat="45.91888171558921" lon="11.561619909574437"><ele>1428.0</ele><time>2026-04-03T06:08:30.002Z</time></trkpt><trkpt lat="45.91902040750003" lon="11.561560274345197"><ele>1428.0</ele><time>2026-04-03T06:08:31.002Z</time></trkpt><trkpt lat="45.919166769841055" lon="11.561521639055577"><ele>1428.0</ele><time>2026-04-03T06:08:32.002Z</time></trkpt><trkpt lat="45.91930476634768" lon="11.561460954622044"><ele>1428.0</ele><time>2026-04-03T06:08:33.002Z</time></trkpt><trkpt lat="45.91944401556081" lon="11.561399950318801"><ele>1428.0</ele><time>2026-04-03T06:08:34.002Z</time></trkpt><trkpt lat="45.91958343186627" lon="11.561335617561761"><ele>1428.5</ele><time>2026-04-03T06:08:35.002Z</time></trkpt><trkpt lat="45.919723943331014" lon="11.561274486896643"><ele>1429.0</ele><time>2026-04-03T06:08:36.001Z</time></trkpt><trkpt lat="45.91986222445357" lon="11.561217584982007"><ele>1429.5</ele><time>2026-04-03T06:08:37.002Z</time></trkpt><trkpt lat="45.920000023159844" lon="11.561156103291845"><ele>1430.0</ele><time>2026-04-03T06:08:38.002Z</time></trkpt><trkpt lat="45.920138256994974" lon="11.561099175739121"><ele>1433.0</ele><time>2026-04-03T06:08:39.001Z</time></trkpt><trkpt lat="45.92027756689066" lon="11.56106707756976"><ele>1436.0</ele><time>2026-04-03T06:08:40.001Z</time></trkpt><trkpt lat="45.92042035190886" lon="11.561059673362832"><ele>1439.0</ele><time>2026-04-03T06:08:41.001Z</time></trkpt><trkpt lat="45.92056682587064" lon="11.561080881356963"><ele>1442.0</ele><time>2026-04-03T06:08:42.001Z</time></trkpt><trkpt lat="45.92071326170612" lon="11.56109892035248"><ele>1442.0</ele><time>2026-04-03T06:08:43.002Z</time></trkpt><trkpt lat="45.92085727606016" lon="11.561097673128193"><ele>1442.0</ele><time>2026-04-03T06:08:44.002Z</time></trkpt><trkpt lat="45.921000749283444" lon="11.561085507465156"><ele>1442.0</ele><time>2026-04-03T06:08:45.002Z</time></trkpt><trkpt lat="45.921142171675555" lon="11.561067568216082"><ele>1442.0</ele><time>2026-04-03T06:08:46.002Z</time></trkpt><trkpt lat="45.92128707643116" lon="11.561044196138962"><ele>1443.25</ele><time>2026-04-03T06:08:47.002Z</time></trkpt><trkpt lat="45.921431800868255" lon="11.561019078171286"><ele>1444.5</ele><time>2026-04-03T06:08:48.002Z</time></trkpt><trkpt lat="45.92157297128685" lon="11.560986019433875"><ele>1445.75</ele><time>2026-04-03T06:08:49.002Z</time></trkpt><trkpt lat="45.92171720997582" lon="11.560953015540681"><ele>1447.0</ele><time>2026-04-03T06:08:50.002Z</time></trkpt><trkpt lat="45.921862812325564" lon="11.560931248363675"><ele>1449.25</ele><time>2026-04-03T06:08:51.002Z</time></trkpt><trkpt lat="45.92200265340623" lon="11.560938247366284"><ele>1451.5</ele><time>2026-04-03T06:08:52.002Z</time></trkpt><trkpt lat="45.92213600916862" lon="11.560971560135446"><ele>1453.75</ele><time>2026-04-03T06:08:53.002Z</time></trkpt><trkpt lat="45.92226262220431" lon="11.561017122706259"><ele>1456.0</ele><time>2026-04-03T06:08:54.002Z</time></trkpt><trkpt lat="45.922393115886855" lon="11.56105391236231"><ele>1456.0</ele><time>2026-04-03T06:08:55.002Z</time></trkpt><trkpt lat="45.92252972834859" lon="11.561061728698872"><ele>1456.0</ele><time>2026-04-03T06:08:56.002Z</time></trkpt><trkpt lat="45.922671096966496" lon="11.561026708342368"><ele>1456.0</ele><time>2026-04-03T06:08:57.002Z</time></trkpt><trkpt lat="45.922797380084035" lon="11.560957766265982"><ele>1456.0</ele><time>2026-04-03T06:08:58.002Z</time></trkpt><trkpt lat="45.9229274495472" lon="11.560882577053754"><ele>1458.0</ele><time>2026-04-03T06:08:59.002Z</time></trkpt><trkpt lat="45.923062269516834" lon="11.560819019003905"><ele>1460.0</ele><time>2026-04-03T06:09:00.002Z</time></trkpt><trkpt lat="45.92319546787617" lon="11.56076291342847"><ele>1462.0</ele><time>2026-04-03T06:09:01.002Z</time></trkpt><trkpt lat="45.92332656106293" lon="11.560703492597014"><ele>1464.0</ele><time>2026-04-03T06:09:02.002Z</time></trkpt><trkpt lat="45.92345296499768" lon="11.560649079056839"><ele>1464.75</ele><time>2026-04-03T06:09:03.001Z</time></trkpt><trkpt lat="45.923571513986" lon="11.560594427227906"><ele>1465.5</ele><time>2026-04-03T06:09:04.001Z</time></trkpt><trkpt lat="45.92368550562423" lon="11.560547393401055"><ele>1466.25</ele><time>2026-04-03T06:09:05.001Z</time></trkpt><trkpt lat="45.92379654476884" lon="11.560514197489857"><ele>1467.0</ele><time>2026-04-03T06:09:06.001Z</time></trkpt><trkpt lat="45.92390494679597" lon="11.56049653189078"><ele>1467.0</ele><time>2026-04-03T06:09:07.001Z</time></trkpt><trkpt lat="45.92401207174475" lon="11.560520437842863"><ele>1467.0</ele><time>2026-04-03T06:09:08.001Z</time></trkpt><trkpt lat="45.924113395053126" lon="11.560572869502323"><ele>1467.0</ele><time>2026-04-03T06:09:09.001Z</time></trkpt><trkpt lat="45.92420594660063" lon="11.560621781613303"><ele>1467.0</ele><time>2026-04-03T06:09:10.001Z</time></trkpt><trkpt lat="45.924300813261084" lon="11.560657810334279"><ele>1467.0</ele><time>2026-04-03T06:09:11.001Z</time></trkpt><trkpt lat="45.9243923917752" lon="11.560669793773853"><ele>1467.0</ele><time>2026-04-03T06:09:12.001Z</time></trkpt><trkpt lat="45.924484230870725" lon="11.560661199355263"><ele>1467.0</ele><time>2026-04-03T06:09:14.001Z</time></trkpt><trkpt lat="45.92439911144778" lon="11.560652757527949"><ele>1467.0</ele><time>2026-04-03T06:09:29.001Z</time></trkpt><trkpt lat="45.92450988312456" lon="11.560598911365146"><ele>1467.0</ele><time>2026-04-03T06:09:31.001Z</time></trkpt><trkpt lat="45.92408967035418" lon="11.560499578172857"><ele>1467.0</ele><time>2026-04-03T06:09:33.001Z</time></trkpt><trkpt lat="45.92399159891471" lon="11.560459027767651"><ele>1467.0</ele><time>2026-04-03T06:09:34.001Z</time></trkpt><trkpt lat="45.9238731879563" lon="11.560451812053508"><ele>1467.0</ele><time>2026-04-03T06:09:35.001Z</time></trkpt><trkpt lat="45.92374590102132" lon="11.560478989497035"><ele>1467.0</ele><time>2026-04-03T06:09:36.001Z</time></trkpt><trkpt lat="45.92360945641884" lon="11.560526544244242"><ele>1467.0</ele><time>2026-04-03T06:09:37.001Z</time></trkpt><trkpt lat="45.92346884068957" lon="11.560589685483592"><ele>1467.0</ele><time>2026-04-03T06:09:38.001Z</time></trkpt><trkpt lat="45.92331972428748" lon="11.560652731752533"><ele>1467.0</ele><time>2026-04-03T06:09:39.001Z</time></trkpt><trkpt lat="45.92316520467959" lon="11.560716328011834"><ele>1466.0</ele><time>2026-04-03T06:09:40.001Z</time></trkpt><trkpt lat="45.92300895343954" lon="11.560781213751866"><ele>1465.0</ele><time>2026-04-03T06:09:41.001Z</time></trkpt><trkpt lat="45.92286801232069" lon="11.560863703387872"><ele>1464.0</ele><time>2026-04-03T06:09:42.001Z</time></trkpt><trkpt lat="45.92273765511858" lon="11.560939819013264"><ele>1464.0</ele><time>2026-04-03T06:09:43.001Z</time></trkpt><trkpt lat="45.922614888611186" lon="11.56099928597986"><ele>1464.0</ele><time>2026-04-03T06:09:44.001Z</time></trkpt><trkpt lat="45.92249367866507" lon="11.561020852801263"><ele>1464.0</ele><time>2026-04-03T06:09:45.001Z</time></trkpt><trkpt lat="45.92237393695864" lon="11.561006186759794"><ele>1464.0</ele><time>2026-04-03T06:09:46.001Z</time></trkpt><trkpt lat="45.922254646514936" lon="11.560954540435866"><ele>1462.0</ele><time>2026-04-03T06:09:47.001Z</time></trkpt><trkpt lat="45.92213549421004" lon="11.560894941066802"><ele>1460.0</ele><time>2026-04-03T06:09:48.001Z</time></trkpt><trkpt lat="45.92201067990406" lon="11.560862040624448"><ele>1458.0</ele><time>2026-04-03T06:09:49.001Z</time></trkpt><trkpt lat="45.92187249258122" lon="11.560854709015292"><ele>1456.0</ele><time>2026-04-03T06:09:50.001Z</time></trkpt><trkpt lat="45.92172906615462" lon="11.560885438635003"><ele>1453.0</ele><time>2026-04-03T06:09:51.001Z</time></trkpt><trkpt lat="45.921584228142486" lon="11.560915746840841"><ele>1450.0</ele><time>2026-04-03T06:09:52.001Z</time></trkpt><trkpt lat="45.921433983455884" lon="11.56094871881658"><ele>1447.0</ele><time>2026-04-03T06:09:53.001Z</time></trkpt><trkpt lat="45.92128040187859" lon="11.560988596531523"><ele>1447.0</ele><time>2026-04-03T06:09:54.001Z</time></trkpt><trkpt lat="45.92112392891321" lon="11.561018812994694"><ele>1447.0</ele><time>2026-04-03T06:09:55.001Z</time></trkpt><trkpt lat="45.920965311984496" lon="11.56104036772535"><ele>1447.0</ele><time>2026-04-03T06:09:56.001Z</time></trkpt><trkpt lat="45.92080148431745" lon="11.561040523010055"><ele>1445.3333333333333</ele><time>2026-04-03T06:09:57.001Z</time></trkpt><trkpt lat="45.92063660281822" lon="11.561015547780789"><ele>1443.6666666666667</ele><time>2026-04-03T06:09:58.001Z</time></trkpt><trkpt lat="45.92046532152335" lon="11.56100068541208"><ele>1442.0</ele><time>2026-04-03T06:09:59.001Z</time></trkpt><trkpt lat="45.92029319792268" lon="11.56100674331061"><ele>1442.0</ele><time>2026-04-03T06:10:00.001Z</time></trkpt><trkpt lat="45.92012660919743" lon="11.561044589105267"><ele>1442.0</ele><time>2026-04-03T06:10:01.001Z</time></trkpt><trkpt lat="45.91996387326603" lon="11.561104146979604"><ele>1442.0</ele><time>2026-04-03T06:10:02.001Z</time></trkpt><trkpt lat="45.919805571735026" lon="11.561174821867796"><ele>1438.0</ele><time>2026-04-03T06:10:03.001Z</time></trkpt><trkpt lat="45.91964779841842" lon="11.561243074210653"><ele>1434.0</ele><time>2026-04-03T06:10:04.001Z</time></trkpt><trkpt lat="45.9194927922573" lon="11.561311432185047"><ele>1430.0</ele><time>2026-04-03T06:10:05.001Z</time></trkpt><trkpt lat="45.919338815231264" lon="11.561375303051731"><ele>1429.3333333333335</ele><time>2026-04-03T06:10:06.001Z</time></trkpt><trkpt lat="45.919189659088076" lon="11.56143732793481"><ele>1428.6666666666667</ele><time>2026-04-03T06:10:07.001Z</time></trkpt><trkpt lat="45.91904164213009" lon="11.56150064664124"><ele>1428.0</ele><time>2026-04-03T06:10:08.001Z</time></trkpt><trkpt lat="45.918898417812954" lon="11.56156194961511"><ele>1428.0</ele><time>2026-04-03T06:10:09.001Z</time></trkpt><trkpt lat="45.918754440512465" lon="11.561621623931345"><ele>1428.0</ele><time>2026-04-03T06:10:10.001Z</time></trkpt><trkpt lat="45.91861956729546" lon="11.561679904995367"><ele>1428.0</ele><time>2026-04-03T06:10:11.001Z</time></trkpt><trkpt lat="45.91848284034977" lon="11.561739101443173"><ele>1428.0</ele><time>2026-04-03T06:10:12.001Z</time></trkpt><trkpt lat="45.91835684129102" lon="11.561821820439206"><ele>1427.75</ele><time>2026-04-03T06:10:13.001Z</time></trkpt><trkpt lat="45.91824411934202" lon="11.561937490075154"><ele>1427.5</ele><time>2026-04-03T06:10:14.001Z</time></trkpt><trkpt lat="45.918142814786854" lon="11.562079821274942"><ele>1427.25</ele><time>2026-04-03T06:10:15.001Z</time></trkpt><trkpt lat="45.918055922232476" lon="11.562234159739766"><ele>1427.0</ele><time>2026-04-03T06:10:16.001Z</time></trkpt><trkpt lat="45.91797916723318" lon="11.5623953860383"><ele>1427.0</ele><time>2026-04-03T06:10:17.001Z</time></trkpt><trkpt lat="45.91791543390206" lon="11.562564988932705"><ele>1427.0</ele><time>2026-04-03T06:10:18.001Z</time></trkpt><trkpt lat="45.91786754134352" lon="11.562750282427718"><ele>1427.0</ele><time>2026-04-03T06:10:19.001Z</time></trkpt><trkpt lat="45.917831410947265" lon="11.562944320709283"><ele>1427.0</ele><time>2026-04-03T06:10:20.001Z</time></trkpt><trkpt lat="45.91781793731275" lon="11.563145540526856"><ele>1427.75</ele><time>2026-04-03T06:10:21.001Z</time></trkpt><trkpt lat="45.917787933584144" lon="11.563340144692035"><ele>1428.5</ele><time>2026-04-03T06:10:22.001Z</time></trkpt><trkpt lat="45.917770821896795" lon="11.563532819105836"><ele>1429.25</ele><time>2026-04-03T06:10:23.001Z</time></trkpt><trkpt lat="45.917747054513505" lon="11.563732683293535"><ele>1430.0</ele><time>2026-04-03T06:10:24.001Z</time></trkpt><trkpt lat="45.917665898668545" lon="11.563906163867799"><ele>1428.6666666666667</ele><time>2026-04-03T06:10:25.001Z</time></trkpt><trkpt lat="45.91757424411443" lon="11.564079399563722"><ele>1427.3333333333333</ele><time>2026-04-03T06:10:26.001Z</time></trkpt><trkpt lat="45.91746866201669" lon="11.564256370411423"><ele>1426.0</ele><time>2026-04-03T06:10:27.001Z</time></trkpt><trkpt lat="45.91737371099057" lon="11.56444582370409"><ele>1425.6666666666665</ele><time>2026-04-03T06:10:28.001Z</time></trkpt><trkpt lat="45.91726703210172" lon="11.564618126530323"><ele>1425.3333333333333</ele><time>2026-04-03T06:10:29.001Z</time></trkpt><trkpt lat="45.91715018407107" lon="11.564782619884719"><ele>1425.0</ele><time>2026-04-03T06:10:30.001Z</time></trkpt><trkpt lat="45.917018653361296" lon="11.5649342508533"><ele>1425.0</ele><time>2026-04-03T06:10:31.001Z</time></trkpt><trkpt lat="45.91687817481274" lon="11.565085384397191"><ele>1425.0</ele><time>2026-04-03T06:10:32.001Z</time></trkpt><trkpt lat="45.91673043743323" lon="11.565230263533572"><ele>1425.0</ele><time>2026-04-03T06:10:33.001Z</time></trkpt><trkpt lat="45.916578900877596" lon="11.565380425990972"><ele>1420.6666666666667</ele><time>2026-04-03T06:10:34.001Z</time></trkpt><trkpt lat="45.91642806954402" lon="11.565535257946037"><ele>1416.3333333333335</ele><time>2026-04-03T06:10:35.001Z</time></trkpt><trkpt lat="45.916276691798785" lon="11.56569193915077"><ele>1412.0</ele><time>2026-04-03T06:10:36.001Z</time></trkpt><trkpt lat="45.916124620018984" lon="11.565847372122688"><ele>1412.0</ele><time>2026-04-03T06:10:37.002Z</time></trkpt><trkpt lat="45.91597161082612" lon="11.566000102345708"><ele>1412.0</ele><time>2026-04-03T06:10:38.002Z</time></trkpt><trkpt lat="45.91581633073087" lon="11.566139970448765"><ele>1412.0</ele><time>2026-04-03T06:10:39.002Z</time></trkpt><trkpt lat="45.91565755485158" lon="11.566269959536685"><ele>1412.6666666666667</ele><time>2026-04-03T06:10:40.001Z</time></trkpt><trkpt lat="45.91549756220114" lon="11.566396819850228"><ele>1413.3333333333333</ele><time>2026-04-03T06:10:41.001Z</time></trkpt><trkpt lat="45.91533292218742" lon="11.566516644938284"><ele>1414.0</ele><time>2026-04-03T06:10:42.001Z</time></trkpt><trkpt lat="45.91516302785228" lon="11.566623875849837"><ele>1412.3333333333333</ele><time>2026-04-03T06:10:43.001Z</time></trkpt><trkpt lat="45.914980398987495" lon="11.56671113882696"><ele>1410.6666666666667</ele><time>2026-04-03T06:10:44.001Z</time></trkpt><trkpt lat="45.91479591935381" lon="11.566801821276734"><ele>1409.0</ele><time>2026-04-03T06:10:45.002Z</time></trkpt><trkpt lat="45.91460981420411" lon="11.566891634979717"><ele>1409.0</ele><time>2026-04-03T06:10:46.002Z</time></trkpt><trkpt lat="45.914421358177" lon="11.566981117811606"><ele>1409.0</ele><time>2026-04-03T06:10:47.001Z</time></trkpt><trkpt lat="45.91423265652309" lon="11.56706903815621"><ele>1409.0</ele><time>2026-04-03T06:10:48.002Z</time></trkpt><trkpt lat="45.91404709781097" lon="11.567156644336498"><ele>1407.0</ele><time>2026-04-03T06:10:49.001Z</time></trkpt><trkpt lat="45.91386550356192" lon="11.56724537977621"><ele>1405.0</ele><time>2026-04-03T06:10:50.001Z</time></trkpt><trkpt lat="45.91369043388872" lon="11.567337920033006"><ele>1403.0</ele><time>2026-04-03T06:10:51.001Z</time></trkpt><trkpt lat="45.91352009620196" lon="11.567422199682012"><ele>1400.0</ele><time>2026-04-03T06:10:52.001Z</time></trkpt><trkpt lat="45.91335597902561" lon="11.567477706325914"><ele>1397.0</ele><time>2026-04-03T06:10:53.001Z</time></trkpt><trkpt lat="45.91319205683703" lon="11.567506870319487"><ele>1394.0</ele><time>2026-04-03T06:10:54.001Z</time></trkpt><trkpt lat="45.91303414302762" lon="11.567553197337025"><ele>1394.0</ele><time>2026-04-03T06:10:55.001Z</time></trkpt><trkpt lat="45.91287959631659" lon="11.567623759029518"><ele>1394.0</ele><time>2026-04-03T06:10:56.001Z</time></trkpt><trkpt lat="45.912737280875405" lon="11.567710101891006"><ele>1394.0</ele><time>2026-04-03T06:10:57.001Z</time></trkpt><trkpt lat="45.91259649931018" lon="11.567798637658635"><ele>1393.3333333333335</ele><time>2026-04-03T06:10:58.001Z</time></trkpt><trkpt lat="45.912447954974915" lon="11.567857752794598"><ele>1392.6666666666667</ele><time>2026-04-03T06:10:59.001Z</time></trkpt><trkpt lat="45.912297186527354" lon="11.56789274959531"><ele>1392.0</ele><time>2026-04-03T06:11:00.001Z</time></trkpt><trkpt lat="45.912139799255336" lon="11.567884868335"><ele>1392.0</ele><time>2026-04-03T06:11:01.001Z</time></trkpt><trkpt lat="45.91201106634743" lon="11.567833863621674"><ele>1392.0</ele><time>2026-04-03T06:11:02.001Z</time></trkpt><trkpt lat="45.911878700535084" lon="11.567750460615379"><ele>1392.0</ele><time>2026-04-03T06:11:03.001Z</time></trkpt><trkpt lat="45.9117424577577" lon="11.567674696153682"><ele>1392.0</ele><time>2026-04-03T06:11:04.001Z</time></trkpt><trkpt lat="45.911597439564616" lon="11.567654607936346"><ele>1389.3333333333333</ele><time>2026-04-03T06:11:05.001Z</time></trkpt><trkpt lat="45.911438636232425" lon="11.567668073075442"><ele>1386.6666666666665</ele><time>2026-04-03T06:11:06.001Z</time></trkpt><trkpt lat="45.91127565876229" lon="11.567693106739942"><ele>1384.0</ele><time>2026-04-03T06:11:07.001Z</time></trkpt><trkpt lat="45.91111200304233" lon="11.567723939844353"><ele>1384.0</ele><time>2026-04-03T06:11:08.001Z</time></trkpt><trkpt lat="45.910958451763136" lon="11.56779411260695"><ele>1384.0</ele><time>2026-04-03T06:11:09.001Z</time></trkpt><trkpt lat="45.91080396688181" lon="11.567874737549406"><ele>1384.0</ele><time>2026-04-03T06:11:10.001Z</time></trkpt><trkpt lat="45.9106336464447" lon="11.56793627194147"><ele>1373.6666666666665</ele><time>2026-04-03T06:11:11.001Z</time></trkpt><trkpt lat="45.91045697458875" lon="11.567964990189987"><ele>1363.3333333333333</ele><time>2026-04-03T06:11:12.001Z</time></trkpt><trkpt lat="45.91027251908036" lon="11.568008627965456"><ele>1353.0</ele><time>2026-04-03T06:11:13.001Z</time></trkpt><trkpt lat="45.910089660713716" lon="11.568067080161779"><ele>1350.0</ele><time>2026-04-03T06:11:14.001Z</time></trkpt><trkpt lat="45.90990491896319" lon="11.568138228940933"><ele>1347.0</ele><time>2026-04-03T06:11:15.001Z</time></trkpt><trkpt lat="45.90971238848327" lon="11.568186547924117"><ele>1344.0</ele><time>2026-04-03T06:11:16.001Z</time></trkpt><trkpt lat="45.90951508047353" lon="11.568200650138358"><ele>1344.0</ele><time>2026-04-03T06:11:17.001Z</time></trkpt><trkpt lat="45.90930563659014" lon="11.568216147011437"><ele>1344.0</ele><time>2026-04-03T06:11:18.001Z</time></trkpt><trkpt lat="45.90909861219481" lon="11.568246367970879"><ele>1344.0</ele><time>2026-04-03T06:11:19.001Z</time></trkpt><trkpt lat="45.90889695968946" lon="11.568278184047553"><ele>1342.3333333333333</ele><time>2026-04-03T06:11:20.001Z</time></trkpt><trkpt lat="45.90869899750489" lon="11.568309358484123"><ele>1340.6666666666665</ele><time>2026-04-03T06:11:21.001Z</time></trkpt><trkpt lat="45.908505299884204" lon="11.5683335121976"><ele>1339.0</ele><time>2026-04-03T06:11:22.001Z</time></trkpt><trkpt lat="45.9083123831463" lon="11.56834672286778"><ele>1334.6666666666665</ele><time>2026-04-03T06:11:23.001Z</time></trkpt><trkpt lat="45.90811960901548" lon="11.568357768684628"><ele>1330.3333333333333</ele><time>2026-04-03T06:11:24.001Z</time></trkpt><trkpt lat="45.90794487703029" lon="11.568380365737658"><ele>1326.0</ele><time>2026-04-03T06:11:25.001Z</time></trkpt><trkpt lat="45.90778218418435" lon="11.568401637396603"><ele>1326.0</ele><time>2026-04-03T06:11:26.001Z</time></trkpt><trkpt lat="45.907609590881826" lon="11.568404209714188"><ele>1326.0</ele><time>2026-04-03T06:11:27.001Z</time></trkpt><trkpt lat="45.90743486693991" lon="11.568369422781041"><ele>1326.0</ele><time>2026-04-03T06:11:28.001Z</time></trkpt><trkpt lat="45.90726200168159" lon="11.56830441308149"><ele>1321.0</ele><time>2026-04-03T06:11:29.001Z</time></trkpt><trkpt lat="45.907089578887394" lon="11.568214093714806"><ele>1316.0</ele><time>2026-04-03T06:11:30.001Z</time></trkpt><trkpt lat="45.906919959940495" lon="11.568125274412587"><ele>1311.0</ele><time>2026-04-03T06:11:31.001Z</time></trkpt><trkpt lat="45.90675649273693" lon="11.5680296424124"><ele>1313.0</ele><time>2026-04-03T06:11:32.001Z</time></trkpt><trkpt lat="45.90659584169292" lon="11.567925690076027"><ele>1315.0</ele><time>2026-04-03T06:11:33.001Z</time></trkpt><trkpt lat="45.906440805344836" lon="11.5678092058749"><ele>1317.0</ele><time>2026-04-03T06:11:34.001Z</time></trkpt><trkpt lat="45.90628376040333" lon="11.567699875059242"><ele>1317.0</ele><time>2026-04-03T06:11:35.001Z</time></trkpt><trkpt lat="45.906127930128434" lon="11.567591150571689"><ele>1317.0</ele><time>2026-04-03T06:11:36.001Z</time></trkpt><trkpt lat="45.90598182880852" lon="11.567470603623478"><ele>1317.0</ele><time>2026-04-03T06:11:37.001Z</time></trkpt><trkpt lat="45.90583383534045" lon="11.567340640051603"><ele>1315.0</ele><time>2026-04-03T06:11:38.001Z</time></trkpt><trkpt lat="45.905691497355505" lon="11.567205934301413"><ele>1313.0</ele><time>2026-04-03T06:11:39.001Z</time></trkpt><trkpt lat="45.9055463022549" lon="11.567072367849526"><ele>1311.0</ele><time>2026-04-03T06:11:40.001Z</time></trkpt><trkpt lat="45.90539788628639" lon="11.566936782866204"><ele>1311.0</ele><time>2026-04-03T06:11:41.001Z</time></trkpt><trkpt lat="45.90524556429431" lon="11.566807190291454"><ele>1311.0</ele><time>2026-04-03T06:11:42.001Z</time></trkpt><trkpt lat="45.90508948032863" lon="11.56667436938738"><ele>1311.0</ele><time>2026-04-03T06:11:43.001Z</time></trkpt><trkpt lat="45.90493512361775" lon="11.566547010858457"><ele>1300.0</ele><time>2026-04-03T06:11:44.001Z</time></trkpt><trkpt lat="45.90478561398977" lon="11.566427884410368"><ele>1289.0</ele><time>2026-04-03T06:11:45.001Z</time></trkpt><trkpt lat="45.904638752961496" lon="11.566310394815867"><ele>1278.0</ele><time>2026-04-03T06:11:46.001Z</time></trkpt><trkpt lat="45.90449584308319" lon="11.566196859819723"><ele>1276.6666666666667</ele><time>2026-04-03T06:11:47.001Z</time></trkpt><trkpt lat="45.90435786434602" lon="11.566090846498248"><ele>1275.3333333333335</ele><time>2026-04-03T06:11:48.001Z</time></trkpt><trkpt lat="45.904211000014676" lon="11.565993954902472"><ele>1274.0</ele><time>2026-04-03T06:11:49.001Z</time></trkpt><trkpt lat="45.904063127426" lon="11.565914833779823"><ele>1274.0</ele><time>2026-04-03T06:11:50.001Z</time></trkpt><trkpt lat="45.903904185120545" lon="11.565851477027106"><ele>1274.0</ele><time>2026-04-03T06:11:51.001Z</time></trkpt><trkpt lat="45.90374984273058" lon="11.565777934200995"><ele>1274.0</ele><time>2026-04-03T06:11:52.001Z</time></trkpt><trkpt lat="45.90359283350829" lon="11.56569450636939"><ele>1274.0</ele><time>2026-04-03T06:11:53.001Z</time></trkpt><trkpt lat="45.90344828766393" lon="11.565607442592052"><ele>1274.0</ele><time>2026-04-03T06:11:54.001Z</time></trkpt><trkpt lat="45.90330018711727" lon="11.56550677678538"><ele>1274.0</ele><time>2026-04-03T06:11:55.001Z</time></trkpt><trkpt lat="45.903154003171814" lon="11.565403545958194"><ele>1275.0</ele><time>2026-04-03T06:11:56.001Z</time></trkpt><trkpt lat="45.90300954589098" lon="11.565300541549123"><ele>1276.0</ele><time>2026-04-03T06:11:57.001Z</time></trkpt><trkpt lat="45.90286643504247" lon="11.565193260296814"><ele>1277.0</ele><time>2026-04-03T06:11:58.001Z</time></trkpt><trkpt lat="45.9027245040527" lon="11.565083495777326"><ele>1277.0</ele><time>2026-04-03T06:11:59.001Z</time></trkpt><trkpt lat="45.90258282806827" lon="11.564981109452994"><ele>1277.0</ele><time>2026-04-03T06:12:00Z</time></trkpt><trkpt lat="45.90244804660924" lon="11.564888823542764"><ele>1277.0</ele><time>2026-04-03T06:12:01Z</time></trkpt><trkpt lat="45.9023186333686" lon="11.564809759810231"><ele>1277.0</ele><time>2026-04-03T06:12:02Z</time></trkpt><trkpt lat="45.902197454798895" lon="11.564736320245173"><ele>1273.5</ele><time>2026-04-03T06:12:03Z</time></trkpt><trkpt lat="45.902087168105766" lon="11.564644948094626"><ele>1270.0</ele><time>2026-04-03T06:12:04Z</time></trkpt><trkpt lat="45.90198150138128" lon="11.56452712027687"><ele>1266.5</ele><time>2026-04-03T06:12:05Z</time></trkpt><trkpt lat="45.90188706986107" lon="11.56437730422665"><ele>1263.0</ele><time>2026-04-03T06:12:06Z</time></trkpt><trkpt lat="45.901791323654315" lon="11.564210821081733"><ele>1257.25</ele><time>2026-04-03T06:12:07Z</time></trkpt><trkpt lat="45.901706606468856" lon="11.564039814216484"><ele>1251.5</ele><time>2026-04-03T06:12:08Z</time></trkpt><trkpt lat="45.90161905112765" lon="11.563874473112545"><ele>1245.75</ele><time>2026-04-03T06:12:09Z</time></trkpt><trkpt lat="45.9015332806866" lon="11.563726834487445"><ele>1240.0</ele><time>2026-04-03T06:12:10Z</time></trkpt><trkpt lat="45.90145788713511" lon="11.563590057111496"><ele>1240.0</ele><time>2026-04-03T06:12:11Z</time></trkpt><trkpt lat="45.901402849200124" lon="11.563452811566307"><ele>1240.0</ele><time>2026-04-03T06:12:12Z</time></trkpt><trkpt lat="45.901370746711244" lon="11.563303524289767"><ele>1240.0</ele><time>2026-04-03T06:12:13Z</time></trkpt><trkpt lat="45.901407302001545" lon="11.56316235559237"><ele>1240.0</ele><time>2026-04-03T06:12:14Z</time></trkpt><trkpt lat="45.90143566948064" lon="11.562980797202263"><ele>1239.75</ele><time>2026-04-03T06:12:15Z</time></trkpt><trkpt lat="45.90144042805622" lon="11.5627792980429"><ele>1239.5</ele><time>2026-04-03T06:12:16Z</time></trkpt><trkpt lat="45.901440279140196" lon="11.562584924330425"><ele>1239.25</ele><time>2026-04-03T06:12:17Z</time></trkpt><trkpt lat="45.901437794256786" lon="11.562405147683304"><ele>1239.0</ele><time>2026-04-03T06:12:18Z</time></trkpt><trkpt lat="45.90143139101911" lon="11.562236343421745"><ele>1239.0</ele><time>2026-04-03T06:12:19Z</time></trkpt><trkpt lat="45.90142247949278" lon="11.562082430662203"><ele>1239.0</ele><time>2026-04-03T06:12:20Z</time></trkpt><trkpt lat="45.901404806284155" lon="11.561952971815124"><ele>1239.0</ele><time>2026-04-03T06:12:21Z</time></trkpt><trkpt lat="45.901363496916666" lon="11.561855068138811"><ele>1239.0</ele><time>2026-04-03T06:12:22Z</time></trkpt><trkpt lat="45.90129825043069" lon="11.561780725491332"><ele>1239.0</ele><time>2026-04-03T06:12:23Z</time></trkpt><trkpt lat="45.90121169873866" lon="11.561725078764084"><ele>1239.0</ele><time>2026-04-03T06:12:24Z</time></trkpt><trkpt lat="45.90113160460908" lon="11.561660617794793"><ele>1239.0</ele><time>2026-04-03T06:12:25Z</time></trkpt><trkpt lat="45.90105307634728" lon="11.561577360008805"><ele>1239.0</ele><time>2026-04-03T06:12:26Z</time></trkpt><trkpt lat="45.90098273214575" lon="11.561473978293302"><ele>1239.0</ele><time>2026-04-03T06:12:27Z</time></trkpt><trkpt lat="45.9009325924445" lon="11.56134280220856"><ele>1239.0</ele><time>2026-04-03T06:12:28Z</time></trkpt><trkpt lat="45.90088573864298" lon="11.561201254696174"><ele>1234.8</ele><time>2026-04-03T06:12:29Z</time></trkpt><trkpt lat="45.900834574036175" lon="11.561073089426705"><ele>1230.6000000000001</ele><time>2026-04-03T06:12:30Z</time></trkpt><trkpt lat="45.900783464542904" lon="11.560951105452164"><ele>1226.4</ele><time>2026-04-03T06:12:31Z</time></trkpt><trkpt lat="45.900727166159996" lon="11.560838625039615"><ele>1222.2</ele><time>2026-04-03T06:12:32Z</time></trkpt><trkpt lat="45.90070191636531" lon="11.560707301795292"><ele>1218.0</ele><time>2026-04-03T06:12:33Z</time></trkpt><trkpt lat="45.900691881718714" lon="11.560567714505828"><ele>1218.0</ele><time>2026-04-03T06:12:34Z</time></trkpt><trkpt lat="45.90068139888606" lon="11.560441319635464"><ele>1218.0</ele><time>2026-04-03T06:12:35Z</time></trkpt><trkpt lat="45.90064322699048" lon="11.560343198022705"><ele>1218.0</ele><time>2026-04-03T06:12:36Z</time></trkpt><trkpt lat="45.900568358826085" lon="11.560288792250768"><ele>1218.0</ele><time>2026-04-03T06:12:37Z</time></trkpt><trkpt lat="45.90046515873999" lon="11.560276894222197"><ele>1218.0</ele><time>2026-04-03T06:12:38Z</time></trkpt><trkpt lat="45.90035909192441" lon="11.560388550854299"><ele>1218.0</ele><time>2026-04-03T06:12:39Z</time></trkpt><trkpt lat="45.90025327541171" lon="11.56049879606278"><ele>1218.0</ele><time>2026-04-03T06:12:40Z</time></trkpt><trkpt lat="45.90014223149569" lon="11.560613260550578"><ele>1218.0</ele><time>2026-04-03T06:12:41Z</time></trkpt><trkpt lat="45.90001814050468" lon="11.560710538691575"><ele>1218.0</ele><time>2026-04-03T06:12:42.001Z</time></trkpt><trkpt lat="45.89990131386567" lon="11.56080958920087"><ele>1214.6</ele><time>2026-04-03T06:12:43.002Z</time></trkpt><trkpt lat="45.8998147994975" lon="11.560935342523763"><ele>1211.1999999999998</ele><time>2026-04-03T06:12:44.002Z</time></trkpt><trkpt lat="45.89974374127606" lon="11.561052342380162"><ele>1207.8</ele><time>2026-04-03T06:12:45.002Z</time></trkpt><trkpt lat="45.89969412969465" lon="11.56118116883634"><ele>1204.3999999999999</ele><time>2026-04-03T06:12:46.001Z</time></trkpt><trkpt lat="45.899613840769554" lon="11.561248460175868"><ele>1201.0</ele><time>2026-04-03T06:12:47.001Z</time></trkpt><trkpt lat="45.89951308573601" lon="11.561258848898559"><ele>1201.0</ele><time>2026-04-03T06:12:48.002Z</time></trkpt><trkpt lat="45.89941718814031" lon="11.561190906916702"><ele>1201.0</ele><time>2026-04-03T06:12:49.002Z</time></trkpt><trkpt lat="45.89931380229476" lon="11.56112216697391"><ele>1201.0</ele><time>2026-04-03T06:12:50.002Z</time></trkpt><trkpt lat="45.89918876055597" lon="11.56105346034775"><ele>1201.0</ele><time>2026-04-03T06:12:51.002Z</time></trkpt><trkpt lat="45.899062837153025" lon="11.56096950919891"><ele>1199.5</ele><time>2026-04-03T06:12:52.002Z</time></trkpt><trkpt lat="45.898934283501674" lon="11.560878371563728"><ele>1198.0</ele><time>2026-04-03T06:12:53.002Z</time></trkpt><trkpt lat="45.89881147906049" lon="11.560785614198585"><ele>1196.5</ele><time>2026-04-03T06:12:54.002Z</time></trkpt><trkpt lat="45.89869751641733" lon="11.560682328105248"><ele>1195.0</ele><time>2026-04-03T06:12:55.001Z</time></trkpt><trkpt lat="45.898594393529855" lon="11.560551200966463"><ele>1195.0</ele><time>2026-04-03T06:12:56.001Z</time></trkpt><trkpt lat="45.898504124112826" lon="11.56040131043055"><ele>1195.0</ele><time>2026-04-03T06:12:57.001Z</time></trkpt><trkpt lat="45.89842038113245" lon="11.560223576225665"><ele>1195.0</ele><time>2026-04-03T06:12:58.001Z</time></trkpt><trkpt lat="45.898331230623654" lon="11.560055820609694"><ele>1195.0</ele><time>2026-04-03T06:12:59.001Z</time></trkpt><trkpt lat="45.89822963289507" lon="11.559899527662191"><ele>1196.5</ele><time>2026-04-03T06:13:00.001Z</time></trkpt><trkpt lat="45.89812507669294" lon="11.559744880700942"><ele>1198.0</ele><time>2026-04-03T06:13:01.001Z</time></trkpt><trkpt lat="45.8980215052416" lon="11.559594094474344"><ele>1199.5</ele><time>2026-04-03T06:13:02.001Z</time></trkpt><trkpt lat="45.897923672823666" lon="11.559448117590497"><ele>1201.0</ele><time>2026-04-03T06:13:03.001Z</time></trkpt><trkpt lat="45.897831189260735" lon="11.559305930436983"><ele>1201.0</ele><time>2026-04-03T06:13:04.001Z</time></trkpt><trkpt lat="45.8977236531079" lon="11.559180116080446"><ele>1201.0</ele><time>2026-04-03T06:13:05.001Z</time></trkpt><trkpt lat="45.897613473577884" lon="11.559066642896227"><ele>1201.0</ele><time>2026-04-03T06:13:06.001Z</time></trkpt><trkpt lat="45.89750472550706" lon="11.558970800811975"><ele>1201.0</ele><time>2026-04-03T06:13:07.001Z</time></trkpt><trkpt lat="45.89739733189339" lon="11.558867025699408"><ele>1195.75</ele><time>2026-04-03T06:13:08.001Z</time></trkpt><trkpt lat="45.897251355604055" lon="11.558876617734104"><ele>1190.5</ele><time>2026-04-03T06:13:09.001Z</time></trkpt><trkpt lat="45.89712076351274" lon="11.558957076486347"><ele>1185.25</ele><time>2026-04-03T06:13:10.001Z</time></trkpt><trkpt lat="45.89697842889496" lon="11.559009790186751"><ele>1180.0</ele><time>2026-04-03T06:13:11.001Z</time></trkpt><trkpt lat="45.89683488919057" lon="11.559046795604331"><ele>1178.0</ele><time>2026-04-03T06:13:12.001Z</time></trkpt><trkpt lat="45.896693689013084" lon="11.559044961707302"><ele>1176.0</ele><time>2026-04-03T06:13:13.001Z</time></trkpt><trkpt lat="45.896559749517806" lon="11.55901547232883"><ele>1174.0</ele><time>2026-04-03T06:13:14.001Z</time></trkpt><trkpt lat="45.896436416753254" lon="11.558986501425501"><ele>1172.0</ele><time>2026-04-03T06:13:15.001Z</time></trkpt><trkpt lat="45.89631900237168" lon="11.558970457294484"><ele>1172.0</ele><time>2026-04-03T06:13:16.001Z</time></trkpt><trkpt lat="45.896215111235975" lon="11.55898104806615"><ele>1172.0</ele><time>2026-04-03T06:13:17.001Z</time></trkpt><trkpt lat="45.89612190825858" lon="11.559044851966558"><ele>1172.0</ele><time>2026-04-03T06:13:18.001Z</time></trkpt><trkpt lat="45.89604573889047" lon="11.559168660749208"><ele>1172.0</ele><time>2026-04-03T06:13:19.001Z</time></trkpt><trkpt lat="45.896010464159836" lon="11.559331323060462"><ele>1172.0</ele><time>2026-04-03T06:13:20.001Z</time></trkpt><trkpt lat="45.89597609227804" lon="11.559514118066883"><ele>1168.75</ele><time>2026-04-03T06:13:21.001Z</time></trkpt><trkpt lat="45.895947785764236" lon="11.559709196930458"><ele>1165.5</ele><time>2026-04-03T06:13:22.001Z</time></trkpt><trkpt lat="45.895927172699935" lon="11.5599033706946"><ele>1162.25</ele><time>2026-04-03T06:13:23.001Z</time></trkpt><trkpt lat="45.895886798488135" lon="11.560087057162814"><ele>1159.0</ele><time>2026-04-03T06:13:24.001Z</time></trkpt><trkpt lat="45.89582796860996" lon="11.560249086115663"><ele>1153.5</ele><time>2026-04-03T06:13:25.001Z</time></trkpt><trkpt lat="45.89574104060397" lon="11.560410113590645"><ele>1148.0</ele><time>2026-04-03T06:13:26.001Z</time></trkpt><trkpt lat="45.89565088076996" lon="11.56054882713789"><ele>1142.5</ele><time>2026-04-03T06:13:27.001Z</time></trkpt><trkpt lat="45.8955581399836" lon="11.560641205579973"><ele>1137.0</ele><time>2026-04-03T06:13:28.001Z</time></trkpt><trkpt lat="45.89545608422506" lon="11.56066650253329"><ele>1137.0</ele><time>2026-04-03T06:13:29.001Z</time></trkpt><trkpt lat="45.895360846898456" lon="11.560603552898273"><ele>1137.0</ele><time>2026-04-03T06:13:30.001Z</time></trkpt><trkpt lat="45.89529485135575" lon="11.560500131502819"><ele>1137.0</ele><time>2026-04-03T06:13:31.001Z</time></trkpt><trkpt lat="45.895208217690254" lon="11.560367826254774"><ele>1137.0</ele><time>2026-04-03T06:13:32.001Z</time></trkpt><trkpt lat="45.895101840168095" lon="11.560235939925477"><ele>1138.25</ele><time>2026-04-03T06:13:33.001Z</time></trkpt><trkpt lat="45.89501106560642" lon="11.560075306259346"><ele>1139.5</ele><time>2026-04-03T06:13:34.001Z</time></trkpt><trkpt lat="45.894910491376635" lon="11.559928428574045"><ele>1140.75</ele><time>2026-04-03T06:13:35.001Z</time></trkpt><trkpt lat="45.89480690086373" lon="11.559781472394729"><ele>1142.0</ele><time>2026-04-03T06:13:36.001Z</time></trkpt><trkpt lat="45.894703139116864" lon="11.55963723499749"><ele>1138.75</ele><time>2026-04-03T06:13:37.001Z</time></trkpt><trkpt lat="45.89459665297007" lon="11.559495380240179"><ele>1135.5</ele><time>2026-04-03T06:13:38.001Z</time></trkpt><trkpt lat="45.894483027414246" lon="11.559363558304403"><ele>1132.25</ele><time>2026-04-03T06:13:39.001Z</time></trkpt><trkpt lat="45.894360624553165" lon="11.559240020643069"><ele>1129.0</ele><time>2026-04-03T06:13:40.001Z</time></trkpt><trkpt lat="45.894232644164795" lon="11.559127352440226"><ele>1129.0</ele><time>2026-04-03T06:13:41.001Z</time></trkpt><trkpt lat="45.894104208774785" lon="11.559024167134554"><ele>1129.0</ele><time>2026-04-03T06:13:42.001Z</time></trkpt><trkpt lat="45.8939772510421" lon="11.558909552579498"><ele>1129.0</ele><time>2026-04-03T06:13:43.001Z</time></trkpt><trkpt lat="45.893857842161616" lon="11.558784100174892"><ele>1129.0</ele><time>2026-04-03T06:13:44.001Z</time></trkpt><trkpt lat="45.893743573088486" lon="11.558645268674105"><ele>1133.0</ele><time>2026-04-03T06:13:45.001Z</time></trkpt><trkpt lat="45.89363533805427" lon="11.558497394734088"><ele>1137.0</ele><time>2026-04-03T06:13:46.001Z</time></trkpt><trkpt lat="45.893524915275414" lon="11.558343354065489"><ele>1141.0</ele><time>2026-04-03T06:13:47.001Z</time></trkpt><trkpt lat="45.89341272876803" lon="11.558188550466578"><ele>1135.6666666666665</ele><time>2026-04-03T06:13:48.001Z</time></trkpt><trkpt lat="45.893304916310825" lon="11.558029160129044"><ele>1130.3333333333333</ele><time>2026-04-03T06:13:49.001Z</time></trkpt><trkpt lat="45.89319753923776" lon="11.5578663494403"><ele>1125.0</ele><time>2026-04-03T06:13:50.001Z</time></trkpt><trkpt lat="45.89309257443112" lon="11.557701669583563"><ele>1125.0</ele><time>2026-04-03T06:13:51.001Z</time></trkpt><trkpt lat="45.89299337373421" lon="11.557538673581227"><ele>1125.0</ele><time>2026-04-03T06:13:52.001Z</time></trkpt><trkpt lat="45.89289550957087" lon="11.557370577414202"><ele>1125.0</ele><time>2026-04-03T06:13:53.001Z</time></trkpt><trkpt lat="45.89279484330958" lon="11.557201415883197"><ele>1125.3333333333333</ele><time>2026-04-03T06:13:54.001Z</time></trkpt><trkpt lat="45.8927002131968" lon="11.557025722700187"><ele>1125.6666666666665</ele><time>2026-04-03T06:13:55.001Z</time></trkpt><trkpt lat="45.89260795311196" lon="11.55685237223589"><ele>1126.0</ele><time>2026-04-03T06:13:56.001Z</time></trkpt><trkpt lat="45.892524841871975" lon="11.556680580856602"><ele>1122.75</ele><time>2026-04-03T06:13:57.001Z</time></trkpt><trkpt lat="45.89245865033463" lon="11.55650464947122"><ele>1119.5</ele><time>2026-04-03T06:13:58.001Z</time></trkpt><trkpt lat="45.89239295966044" lon="11.556325106862433"><ele>1116.25</ele><time>2026-04-03T06:13:59.001Z</time></trkpt><trkpt lat="45.89234461657321" lon="11.556147324611395"><ele>1113.0</ele><time>2026-04-03T06:14:00.001Z</time></trkpt><trkpt lat="45.89230321861801" lon="11.555972316243476"><ele>1113.0</ele><time>2026-04-03T06:14:01.001Z</time></trkpt><trkpt lat="45.892302072923854" lon="11.555797965066601"><ele>1113.0</ele><time>2026-04-03T06:14:02.001Z</time></trkpt><trkpt lat="45.892285882481154" lon="11.55563390956179"><ele>1113.0</ele><time>2026-04-03T06:14:03.001Z</time></trkpt><trkpt lat="45.892255983532124" lon="11.555466139845148"><ele>1113.0</ele><time>2026-04-03T06:14:04.001Z</time></trkpt><trkpt lat="45.89223405661724" lon="11.555294920218609"><ele>1113.0</ele><time>2026-04-03T06:14:05.001Z</time></trkpt><trkpt lat="45.8922035972349" lon="11.555128198776986"><ele>1113.0</ele><time>2026-04-03T06:14:06.001Z</time></trkpt><trkpt lat="45.89216275499964" lon="11.554964128831198"><ele>1113.0</ele><time>2026-04-03T06:14:07.001Z</time></trkpt><trkpt lat="45.89213172113099" lon="11.554802056064007"><ele>1113.0</ele><time>2026-04-03T06:14:08.001Z</time></trkpt><trkpt lat="45.89210364764987" lon="11.554633905514489"><ele>1112.25</ele><time>2026-04-03T06:14:09.001Z</time></trkpt><trkpt lat="45.89207882893978" lon="11.554450299705538"><ele>1111.5</ele><time>2026-04-03T06:14:10.001Z</time></trkpt><trkpt lat="45.892063543284856" lon="11.554272726900335"><ele>1110.75</ele><time>2026-04-03T06:14:11.001Z</time></trkpt><trkpt lat="45.89206145361044" lon="11.554099005880142"><ele>1110.0</ele><time>2026-04-03T06:14:12.001Z</time></trkpt><trkpt lat="45.892062423518134" lon="11.553923656243626"><ele>1110.0</ele><time>2026-04-03T06:14:13.001Z</time></trkpt><trkpt lat="45.89206685761046" lon="11.553741664318505"><ele>1110.0</ele><time>2026-04-03T06:14:14.001Z</time></trkpt><trkpt lat="45.89207552667603" lon="11.553569895731938"><ele>1110.0</ele><time>2026-04-03T06:14:15.001Z</time></trkpt><trkpt lat="45.89208814614872" lon="11.553417624340167"><ele>1110.0</ele><time>2026-04-03T06:14:16.001Z</time></trkpt><trkpt lat="45.892093729803506" lon="11.553267461648547"><ele>1108.4</ele><time>2026-04-03T06:14:17Z</time></trkpt><trkpt lat="45.89208858043137" lon="11.553103826120683"><ele>1106.8</ele><time>2026-04-03T06:14:18Z</time></trkpt><trkpt lat="45.8920725123013" lon="11.552945752346389"><ele>1105.2</ele><time>2026-04-03T06:14:19Z</time></trkpt><trkpt lat="45.89205027896792" lon="11.552788945851502"><ele>1103.6</ele><time>2026-04-03T06:14:20Z</time></trkpt><trkpt lat="45.89203239445042" lon="11.552648151832614"><ele>1102.0</ele><time>2026-04-03T06:14:21Z</time></trkpt><trkpt lat="45.89201478970688" lon="11.552531119422419"><ele>1101.6</ele><time>2026-04-03T06:14:22Z</time></trkpt><trkpt lat="45.891997115556194" lon="11.552434784563841"><ele>1101.2</ele><time>2026-04-03T06:14:23Z</time></trkpt><trkpt lat="45.891975790309495" lon="11.55233121408505"><ele>1100.8</ele><time>2026-04-03T06:14:24Z</time></trkpt><trkpt lat="45.891927295790325" lon="11.552227254068066"><ele>1100.4</ele><time>2026-04-03T06:14:25Z</time></trkpt><trkpt lat="45.89197977873881" lon="11.552032895539844"><ele>1100.0</ele><time>2026-04-03T06:14:26Z</time></trkpt><trkpt lat="45.89200569390606" lon="11.551857780184967"><ele>1099.5</ele><time>2026-04-03T06:14:27Z</time></trkpt><trkpt lat="45.892039312026064" lon="11.551674315116268"><ele>1099.0</ele><time>2026-04-03T06:14:28Z</time></trkpt><trkpt lat="45.89206666432086" lon="11.551476381796352"><ele>1098.5</ele><time>2026-04-03T06:14:29Z</time></trkpt><trkpt lat="45.89209330003141" lon="11.551274483549385"><ele>1098.0</ele><time>2026-04-03T06:14:30Z</time></trkpt><trkpt lat="45.89211967339056" lon="11.551071651995317"><ele>1097.5</ele><time>2026-04-03T06:14:31Z</time></trkpt><trkpt lat="45.89214393189896" lon="11.550868319377232"><ele>1097.0</ele><time>2026-04-03T06:14:32Z</time></trkpt><trkpt lat="45.89216837626242" lon="11.55066585037697"><ele>1096.5</ele><time>2026-04-03T06:14:33Z</time></trkpt><trkpt lat="45.892194436419004" lon="11.550463275574254"><ele>1096.0</ele><time>2026-04-03T06:14:34Z</time></trkpt><trkpt lat="45.89221755787733" lon="11.5502603824011"><ele>1094.5</ele><time>2026-04-03T06:14:35Z</time></trkpt><trkpt lat="45.89224815001656" lon="11.55006252186373"><ele>1093.0</ele><time>2026-04-03T06:14:36Z</time></trkpt><trkpt lat="45.89227613251513" lon="11.5498630552143"><ele>1091.5</ele><time>2026-04-03T06:14:37Z</time></trkpt><trkpt lat="45.892301494576984" lon="11.54966465111948"><ele>1090.0</ele><time>2026-04-03T06:14:38Z</time></trkpt><trkpt lat="45.89232863460173" lon="11.549468710025987"><ele>1089.0</ele><time>2026-04-03T06:14:39Z</time></trkpt><trkpt lat="45.89235786021454" lon="11.549274828237195"><ele>1088.0</ele><time>2026-04-03T06:14:40Z</time></trkpt><trkpt lat="45.8923813498669" lon="11.549080069817776"><ele>1087.0</ele><time>2026-04-03T06:14:41Z</time></trkpt><trkpt lat="45.89240873414315" lon="11.548884976098252"><ele>1086.0</ele><time>2026-04-03T06:14:42Z</time></trkpt><trkpt lat="45.89243401627185" lon="11.548691788612818"><ele>1086.0</ele><time>2026-04-03T06:14:43Z</time></trkpt><trkpt lat="45.892455485532295" lon="11.54850916961976"><ele>1086.0</ele><time>2026-04-03T06:14:44Z</time></trkpt><trkpt lat="45.892476283908465" lon="11.548346660351095"><ele>1086.0</ele><time>2026-04-03T06:14:45Z</time></trkpt><trkpt lat="45.89249656143291" lon="11.54820897627201"><ele>1086.0</ele><time>2026-04-03T06:14:46Z</time></trkpt><trkpt lat="45.89251344140716" lon="11.548086254752853"><ele>1086.0</ele><time>2026-04-03T06:14:47Z</time></trkpt><trkpt lat="45.89252845337503" lon="11.547983458391384"><ele>1086.2</ele><time>2026-04-03T06:14:48.002Z</time></trkpt><trkpt lat="45.892467337994674" lon="11.547814974829095"><ele>1086.3999999999999</ele><time>2026-04-03T06:14:50.002Z</time></trkpt><trkpt lat="45.892387576215604" lon="11.547769718709592"><ele>1086.6</ele><time>2026-04-03T06:14:51.002Z</time></trkpt><trkpt lat="45.89229073167185" lon="11.547753173319977"><ele>1086.8</ele><time>2026-04-03T06:14:52.001Z</time></trkpt><trkpt lat="45.89217984729074" lon="11.547725488619017"><ele>1087.0</ele><time>2026-04-03T06:14:53.001Z</time></trkpt><trkpt lat="45.89207321775664" lon="11.547716061235471"><ele>1087.0</ele><time>2026-04-03T06:14:54.002Z</time></trkpt><trkpt lat="45.89195805863057" lon="11.547734543799699"><ele>1087.0</ele><time>2026-04-03T06:14:55.002Z</time></trkpt><trkpt lat="45.89184029476068" lon="11.547786559734414"><ele>1087.0</ele><time>2026-04-03T06:14:56.002Z</time></trkpt><trkpt lat="45.891710538692045" lon="11.547866035473218"><ele>1087.0</ele><time>2026-04-03T06:14:57.002Z</time></trkpt><trkpt lat="45.891579216351836" lon="11.54792806650934"><ele>1086.0</ele><time>2026-04-03T06:14:58.001Z</time></trkpt><trkpt lat="45.89143494289672" lon="11.547983030819985"><ele>1085.0</ele><time>2026-04-03T06:14:59.001Z</time></trkpt><trkpt lat="45.89128615455258" lon="11.548026694312359"><ele>1084.0</ele><time>2026-04-03T06:15:00.001Z</time></trkpt><trkpt lat="45.89113017621505" lon="11.54806647000652"><ele>1084.0</ele><time>2026-04-03T06:15:01.002Z</time></trkpt><trkpt lat="45.89098183197493" lon="11.548089952961305"><ele>1084.0</ele><time>2026-04-03T06:15:02.002Z</time></trkpt><trkpt lat="45.89083261839357" lon="11.548065630673246"><ele>1084.0</ele><time>2026-04-03T06:15:03.002Z</time></trkpt><trkpt lat="45.890687995478814" lon="11.54799044931402"><ele>1083.3333333333333</ele><time>2026-04-03T06:15:04.002Z</time></trkpt><trkpt lat="45.89053329281555" lon="11.547930705965715"><ele>1082.6666666666667</ele><time>2026-04-03T06:15:05.002Z</time></trkpt><trkpt lat="45.89037850673068" lon="11.54785321593176"><ele>1082.0</ele><time>2026-04-03T06:15:06.002Z</time></trkpt><trkpt lat="45.890212764216" lon="11.54779827494824"><ele>1081.0</ele><time>2026-04-03T06:15:07.002Z</time></trkpt><trkpt lat="45.89004586209994" lon="11.547762487211196"><ele>1080.0</ele><time>2026-04-03T06:15:08.002Z</time></trkpt><trkpt lat="45.88987969061059" lon="11.547749070047434"><ele>1079.0</ele><time>2026-04-03T06:15:09.002Z</time></trkpt><trkpt lat="45.88971267623403" lon="11.547734772282125"><ele>1079.0</ele><time>2026-04-03T06:15:10.002Z</time></trkpt><trkpt lat="45.889546917533046" lon="11.547724884562104"><ele>1079.0</ele><time>2026-04-03T06:15:11.002Z</time></trkpt><trkpt lat="45.889377118444" lon="11.54771868361233"><ele>1079.0</ele><time>2026-04-03T06:15:12.002Z</time></trkpt><trkpt lat="45.8892128907586" lon="11.547714891407036"><ele>1079.0</ele><time>2026-04-03T06:15:13.002Z</time></trkpt><trkpt lat="45.88905271635627" lon="11.547713582701865"><ele>1079.0</ele><time>2026-04-03T06:15:14.002Z</time></trkpt><trkpt lat="45.888899288638704" lon="11.547729303962383"><ele>1079.0</ele><time>2026-04-03T06:15:15.002Z</time></trkpt><trkpt lat="45.88875310693849" lon="11.54776540648833"><ele>1079.0</ele><time>2026-04-03T06:15:16.002Z</time></trkpt><trkpt lat="45.88861848923699" lon="11.547822558835994"><ele>1079.0</ele><time>2026-04-03T06:15:17.002Z</time></trkpt><trkpt lat="45.888493424902514" lon="11.5478949148035"><ele>1079.0</ele><time>2026-04-03T06:15:18.002Z</time></trkpt><trkpt lat="45.88837861271397" lon="11.54798110825315"><ele>1079.0</ele><time>2026-04-03T06:15:19.002Z</time></trkpt><trkpt lat="45.88827151974347" lon="11.54809202572991"><ele>1079.75</ele><time>2026-04-03T06:15:20.002Z</time></trkpt><trkpt lat="45.888166184692366" lon="11.548210403641452"><ele>1080.5</ele><time>2026-04-03T06:15:21.002Z</time></trkpt><trkpt lat="45.88806874734828" lon="11.548332905891638"><ele>1081.25</ele><time>2026-04-03T06:15:22.002Z</time></trkpt><trkpt lat="45.88796200892744" lon="11.548444338656914"><ele>1082.0</ele><time>2026-04-03T06:15:23.002Z</time></trkpt><trkpt lat="45.887838904532295" lon="11.548531988502061"><ele>1082.0</ele><time>2026-04-03T06:15:24.002Z</time></trkpt><trkpt lat="45.88769416090314" lon="11.548578918024996"><ele>1082.0</ele><time>2026-04-03T06:15:25.002Z</time></trkpt><trkpt lat="45.8875379516008" lon="11.548609563972505"><ele>1082.0</ele><time>2026-04-03T06:15:26.002Z</time></trkpt><trkpt lat="45.887378600388594" lon="11.548595462615094"><ele>1082.0</ele><time>2026-04-03T06:15:27.002Z</time></trkpt><trkpt lat="45.88722317865784" lon="11.548600169957062"><ele>1082.0</ele><time>2026-04-03T06:15:28.002Z</time></trkpt><trkpt lat="45.88707473247938" lon="11.548617906830193"><ele>1082.0</ele><time>2026-04-03T06:15:29.002Z</time></trkpt><trkpt lat="45.88693875160305" lon="11.548594825020801"><ele>1082.0</ele><time>2026-04-03T06:15:30.002Z</time></trkpt><trkpt lat="45.88681618714912" lon="11.548565837993342"><ele>1081.0</ele><time>2026-04-03T06:15:31.002Z</time></trkpt><trkpt lat="45.88670235215413" lon="11.548540553978729"><ele>1080.0</ele><time>2026-04-03T06:15:32.001Z</time></trkpt><trkpt lat="45.88661044964647" lon="11.54850325262944"><ele>1079.0</ele><time>2026-04-03T06:15:33.001Z</time></trkpt><trkpt lat="45.886527415733966" lon="11.548450648851265"><ele>1078.0</ele><time>2026-04-03T06:15:34.001Z</time></trkpt><trkpt lat="45.886460305203286" lon="11.54837979674914"><ele>1077.0</ele><time>2026-04-03T06:15:35.001Z</time></trkpt><trkpt lat="45.886339348208146" lon="11.548363365371186"><ele>1077.0</ele><time>2026-04-03T06:15:37.001Z</time></trkpt><trkpt lat="45.88625593498923" lon="11.548358070453896"><ele>1077.0</ele><time>2026-04-03T06:15:39.001Z</time></trkpt><trkpt lat="45.88634157347202" lon="11.548537767647572"><ele>1077.0</ele><time>2026-04-03T06:15:41.001Z</time></trkpt><trkpt lat="45.886344267482556" lon="11.548417717914676"><ele>1077.0</ele><time>2026-04-03T06:15:43.001Z</time></trkpt><trkpt lat="45.886365045190246" lon="11.548325777474814"><ele>1077.0</ele><time>2026-04-03T06:15:44.001Z</time></trkpt><trkpt lat="45.88625342536572" lon="11.54833949220514"><ele>1077.0</ele><time>2026-04-03T06:15:47.001Z</time></trkpt><trkpt lat="45.886179649372" lon="11.54834553382736"><ele>1077.0</ele><time>2026-04-03T06:15:48.001Z</time></trkpt><trkpt lat="45.88607793180997" lon="11.548365544931453"><ele>1077.0</ele><time>2026-04-03T06:15:49.001Z</time></trkpt><trkpt lat="45.88597460811899" lon="11.548342967605668"><ele>1077.0</ele><time>2026-04-03T06:15:50.001Z</time></trkpt><trkpt lat="45.885858446544916" lon="11.548311223896743"><ele>1077.0</ele><time>2026-04-03T06:15:51.001Z</time></trkpt><trkpt lat="45.88572761367425" lon="11.548271303989827"><ele>1076.6666666666667</ele><time>2026-04-03T06:15:52.001Z</time></trkpt><trkpt lat="45.8855821224259" lon="11.548227248828"><ele>1076.3333333333335</ele><time>2026-04-03T06:15:53.001Z</time></trkpt><trkpt lat="45.88543051612277" lon="11.548182964278045"><ele>1076.0</ele><time>2026-04-03T06:15:54.001Z</time></trkpt><trkpt lat="45.88528162640578" lon="11.548139477361607"><ele>1076.0</ele><time>2026-04-03T06:15:55.001Z</time></trkpt><trkpt lat="45.885129701062716" lon="11.548101266331837"><ele>1076.0</ele><time>2026-04-03T06:15:56.001Z</time></trkpt><trkpt lat="45.88497464100701" lon="11.548060698732494"><ele>1076.0</ele><time>2026-04-03T06:15:57.001Z</time></trkpt><trkpt lat="45.88481515794457" lon="11.54801844162509"><ele>1075.3333333333335</ele><time>2026-04-03T06:15:58.001Z</time></trkpt><trkpt lat="45.88465101487717" lon="11.54798428432033"><ele>1074.6666666666667</ele><time>2026-04-03T06:15:59.001Z</time></trkpt><trkpt lat="45.88448082019657" lon="11.547960546444711"><ele>1074.0</ele><time>2026-04-03T06:16:00.001Z</time></trkpt><trkpt lat="45.884306425286496" lon="11.547945621784436"><ele>1075.0</ele><time>2026-04-03T06:16:01.001Z</time></trkpt><trkpt lat="45.884129831209876" lon="11.547938057399742"><ele>1076.0</ele><time>2026-04-03T06:16:02.001Z</time></trkpt><trkpt lat="45.88395872379679" lon="11.547946609365592"><ele>1077.0</ele><time>2026-04-03T06:16:03.001Z</time></trkpt><trkpt lat="45.88378512471619" lon="11.547963759606663"><ele>1077.0</ele><time>2026-04-03T06:16:04.001Z</time></trkpt><trkpt lat="45.88362121253732" lon="11.547984102692679"><ele>1077.0</ele><time>2026-04-03T06:16:05.001Z</time></trkpt><trkpt lat="45.88346019301768" lon="11.548008064405424"><ele>1077.0</ele><time>2026-04-03T06:16:06.001Z</time></trkpt><trkpt lat="45.883309057709546" lon="11.548036373597771"><ele>1080.0</ele><time>2026-04-03T06:16:07.001Z</time></trkpt><trkpt lat="45.88315961340083" lon="11.548058601610538"><ele>1083.0</ele><time>2026-04-03T06:16:08.001Z</time></trkpt><trkpt lat="45.88300631195388" lon="11.548076521638361"><ele>1086.0</ele><time>2026-04-03T06:16:09.001Z</time></trkpt><trkpt lat="45.88285080502516" lon="11.548096461852868"><ele>1086.0</ele><time>2026-04-03T06:16:10.001Z</time></trkpt><trkpt lat="45.88269060643944" lon="11.548121107480112"><ele>1086.0</ele><time>2026-04-03T06:16:11.001Z</time></trkpt><trkpt lat="45.88252966105392" lon="11.548144188782496"><ele>1086.0</ele><time>2026-04-03T06:16:12.001Z</time></trkpt><trkpt lat="45.88237003103962" lon="11.54816761506823"><ele>1084.6666666666667</ele><time>2026-04-03T06:16:13.001Z</time></trkpt><trkpt lat="45.882214745934604" lon="11.54819219492923"><ele>1083.3333333333335</ele><time>2026-04-03T06:16:14.001Z</time></trkpt><trkpt lat="45.882059180974856" lon="11.548219433067898"><ele>1082.0</ele><time>2026-04-03T06:16:15.001Z</time></trkpt><trkpt lat="45.88189925383931" lon="11.548244108602695"><ele>1081.6666666666667</ele><time>2026-04-03T06:16:16.001Z</time></trkpt><trkpt lat="45.88173740550339" lon="11.548266626458139"><ele>1081.3333333333333</ele><time>2026-04-03T06:16:17.001Z</time></trkpt><trkpt lat="45.8815698648477" lon="11.548295437273126"><ele>1081.0</ele><time>2026-04-03T06:16:18.001Z</time></trkpt><trkpt lat="45.88140035582656" lon="11.548314654418636"><ele>1081.0</ele><time>2026-04-03T06:16:19.001Z</time></trkpt><trkpt lat="45.88122814021319" lon="11.548334798686634"><ele>1081.0</ele><time>2026-04-03T06:16:20.001Z</time></trkpt><trkpt lat="45.88105039445704" lon="11.54836746500221"><ele>1081.0</ele><time>2026-04-03T06:16:21.001Z</time></trkpt><trkpt lat="45.8808681613354" lon="11.548395802438236"><ele>1078.3333333333333</ele><time>2026-04-03T06:16:22.001Z</time></trkpt><trkpt lat="45.88068339832495" lon="11.548423587159329"><ele>1075.6666666666667</ele><time>2026-04-03T06:16:23.001Z</time></trkpt><trkpt lat="45.88049383569518" lon="11.548454400567703"><ele>1073.0</ele><time>2026-04-03T06:16:24.001Z</time></trkpt><trkpt lat="45.880306982690286" lon="11.5484801103189"><ele>1073.0</ele><time>2026-04-03T06:16:25.001Z</time></trkpt><trkpt lat="45.8801124159818" lon="11.54850709141566"><ele>1073.0</ele><time>2026-04-03T06:16:26.001Z</time></trkpt><trkpt lat="45.879922519702596" lon="11.548530686248714"><ele>1073.0</ele><time>2026-04-03T06:16:27.001Z</time></trkpt><trkpt lat="45.879736594215444" lon="11.54854539315328"><ele>1073.0</ele><time>2026-04-03T06:16:28.001Z</time></trkpt><trkpt lat="45.879553047507336" lon="11.548550195820432"><ele>1073.0</ele><time>2026-04-03T06:16:29.001Z</time></trkpt><trkpt lat="45.87937421475723" lon="11.54852376887103"><ele>1073.0</ele><time>2026-04-03T06:16:30.001Z</time></trkpt><trkpt lat="45.87920271875653" lon="11.548492796451962"><ele>1073.0</ele><time>2026-04-03T06:16:31.001Z</time></trkpt><trkpt lat="45.879033087971145" lon="11.548455518157748"><ele>1073.0</ele><time>2026-04-03T06:16:32.001Z</time></trkpt><trkpt lat="45.878865867058956" lon="11.548418400362168"><ele>1073.0</ele><time>2026-04-03T06:16:33.001Z</time></trkpt><trkpt lat="45.8787004643382" lon="11.548381956931104"><ele>1073.0</ele><time>2026-04-03T06:16:34.001Z</time></trkpt><trkpt lat="45.878540680347406" lon="11.548346132787978"><ele>1073.0</ele><time>2026-04-03T06:16:35.001Z</time></trkpt><trkpt lat="45.87838352415277" lon="11.548309997608744"><ele>1073.0</ele><time>2026-04-03T06:16:36.001Z</time></trkpt><trkpt lat="45.878226490735315" lon="11.548275250021431"><ele>1073.6666666666667</ele><time>2026-04-03T06:16:37.001Z</time></trkpt><trkpt lat="45.87806657762427" lon="11.548238953453552"><ele>1074.3333333333333</ele><time>2026-04-03T06:16:38.001Z</time></trkpt><trkpt lat="45.87790741104689" lon="11.548203616972884"><ele>1075.0</ele><time>2026-04-03T06:16:39.001Z</time></trkpt><trkpt lat="45.87774637904736" lon="11.548167245734"><ele>1074.0</ele><time>2026-04-03T06:16:40.001Z</time></trkpt><trkpt lat="45.87758178803216" lon="11.548118139904657"><ele>1073.0</ele><time>2026-04-03T06:16:41.001Z</time></trkpt><trkpt lat="45.87742456676736" lon="11.548057299563697"><ele>1072.0</ele><time>2026-04-03T06:16:42.001Z</time></trkpt><trkpt lat="45.877269179618786" lon="11.547972779607228"><ele>1072.0</ele><time>2026-04-03T06:16:43.001Z</time></trkpt><trkpt lat="45.877116783737804" lon="11.547878649902074"><ele>1072.0</ele><time>2026-04-03T06:16:44.001Z</time></trkpt><trkpt lat="45.87696599444665" lon="11.547777019165592"><ele>1072.0</ele><time>2026-04-03T06:16:45.001Z</time></trkpt><trkpt lat="45.87682159572431" lon="11.547674837463171"><ele>1071.2</ele><time>2026-04-03T06:16:46.001Z</time></trkpt><trkpt lat="45.876721715877615" lon="11.547580240044944"><ele>1070.4</ele><time>2026-04-03T06:16:47.001Z</time></trkpt><trkpt lat="45.87663444226757" lon="11.54752251148023"><ele>1069.6</ele><time>2026-04-03T06:16:48.001Z</time></trkpt><trkpt lat="45.876560959280134" lon="11.547473441285158"><ele>1068.8</ele><time>2026-04-03T06:16:49.001Z</time></trkpt><trkpt lat="45.87648313724467" lon="11.547422344903769"><ele>1068.0</ele><time>2026-04-03T06:16:50.001Z</time></trkpt><trkpt lat="45.876399829049404" lon="11.547365818600525"><ele>1068.0</ele><time>2026-04-03T06:16:51.001Z</time></trkpt><trkpt lat="45.876312411312476" lon="11.547304301256156"><ele>1068.0</ele><time>2026-04-03T06:16:52.001Z</time></trkpt><trkpt lat="45.87622387903795" lon="11.547242668599493"><ele>1068.0</ele><time>2026-04-03T06:16:53.001Z</time></trkpt><trkpt lat="45.87613189241471" lon="11.547176626429813"><ele>1068.0</ele><time>2026-04-03T06:16:54.002Z</time></trkpt><trkpt lat="45.8760347919432" lon="11.547110188813026"><ele>1068.0</ele><time>2026-04-03T06:16:55.002Z</time></trkpt><trkpt lat="45.87592341690829" lon="11.547042829832675"><ele>1067.5</ele><time>2026-04-03T06:16:56.002Z</time></trkpt><trkpt lat="45.875804534324644" lon="11.5469761391846"><ele>1067.0</ele><time>2026-04-03T06:16:57.002Z</time></trkpt><trkpt lat="45.875678611853324" lon="11.546910231598371"><ele>1066.5</ele><time>2026-04-03T06:16:58.001Z</time></trkpt><trkpt lat="45.87554068196192" lon="11.546854659059596"><ele>1066.0</ele><time>2026-04-03T06:16:59.001Z</time></trkpt><trkpt lat="45.8753976560299" lon="11.546797859738696"><ele>1066.0</ele><time>2026-04-03T06:17:00.002Z</time></trkpt><trkpt lat="45.87524869621692" lon="11.54673687965121"><ele>1066.0</ele><time>2026-04-03T06:17:01.002Z</time></trkpt><trkpt lat="45.8750925833415" lon="11.546679578186804"><ele>1066.0</ele><time>2026-04-03T06:17:02.002Z</time></trkpt><trkpt lat="45.8749350306208" lon="11.546620293085667"><ele>1066.3333333333333</ele><time>2026-04-03T06:17:03.002Z</time></trkpt><trkpt lat="45.87477868649061" lon="11.546564377340719"><ele>1066.6666666666667</ele><time>2026-04-03T06:17:04.001Z</time></trkpt><trkpt lat="45.87462907167907" lon="11.54648410147811"><ele>1067.0</ele><time>2026-04-03T06:17:05.001Z</time></trkpt><trkpt lat="45.87447810861677" lon="11.546433110783754"><ele>1067.0</ele><time>2026-04-03T06:17:06.002Z</time></trkpt><trkpt lat="45.87432674284171" lon="11.546379441477441"><ele>1067.0</ele><time>2026-04-03T06:17:07.001Z</time></trkpt><trkpt lat="45.87417509451894" lon="11.54632410747015"><ele>1067.0</ele><time>2026-04-03T06:17:08.001Z</time></trkpt><trkpt lat="45.87402162135339" lon="11.546268974001748"><ele>1067.6666666666667</ele><time>2026-04-03T06:17:09.001Z</time></trkpt><trkpt lat="45.87386918663725" lon="11.54621237936298"><ele>1068.3333333333333</ele><time>2026-04-03T06:17:10.001Z</time></trkpt><trkpt lat="45.873716510450286" lon="11.546158699806638"><ele>1069.0</ele><time>2026-04-03T06:17:11.001Z</time></trkpt><trkpt lat="45.87356008183925" lon="11.54611936871853"><ele>1072.0</ele><time>2026-04-03T06:17:12.001Z</time></trkpt><trkpt lat="45.873399793111595" lon="11.546105816703466"><ele>1075.0</ele><time>2026-04-03T06:17:13.001Z</time></trkpt><trkpt lat="45.873236586159024" lon="11.546113590379067"><ele>1078.0</ele><time>2026-04-03T06:17:14.001Z</time></trkpt><trkpt lat="45.87307655810436" lon="11.546156613433649"><ele>1078.0</ele><time>2026-04-03T06:17:15.001Z</time></trkpt><trkpt lat="45.87291625619145" lon="11.546227232735783"><ele>1078.0</ele><time>2026-04-03T06:17:16.001Z</time></trkpt><trkpt lat="45.872759821108794" lon="11.54632432268746"><ele>1078.0</ele><time>2026-04-03T06:17:17.001Z</time></trkpt><trkpt lat="45.87261125069307" lon="11.546446777683503"><ele>1079.0</ele><time>2026-04-03T06:17:18.001Z</time></trkpt><trkpt lat="45.872465475167466" lon="11.54658578342257"><ele>1080.0</ele><time>2026-04-03T06:17:19.001Z</time></trkpt><trkpt lat="45.872323444594656" lon="11.546736830375133"><ele>1081.0</ele><time>2026-04-03T06:17:20.001Z</time></trkpt><trkpt lat="45.87218140032487" lon="11.546901067262006"><ele>1081.6666666666665</ele><time>2026-04-03T06:17:21.001Z</time></trkpt><trkpt lat="45.87203064338458" lon="11.547064108090716"><ele>1082.3333333333333</ele><time>2026-04-03T06:17:22.001Z</time></trkpt><trkpt lat="45.87188603202801" lon="11.547219648469651"><ele>1083.0</ele><time>2026-04-03T06:17:23.001Z</time></trkpt><trkpt lat="45.87174315239569" lon="11.547370580433451"><ele>1083.0</ele><time>2026-04-03T06:17:24.001Z</time></trkpt><trkpt lat="45.87160503739096" lon="11.547517742373623"><ele>1083.0</ele><time>2026-04-03T06:17:25.001Z</time></trkpt><trkpt lat="45.87146733014119" lon="11.547661892924905"><ele>1083.0</ele><time>2026-04-03T06:17:26.001Z</time></trkpt></trkseg><trkseg><trkpt lat="45.8769975524457" lon="11.586517663870547"><ele>1108.9999999999998</ele><time>2026-04-03T07:53:32.995Z</time></trkpt><trkpt lat="45.87699689201663" lon="11.586426674034433"><ele>1109.0</ele><time>2026-04-03T07:53:43.995Z</time></trkpt><trkpt lat="45.87705949468337" lon="11.586451775667541"><ele>1109.0</ele><time>2026-04-03T07:54:17.995Z</time></trkpt><trkpt lat="45.87708402826543" lon="11.586546921644363"><ele>1109.0</ele><time>2026-04-03T07:54:24.994Z</time></trkpt><trkpt lat="45.87715135884521" lon="11.586558521302399"><ele>1109.0</ele><time>2026-04-03T07:55:07.994Z</time></trkpt><trkpt lat="45.87716374267877" lon="11.586469486962763"><ele>1108.9999999999998</ele><time>2026-04-03T07:55:17.994Z</time></trkpt><trkpt lat="45.87720664979634" lon="11.58638904011178"><ele>1109.0</ele><time>2026-04-03T07:55:53.995Z</time></trkpt><trkpt lat="45.87728047963805" lon="11.586376243205562"><ele>1108.9999999999998</ele><time>2026-04-03T07:56:16.994Z</time></trkpt><trkpt lat="45.877307684047544" lon="11.586294364811131"><ele>1109.0</ele><time>2026-04-03T07:56:35.994Z</time></trkpt><trkpt lat="45.87727597816787" lon="11.586388135602798"><ele>1109.0</ele><time>2026-04-03T07:57:03.994Z</time></trkpt><trkpt lat="45.87730118422461" lon="11.586493878542726"><ele>1109.0</ele><time>2026-04-03T07:57:07.994Z</time></trkpt><trkpt lat="45.87728572062835" lon="11.586396048366657"><ele>1109.0</ele><time>2026-04-03T07:57:32.995Z</time></trkpt><trkpt lat="45.87734706225146" lon="11.586374270752088"><ele>1108.9999999999998</ele><time>2026-04-03T07:58:45.994Z</time></trkpt><trkpt lat="45.87735676369746" lon="11.586473632265633"><ele>1109.0</ele><time>2026-04-03T08:00:56.994Z</time></trkpt><trkpt lat="45.87746958078874" lon="11.586556873095557"><ele>1108.9999999999998</ele><time>2026-04-03T08:01:52.995Z</time></trkpt><trkpt lat="45.877547679848476" lon="11.586561788978711"><ele>1109.0</ele><time>2026-04-03T08:02:24.995Z</time></trkpt><trkpt lat="45.877605315972076" lon="11.586509647422242"><ele>1109.0</ele><time>2026-04-03T08:02:55.994Z</time></trkpt><trkpt lat="45.877583046375754" lon="11.586413344706882"><ele>1109.0</ele><time>2026-04-03T08:03:17.994Z</time></trkpt><trkpt lat="45.877546048465696" lon="11.586322609371011"><ele>1109.0</ele><time>2026-04-03T08:03:24.994Z</time></trkpt><trkpt lat="45.87748967392237" lon="11.586279079858855"><ele>1108.9999999999998</ele><time>2026-04-03T08:03:55.995Z</time></trkpt><trkpt lat="45.87744612428553" lon="11.586348440118659"><ele>1109.0</ele><time>2026-04-03T08:04:07.995Z</time></trkpt><trkpt lat="45.87745358642388" lon="11.586451669582813"><ele>1108.9999999999998</ele><time>2026-04-03T08:04:16.995Z</time></trkpt><trkpt lat="45.877469471728745" lon="11.586555431973597"><ele>1109.0</ele><time>2026-04-03T08:04:24.995Z</time></trkpt><trkpt lat="45.87751305861164" lon="11.586624446336135"><ele>1109.0</ele><time>2026-04-03T08:04:36.995Z</time></trkpt><trkpt lat="45.877555901154324" lon="11.586525963361398"><ele>1109.0</ele><time>2026-04-03T08:04:43.995Z</time></trkpt><trkpt lat="45.87761824279072" lon="11.586500508864596"><ele>1109.0</ele><time>2026-04-03T08:04:56.995Z</time></trkpt><trkpt lat="45.87767102002063" lon="11.586559881418982"><ele>1108.9999999999998</ele><time>2026-04-03T08:05:19.994Z</time></trkpt><trkpt lat="45.87769771185421" lon="11.586643751680626"><ele>1109.0</ele><time>2026-04-03T08:05:29.994Z</time></trkpt><trkpt lat="45.87773328376178" lon="11.586727952247195"><ele>1105.7142857142856</ele><time>2026-04-03T08:05:50.994Z</time></trkpt><trkpt lat="45.87779769611245" lon="11.586696733120634"><ele>1102.4285714285713</ele><time>2026-04-03T08:06:01.995Z</time></trkpt><trkpt lat="45.877822609547344" lon="11.586610046782015"><ele>1099.142857142857</ele><time>2026-04-03T08:06:08.995Z</time></trkpt><trkpt lat="45.87792035757331" lon="11.586595486527555"><ele>1095.8571428571427</ele><time>2026-04-03T08:06:25.995Z</time></trkpt><trkpt lat="45.87796633789443" lon="11.586531798937367"><ele>1092.5714285714284</ele><time>2026-04-03T08:06:43.995Z</time></trkpt><trkpt lat="45.87804129569291" lon="11.586524231958121"><ele>1089.2857142857142</ele><time>2026-04-03T08:07:11.988Z</time></trkpt><trkpt lat="45.87799917532832" lon="11.58660052669163"><ele>1086.0</ele><time>2026-04-03T08:07:21.986Z</time></trkpt><trkpt lat="45.877943445287265" lon="11.58664477835705"><ele>1086.0</ele><time>2026-04-03T08:07:34.985Z</time></trkpt><trkpt lat="45.877911624658594" lon="11.586553341208408"><ele>1086.0</ele><time>2026-04-03T08:07:41.985Z</time></trkpt><trkpt lat="45.87797593502599" lon="11.586589077304929"><ele>1086.0</ele><time>2026-04-03T08:07:59.985Z</time></trkpt><trkpt lat="45.87794958843261" lon="11.586500633041059"><ele>1086.0</ele><time>2026-04-03T08:09:42.984Z</time></trkpt><trkpt lat="45.877883019573005" lon="11.586547268738556"><ele>1086.0</ele><time>2026-04-03T08:10:02.984Z</time></trkpt><trkpt lat="45.87785403161359" lon="11.586455866670438"><ele>1086.0</ele><time>2026-04-03T08:10:07.985Z</time></trkpt><trkpt lat="45.87784324386959" lon="11.586556211946219"><ele>1086.0</ele><time>2026-04-03T08:10:30.985Z</time></trkpt><trkpt lat="45.87790189378829" lon="11.586625578163304"><ele>1086.0</ele><time>2026-04-03T08:10:33.985Z</time></trkpt><trkpt lat="45.877956849476774" lon="11.586722497896442"><ele>1086.0</ele><time>2026-04-03T08:10:38.985Z</time></trkpt><trkpt lat="45.87801343732488" lon="11.58678785966714"><ele>1086.0</ele><time>2026-04-03T08:10:44.985Z</time></trkpt><trkpt lat="45.87807792979038" lon="11.58680950435332"><ele>1086.0</ele><time>2026-04-03T08:10:50.985Z</time></trkpt><trkpt lat="45.87815366799194" lon="11.586800236191086"><ele>1086.0</ele><time>2026-04-03T08:11:05.984Z</time></trkpt><trkpt lat="45.878219886165496" lon="11.58676860801995"><ele>1086.0</ele><time>2026-04-03T08:11:49.984Z</time></trkpt><trkpt lat="45.87822301685883" lon="11.58667570277466"><ele>1086.0</ele><time>2026-04-03T08:12:33.985Z</time></trkpt><trkpt lat="45.87819408064261" lon="11.58676384759152"><ele>1086.0</ele><time>2026-04-03T08:13:49.984Z</time></trkpt><trkpt lat="45.878173721085474" lon="11.58685505871977"><ele>1086.0</ele><time>2026-04-03T08:13:57.984Z</time></trkpt><trkpt lat="45.87817673825535" lon="11.586952897880279"><ele>1086.0</ele><time>2026-04-03T08:14:12.984Z</time></trkpt><trkpt lat="45.87823157077588" lon="11.586906198917818"><ele>1086.0</ele><time>2026-04-03T08:14:42.985Z</time></trkpt><trkpt lat="45.87824961808108" lon="11.586805240280608"><ele>1086.0</ele><time>2026-04-03T08:14:51.985Z</time></trkpt><trkpt lat="45.878233865499276" lon="11.586712518762624"><ele>1086.0</ele><time>2026-04-03T08:14:59.984Z</time></trkpt><trkpt lat="45.87817370656975" lon="11.58665441067474"><ele>1086.0</ele><time>2026-04-03T08:15:05.984Z</time></trkpt><trkpt lat="45.878125866996236" lon="11.586594978714182"><ele>1086.0</ele><time>2026-04-03T08:15:29.984Z</time></trkpt><trkpt lat="45.87807012948285" lon="11.58652121044606"><ele>1086.0</ele><time>2026-04-03T08:15:36.984Z</time></trkpt><trkpt lat="45.878010208866776" lon="11.586466086237367"><ele>1086.0</ele><time>2026-04-03T08:15:43.984Z</time></trkpt><trkpt lat="45.87794989255749" lon="11.58642307127281"><ele>1086.0</ele><time>2026-04-03T08:15:53.984Z</time></trkpt><trkpt lat="45.87787552594617" lon="11.586425303431643"><ele>1086.0</ele><time>2026-04-03T08:16:00.984Z</time></trkpt><trkpt lat="45.87781261065066" lon="11.586412896259874"><ele>1086.0</ele><time>2026-04-03T08:16:07.984Z</time></trkpt><trkpt lat="45.877747986402184" lon="11.586394197816695"><ele>1086.0</ele><time>2026-04-03T08:16:20.983Z</time></trkpt><trkpt lat="45.87771698457454" lon="11.586586367327712"><ele>1086.0</ele><time>2026-04-03T08:17:27.984Z</time></trkpt><trkpt lat="45.87760957878076" lon="11.5865563517329"><ele>1086.0</ele><time>2026-04-03T08:17:59.983Z</time></trkpt><trkpt lat="45.87755284072654" lon="11.586502788845387"><ele>1086.0</ele><time>2026-04-03T08:18:31.984Z</time></trkpt><trkpt lat="45.8775053234586" lon="11.58641798420225"><ele>1086.0</ele><time>2026-04-03T08:18:37.985Z</time></trkpt><trkpt lat="45.87749201159395" lon="11.586554022272642"><ele>1086.0</ele><time>2026-04-03T08:18:51.984Z</time></trkpt><trkpt lat="45.87744078988023" lon="11.586465873963903"><ele>1086.0</ele><time>2026-04-03T08:19:06.984Z</time></trkpt><trkpt lat="45.87737546811041" lon="11.586465237469914"><ele>1089.2857142857142</ele><time>2026-04-03T08:19:21.984Z</time></trkpt><trkpt lat="45.877317854558974" lon="11.586420049552325"><ele>1092.5714285714284</ele><time>2026-04-03T08:19:41.984Z</time></trkpt><trkpt lat="45.877317330972225" lon="11.586319387097765"><ele>1095.8571428571427</ele><time>2026-04-03T08:20:09.983Z</time></trkpt><trkpt lat="45.877246605981426" lon="11.58629992292655"><ele>1099.142857142857</ele><time>2026-04-03T08:20:25.983Z</time></trkpt><trkpt lat="45.87717571004125" lon="11.586290296227164"><ele>1102.4285714285713</ele><time>2026-04-03T08:20:35.984Z</time></trkpt><trkpt lat="45.87711105379111" lon="11.586336878079749"><ele>1105.7142857142856</ele><time>2026-04-03T08:20:42.984Z</time></trkpt><trkpt lat="45.87705439974902" lon="11.586276725699603"><ele>1109.0</ele><time>2026-04-03T08:20:47.984Z</time></trkpt><trkpt lat="45.87699003769963" lon="11.586261354449986"><ele>1108.9999999999998</ele><time>2026-04-03T08:22:07.983Z</time></trkpt><trkpt lat="45.87692920198184" lon="11.586222502005231"><ele>1109.0</ele><time>2026-04-03T08:22:18.983Z</time></trkpt><trkpt lat="45.87688127204495" lon="11.586149805153331"><ele>1109.0</ele><time>2026-04-03T08:22:43.985Z</time></trkpt><trkpt lat="45.8768239913998" lon="11.586207724181666"><ele>1109.0</ele><time>2026-04-03T08:22:57.984Z</time></trkpt><trkpt lat="45.87677473933197" lon="11.586282044174794"><ele>1109.0</ele><time>2026-04-03T08:23:05.984Z</time></trkpt><trkpt lat="45.87677172084597" lon="11.586372663598327"><ele>1108.9999999999998</ele><time>2026-04-03T08:23:10.983Z</time></trkpt><trkpt lat="45.8767787115367" lon="11.586269831295196"><ele>1109.0</ele><time>2026-04-03T08:23:41.983Z</time></trkpt><trkpt lat="45.87674445321241" lon="11.586184359926621"><ele>1109.8571428571427</ele><time>2026-04-03T08:23:49.983Z</time></trkpt><trkpt lat="45.87678246515031" lon="11.586105501513439"><ele>1110.7142857142858</ele><time>2026-04-03T08:23:58.983Z</time></trkpt><trkpt lat="45.87672394500485" lon="11.586036506448972"><ele>1111.5714285714284</ele><time>2026-04-03T08:24:14.982Z</time></trkpt><trkpt lat="45.87670799747272" lon="11.585941418773825"><ele>1112.4285714285713</ele><time>2026-04-03T08:24:36.982Z</time></trkpt><trkpt lat="45.8766368705098" lon="11.585939896464575"><ele>1113.2857142857142</ele><time>2026-04-03T08:24:47.984Z</time></trkpt><trkpt lat="45.87656729859084" lon="11.585941197834824"><ele>1114.142857142857</ele><time>2026-04-03T08:24:54.982Z</time></trkpt><trkpt lat="45.87650355495376" lon="11.585998603139593"><ele>1115.0</ele><time>2026-04-03T08:25:54.982Z</time></trkpt><trkpt lat="45.87648457879225" lon="11.585903271890816"><ele>1118.142857142857</ele><time>2026-04-03T08:26:24.982Z</time></trkpt><trkpt lat="45.87641436352668" lon="11.585803335922426"><ele>1121.2857142857142</ele><time>2026-04-03T08:28:27.981Z</time></trkpt><trkpt lat="45.87635303269055" lon="11.585850514725328"><ele>1124.4285714285713</ele><time>2026-04-03T08:29:18.982Z</time></trkpt><trkpt lat="45.87629434349529" lon="11.585807846307498"><ele>1127.5714285714284</ele><time>2026-04-03T08:29:28.982Z</time></trkpt><trkpt lat="45.876231518037365" lon="11.585773076343319"><ele>1130.7142857142858</ele><time>2026-04-03T08:29:35.982Z</time></trkpt><trkpt lat="45.876176332591356" lon="11.5856972650245"><ele>1133.8571428571427</ele><time>2026-04-03T08:29:43.982Z</time></trkpt><trkpt lat="45.87612306655084" lon="11.585629495098022"><ele>1137.0</ele><time>2026-04-03T08:30:45.981Z</time></trkpt><trkpt lat="45.87605288034924" lon="11.585660522868846"><ele>1137.0</ele><time>2026-04-03T08:30:52.981Z</time></trkpt><trkpt lat="45.876015567590784" lon="11.585737463506316"><ele>1137.0</ele><time>2026-04-03T08:31:26.996Z</time></trkpt><trkpt lat="45.87598498369182" lon="11.58581984411003"><ele>1137.0</ele><time>2026-04-03T08:31:37.998Z</time></trkpt><trkpt lat="45.875990912013485" lon="11.585911748497013"><ele>1137.0</ele><time>2026-04-03T08:32:28Z</time></trkpt><trkpt lat="45.87598721611379" lon="11.586006948632821"><ele>1137.0</ele><time>2026-04-03T08:32:36Z</time></trkpt><trkpt lat="45.87591229904555" lon="11.585921394338357"><ele>1137.0</ele><time>2026-04-03T08:32:46Z</time></trkpt><trkpt lat="45.875901280613746" lon="11.586081090586624"><ele>1136.7142857142856</ele><time>2026-04-03T08:33:16.001Z</time></trkpt><trkpt lat="45.87591460164392" lon="11.586171204977436"><ele>1136.4285714285713</ele><time>2026-04-03T08:33:22Z</time></trkpt><trkpt lat="45.875939215674684" lon="11.586255724343301"><ele>1136.142857142857</ele><time>2026-04-03T08:33:29Z</time></trkpt><trkpt lat="45.875953842483746" lon="11.586348556847263"><ele>1135.8571428571427</ele><time>2026-04-03T08:33:51Z</time></trkpt><trkpt lat="45.87600336869252" lon="11.586410047504538"><ele>1135.5714285714284</ele><time>2026-04-03T08:34:44.999Z</time></trkpt><trkpt lat="45.87606184012363" lon="11.586361121102458"><ele>1135.2857142857142</ele><time>2026-04-03T08:45:52.997Z</time></trkpt><trkpt lat="45.87610454504118" lon="11.58628097613358"><ele>1135.0</ele><time>2026-04-03T08:46:13.997Z</time></trkpt><trkpt lat="45.876085524690176" lon="11.586372281402172"><ele>1135.0</ele><time>2026-04-03T08:47:41.996Z</time></trkpt><trkpt lat="45.876014542574076" lon="11.586338761746232"><ele>1135.0</ele><time>2026-04-03T08:48:11.996Z</time></trkpt><trkpt lat="45.87601804397128" lon="11.586435967374156"><ele>1135.0</ele><time>2026-04-03T08:52:43.993Z</time></trkpt><trkpt lat="45.87604461684076" lon="11.586531875634781"><ele>1135.0</ele><time>2026-04-03T08:52:50.993Z</time></trkpt><trkpt lat="45.87607514142686" lon="11.58661276394511"><ele>1135.0</ele><time>2026-04-03T08:53:00.993Z</time></trkpt><trkpt lat="45.87606916179484" lon="11.586724624561132"><ele>1135.0</ele><time>2026-04-03T08:53:08.993Z</time></trkpt><trkpt lat="45.876132349534" lon="11.586791263708795"><ele>1135.0</ele><time>2026-04-03T08:54:39.992Z</time></trkpt><trkpt lat="45.87612350095044" lon="11.586697715582062"><ele>1135.0</ele><time>2026-04-03T08:57:12.99Z</time></trkpt><trkpt lat="45.87610452062096" lon="11.58678498031906"><ele>1135.0</ele><time>2026-04-03T08:57:23.99Z</time></trkpt><trkpt lat="45.8760701634368" lon="11.586872931380189"><ele>1135.0</ele><time>2026-04-03T08:57:32.99Z</time></trkpt><trkpt lat="45.876044898251614" lon="11.586968425993437"><ele>1135.0</ele><time>2026-04-03T08:57:58.99Z</time></trkpt><trkpt lat="45.87607520789599" lon="11.586877300804835"><ele>1135.0</ele><time>2026-04-03T08:58:16.99Z</time></trkpt><trkpt lat="45.876141647398114" lon="11.586864231783068"><ele>1135.0</ele><time>2026-04-03T08:58:40.989Z</time></trkpt><trkpt lat="45.87621919490917" lon="11.586777722018796"><ele>1135.0</ele><time>2026-04-03T08:59:01.989Z</time></trkpt><trkpt lat="45.87627328012676" lon="11.586711555276212"><ele>1135.0</ele><time>2026-04-03T08:59:19.989Z</time></trkpt><trkpt lat="45.87624319202808" lon="11.586794307648265"><ele>1135.0</ele><time>2026-04-03T09:03:34Z</time></trkpt><trkpt lat="45.87624436213356" lon="11.586699854754096"><ele>1135.0</ele><time>2026-04-03T09:04:07.999Z</time></trkpt><trkpt lat="45.87629380200889" lon="11.586634905112447"><ele>1135.0</ele><time>2026-04-03T09:04:23.999Z</time></trkpt><trkpt lat="45.87622019243156" lon="11.586655654204312"><ele>1135.0</ele><time>2026-04-03T09:06:32.999Z</time></trkpt><trkpt lat="45.87624097112831" lon="11.586568879714939"><ele>1135.0</ele><time>2026-04-03T09:06:48Z</time></trkpt><trkpt lat="45.876222417720896" lon="11.586477222380266"><ele>1135.0</ele><time>2026-04-03T09:07:05Z</time></trkpt><trkpt lat="45.876155714531286" lon="11.586484401717689"><ele>1135.0</ele><time>2026-04-03T09:08:11Z</time></trkpt><trkpt lat="45.87612185584755" lon="11.586571387061444"><ele>1135.0</ele><time>2026-04-03T09:11:45Z</time></trkpt><trkpt lat="45.876096797168444" lon="11.586658797068699"><ele>1135.0</ele><time>2026-04-03T09:14:24.999Z</time></trkpt><trkpt lat="45.87608615003082" lon="11.586753283022029"><ele>1135.0</ele><time>2026-04-03T09:14:31.999Z</time></trkpt><trkpt lat="45.87606232668129" lon="11.586838743366682"><ele>1135.0</ele><time>2026-04-03T09:14:48.999Z</time></trkpt><trkpt lat="45.8760354851206" lon="11.586921792784118"><ele>1135.0</ele><time>2026-04-03T09:14:55.999Z</time></trkpt><trkpt lat="45.87602055251358" lon="11.587023312356168"><ele>1135.0</ele><time>2026-04-03T09:15:01.999Z</time></trkpt><trkpt lat="45.87602591160086" lon="11.587116723189991"><ele>1136.4285714285716</ele><time>2026-04-03T09:15:44Z</time></trkpt><trkpt lat="45.875982630401275" lon="11.58719141507616"><ele>1137.857142857143</ele><time>2026-04-03T09:15:52Z</time></trkpt><trkpt lat="45.876010508086345" lon="11.587288565173992"><ele>1139.2857142857142</ele><time>2026-04-03T09:16:09Z</time></trkpt><trkpt lat="45.876062251748984" lon="11.587353808600989"><ele>1140.7142857142858</ele><time>2026-04-03T09:16:15Z</time></trkpt><trkpt lat="45.87612661490512" lon="11.587397844504517"><ele>1142.142857142857</ele><time>2026-04-03T09:16:20.999Z</time></trkpt><trkpt lat="45.8761927458644" lon="11.587436132721283"><ele>1143.5714285714287</ele><time>2026-04-03T09:16:26.999Z</time></trkpt><trkpt lat="45.876253395634556" lon="11.587470219994705"><ele>1145.0</ele><time>2026-04-03T09:16:32.999Z</time></trkpt><trkpt lat="45.8763066302558" lon="11.587524238581711"><ele>1145.0000000000002</ele><time>2026-04-03T09:16:39.999Z</time></trkpt><trkpt lat="45.876372043043524" lon="11.587558556521929"><ele>1145.0</ele><time>2026-04-03T09:16:46.999Z</time></trkpt><trkpt lat="45.876433282815675" lon="11.587533310869853"><ele>1145.0</ele><time>2026-04-03T09:17:11.999Z</time></trkpt><trkpt lat="45.876462411214675" lon="11.587621703709493"><ele>1145.0</ele><time>2026-04-03T09:17:17Z</time></trkpt><trkpt lat="45.87652495038796" lon="11.587671999463396"><ele>1145.0</ele><time>2026-04-03T09:17:22Z</time></trkpt><trkpt lat="45.876572440173064" lon="11.58774108021389"><ele>1145.0000000000002</ele><time>2026-04-03T09:17:28Z</time></trkpt><trkpt lat="45.876596981708595" lon="11.587829019749304"><ele>1145.0</ele><time>2026-04-03T09:17:35Z</time></trkpt><trkpt lat="45.87661740260579" lon="11.587921308262398"><ele>1146.5714285714287</ele><time>2026-04-03T09:17:44Z</time></trkpt><trkpt lat="45.87661076074108" lon="11.58801386570916"><ele>1148.142857142857</ele><time>2026-04-03T09:17:51Z</time></trkpt><trkpt lat="45.87660839913991" lon="11.588108143414384"><ele>1149.7142857142858</ele><time>2026-04-03T09:17:58Z</time></trkpt><trkpt lat="45.87661817901714" lon="11.588198601659384"><ele>1151.2857142857142</ele><time>2026-04-03T09:18:04Z</time></trkpt><trkpt lat="45.87659288559695" lon="11.588300655287608"><ele>1152.857142857143</ele><time>2026-04-03T09:18:10Z</time></trkpt><trkpt lat="45.8765515009631" lon="11.588382299713404"><ele>1154.4285714285716</ele><time>2026-04-03T09:18:18Z</time></trkpt><trkpt lat="45.8765439992316" lon="11.588482037169989"><ele>1156.0</ele><time>2026-04-03T09:18:25Z</time></trkpt><trkpt lat="45.87652096123699" lon="11.588577960572218"><ele>1157.5714285714287</ele><time>2026-04-03T09:18:30Z</time></trkpt><trkpt lat="45.87651145386678" lon="11.588687661389567"><ele>1159.142857142857</ele><time>2026-04-03T09:18:36Z</time></trkpt><trkpt lat="45.876514617533196" lon="11.588788933902622"><ele>1160.7142857142858</ele><time>2026-04-03T09:18:40.999Z</time></trkpt><trkpt lat="45.876533801686385" lon="11.58888416632983"><ele>1162.2857142857142</ele><time>2026-04-03T09:18:46.999Z</time></trkpt><trkpt lat="45.87659014209583" lon="11.58894188178182"><ele>1163.857142857143</ele><time>2026-04-03T09:18:51.999Z</time></trkpt><trkpt lat="45.87663610674833" lon="11.589005426646365"><ele>1165.4285714285716</ele><time>2026-04-03T09:18:56.999Z</time></trkpt><trkpt lat="45.87670598837713" lon="11.589044461488944"><ele>1167.0</ele><time>2026-04-03T09:19:01.999Z</time></trkpt><trkpt lat="45.87676010064247" lon="11.589099907397403"><ele>1165.142857142857</ele><time>2026-04-03T09:19:06.999Z</time></trkpt><trkpt lat="45.876800085316034" lon="11.589170659348426"><ele>1163.2857142857144</ele><time>2026-04-03T09:19:10.999Z</time></trkpt><trkpt lat="45.87684593060739" lon="11.589241627529143"><ele>1161.4285714285716</ele><time>2026-04-03T09:19:17.999Z</time></trkpt><trkpt lat="45.87687703424493" lon="11.589321209693328"><ele>1159.5714285714287</ele><time>2026-04-03T09:19:24.001Z</time></trkpt><trkpt lat="45.87691266787896" lon="11.589417826680188"><ele>1157.7142857142858</ele><time>2026-04-03T09:19:30.001Z</time></trkpt><trkpt lat="45.8769446749429" lon="11.589512815713254"><ele>1155.857142857143</ele><time>2026-04-03T09:19:35.001Z</time></trkpt><trkpt lat="45.87702139314676" lon="11.589553080749052"><ele>1154.0</ele><time>2026-04-03T09:19:46.001Z</time></trkpt><trkpt lat="45.87710478434736" lon="11.58949292692941"><ele>1154.0</ele><time>2026-04-03T09:20:20.001Z</time></trkpt><trkpt lat="45.87716992261324" lon="11.589410468914341"><ele>1154.0</ele><time>2026-04-03T09:20:58Z</time></trkpt><trkpt lat="45.87717589292048" lon="11.589502505378137"><ele>1154.0</ele><time>2026-04-03T09:21:16Z</time></trkpt><trkpt lat="45.87716821057466" lon="11.58960365411371"><ele>1154.0</ele><time>2026-04-03T09:21:24Z</time></trkpt><trkpt lat="45.87722358317415" lon="11.589664486121807"><ele>1154.0</ele><time>2026-04-03T09:21:37.001Z</time></trkpt><trkpt lat="45.87719085556134" lon="11.589762817892728"><ele>1154.0</ele><time>2026-04-03T09:21:44.001Z</time></trkpt><trkpt lat="45.8771595080204" lon="11.589854554360265"><ele>1154.0</ele><time>2026-04-03T09:22:26.001Z</time></trkpt><trkpt lat="45.877152743569994" lon="11.589958469967497"><ele>1154.0</ele><time>2026-04-03T09:22:31.001Z</time></trkpt><trkpt lat="45.877197585470505" lon="11.589888631621703"><ele>1154.0</ele><time>2026-04-03T09:22:48.001Z</time></trkpt><trkpt lat="45.877163633252806" lon="11.589967452535499"><ele>1154.0</ele><time>2026-04-03T09:23:20Z</time></trkpt><trkpt lat="45.87713502722938" lon="11.590053382875993"><ele>1154.0</ele><time>2026-04-03T09:23:30Z</time></trkpt><trkpt lat="45.877152381510676" lon="11.590142888684172"><ele>1154.0</ele><time>2026-04-03T09:23:35.001Z</time></trkpt><trkpt lat="45.87713646123118" lon="11.590234551784953"><ele>1154.0</ele><time>2026-04-03T09:23:44.001Z</time></trkpt><trkpt lat="45.877122557716284" lon="11.590327916765158"><ele>1154.0</ele><time>2026-04-03T09:23:53.001Z</time></trkpt><trkpt lat="45.877114126406624" lon="11.590424818194444"><ele>1155.142857142857</ele><time>2026-04-03T09:24:01.001Z</time></trkpt><trkpt lat="45.87714918348945" lon="11.590515827199843"><ele>1156.2857142857142</ele><time>2026-04-03T09:24:05Z</time></trkpt><trkpt lat="45.87717900711692" lon="11.590617894233189"><ele>1157.4285714285716</ele><time>2026-04-03T09:24:09Z</time></trkpt><trkpt lat="45.877198435584496" lon="11.59072187470981"><ele>1158.5714285714284</ele><time>2026-04-03T09:24:13.999Z</time></trkpt><trkpt lat="45.877211168155725" lon="11.590819391078842"><ele>1159.7142857142858</ele><time>2026-04-03T09:24:17.999Z</time></trkpt><trkpt lat="45.8772325297762" lon="11.590733989220661"><ele>1160.857142857143</ele><time>2026-04-03T09:24:38.998Z</time></trkpt><trkpt lat="45.877229051972385" lon="11.590839642006502"><ele>1162.0</ele><time>2026-04-03T09:24:56.998Z</time></trkpt><trkpt lat="45.87716622498393" lon="11.590891538228853"><ele>1162.0</ele><time>2026-04-03T09:25:54.998Z</time></trkpt><trkpt lat="45.87716153471552" lon="11.590983150182607"><ele>1162.0</ele><time>2026-04-03T09:26:04.998Z</time></trkpt><trkpt lat="45.87714421714475" lon="11.591076744463736"><ele>1162.0</ele><time>2026-04-03T09:26:14.998Z</time></trkpt><trkpt lat="45.877110662002664" lon="11.591154870475648"><ele>1162.0</ele><time>2026-04-03T09:26:37.998Z</time></trkpt><trkpt lat="45.877157172731266" lon="11.591218296221369"><ele>1162.0</ele><time>2026-04-03T09:27:19.997Z</time></trkpt><trkpt lat="45.87711968145819" lon="11.591301135045233"><ele>1162.0</ele><time>2026-04-03T09:27:28.997Z</time></trkpt><trkpt lat="45.877062735052654" lon="11.591347802319666"><ele>1162.0</ele><time>2026-04-03T09:27:57.998Z</time></trkpt><trkpt lat="45.877002643773544" lon="11.591399768226962"><ele>1161.857142857143</ele><time>2026-04-03T09:28:24.998Z</time></trkpt><trkpt lat="45.87695860232825" lon="11.591467995443"><ele>1161.7142857142858</ele><time>2026-04-03T09:28:43.998Z</time></trkpt><trkpt lat="45.876926354255424" lon="11.591548066825359"><ele>1161.5714285714284</ele><time>2026-04-03T09:28:53.997Z</time></trkpt><trkpt lat="45.8768690494622" lon="11.59165252775622"><ele>1161.4285714285716</ele><time>2026-04-03T09:29:16.997Z</time></trkpt><trkpt lat="45.87691649536942" lon="11.59157400421367"><ele>1161.2857142857142</ele><time>2026-04-03T09:29:22.997Z</time></trkpt><trkpt lat="45.876863021378384" lon="11.591623260183729"><ele>1161.142857142857</ele><time>2026-04-03T09:30:16.997Z</time></trkpt><trkpt lat="45.876825982929" lon="11.591698295573991"><ele>1161.0</ele><time>2026-04-03T09:30:25.997Z</time></trkpt><trkpt lat="45.876858975297765" lon="11.591600169020436"><ele>1161.0</ele><time>2026-04-03T09:31:08.997Z</time></trkpt><trkpt lat="45.87686191679687" lon="11.591697061177223"><ele>1161.0</ele><time>2026-04-03T09:31:39.996Z</time></trkpt><trkpt lat="45.87684941340624" lon="11.591799695537944"><ele>1161.0</ele><time>2026-04-03T09:31:46.996Z</time></trkpt><trkpt lat="45.87678819535944" lon="11.591839526406499"><ele>1161.0</ele><time>2026-04-03T09:32:29.998Z</time></trkpt><trkpt lat="45.876802268272556" lon="11.591929301735343"><ele>1161.0</ele><time>2026-04-03T09:32:35.998Z</time></trkpt><trkpt lat="45.87684090177582" lon="11.592031347117011"><ele>1161.0</ele><time>2026-04-03T09:33:04.997Z</time></trkpt><trkpt lat="45.876838171263636" lon="11.592121702266082"><ele>1161.0</ele><time>2026-04-03T09:33:10.997Z</time></trkpt><trkpt lat="45.87682834097996" lon="11.592212244058485"><ele>1159.2857142857142</ele><time>2026-04-03T09:33:20.997Z</time></trkpt><trkpt lat="45.876843085477894" lon="11.592300634418116"><ele>1157.5714285714287</ele><time>2026-04-03T09:35:00.997Z</time></trkpt><trkpt lat="45.87678521116121" lon="11.59235480819088"><ele>1155.857142857143</ele><time>2026-04-03T09:35:14.997Z</time></trkpt><trkpt lat="45.87673842595854" lon="11.592420040211968"><ele>1154.142857142857</ele><time>2026-04-03T09:35:21.997Z</time></trkpt><trkpt lat="45.87669543700208" lon="11.592507205419155"><ele>1152.4285714285713</ele><time>2026-04-03T09:35:30.997Z</time></trkpt><trkpt lat="45.87669244142591" lon="11.592612519625147"><ele>1150.7142857142858</ele><time>2026-04-03T09:36:05.996Z</time></trkpt><trkpt lat="45.876686373141865" lon="11.59271523707806"><ele>1149.0</ele><time>2026-04-03T09:36:24.997Z</time></trkpt><trkpt lat="45.8767118251183" lon="11.592806040464279"><ele>1152.5714285714287</ele><time>2026-04-03T09:36:37.997Z</time></trkpt><trkpt lat="45.876658392776214" lon="11.592862081064267"><ele>1156.142857142857</ele><time>2026-04-03T09:37:52.996Z</time></trkpt><trkpt lat="45.87659186686593" lon="11.592951969357793"><ele>1159.7142857142858</ele><time>2026-04-03T09:38:16.997Z</time></trkpt><trkpt lat="45.87653414053691" lon="11.593014818143699"><ele>1163.2857142857142</ele><time>2026-04-03T09:38:29.998Z</time></trkpt><trkpt lat="45.87648360957228" lon="11.593093970737192"><ele>1166.857142857143</ele><time>2026-04-03T09:38:46.998Z</time></trkpt><trkpt lat="45.87646710818517" lon="11.593183141345355"><ele>1170.4285714285716</ele><time>2026-04-03T09:39:55.997Z</time></trkpt><trkpt lat="45.876442557511766" lon="11.593088090588875"><ele>1174.0</ele><time>2026-04-03T09:45:02.997Z</time></trkpt><trkpt lat="45.87639758428963" lon="11.593018159211079"><ele>1174.0</ele><time>2026-04-03T09:45:13.997Z</time></trkpt><trkpt lat="45.87632609446642" lon="11.593001727269739"><ele>1174.0</ele><time>2026-04-03T09:45:27.997Z</time></trkpt><trkpt lat="45.87630918994911" lon="11.592909190939967"><ele>1174.0</ele><time>2026-04-03T09:45:39.997Z</time></trkpt><trkpt lat="45.876238488281594" lon="11.592846278257776"><ele>1174.0</ele><time>2026-04-03T09:46:14.996Z</time></trkpt><trkpt lat="45.87624169826695" lon="11.592754319418553"><ele>1174.0</ele><time>2026-04-03T09:46:48.997Z</time></trkpt><trkpt lat="45.87625697020255" lon="11.592649128062138"><ele>1174.0</ele><time>2026-04-03T09:46:55.997Z</time></trkpt><trkpt lat="45.87628724045092" lon="11.592546146062787"><ele>1174.0</ele><time>2026-04-03T09:47:02.997Z</time></trkpt><trkpt lat="45.87629858686935" lon="11.592446293466999"><ele>1174.5714285714287</ele><time>2026-04-03T09:47:08.997Z</time></trkpt><trkpt lat="45.8763029924914" lon="11.592347833420634"><ele>1175.1428571428573</ele><time>2026-04-03T09:47:14.997Z</time></trkpt><trkpt lat="45.87629531953258" lon="11.592250622584178"><ele>1175.7142857142858</ele><time>2026-04-03T09:47:29.997Z</time></trkpt><trkpt lat="45.87633005860183" lon="11.592157583282988"><ele>1176.2857142857142</ele><time>2026-04-03T09:47:44.997Z</time></trkpt><trkpt lat="45.876351015881106" lon="11.59206048456"><ele>1176.8571428571427</ele><time>2026-04-03T09:47:50.997Z</time></trkpt><trkpt lat="45.876373670627366" lon="11.591973423113659"><ele>1177.4285714285713</ele><time>2026-04-03T09:47:54.997Z</time></trkpt><trkpt lat="45.87639030130717" lon="11.59187029536007"><ele>1178.0</ele><time>2026-04-03T09:47:59.996Z</time></trkpt><trkpt lat="45.876418153703526" lon="11.591774375263409"><ele>1178.142857142857</ele><time>2026-04-03T09:48:06.996Z</time></trkpt><trkpt lat="45.876426175261145" lon="11.59166805865447"><ele>1178.2857142857142</ele><time>2026-04-03T09:48:12.996Z</time></trkpt><trkpt lat="45.876449079874746" lon="11.591572354328084"><ele>1178.4285714285713</ele><time>2026-04-03T09:48:16.996Z</time></trkpt><trkpt lat="45.87646832673411" lon="11.59146446627666"><ele>1178.5714285714284</ele><time>2026-04-03T09:48:21.996Z</time></trkpt><trkpt lat="45.87649480388644" lon="11.591364162628835"><ele>1178.7142857142858</ele><time>2026-04-03T09:48:26.996Z</time></trkpt><trkpt lat="45.87650809186908" lon="11.591261549938817"><ele>1178.8571428571427</ele><time>2026-04-03T09:48:31.996Z</time></trkpt><trkpt lat="45.876515109208384" lon="11.591165209646555"><ele>1179.0</ele><time>2026-04-03T09:48:36.996Z</time></trkpt><trkpt lat="45.8765123893273" lon="11.591062559331542"><ele>1178.7142857142856</ele><time>2026-04-03T09:48:41.996Z</time></trkpt><trkpt lat="45.87651246244408" lon="11.590961314798696"><ele>1178.4285714285713</ele><time>2026-04-03T09:48:45.997Z</time></trkpt><trkpt lat="45.8765019071047" lon="11.59085218782295"><ele>1178.142857142857</ele><time>2026-04-03T09:48:51.996Z</time></trkpt><trkpt lat="45.87647587706801" lon="11.590745505597162"><ele>1177.8571428571427</ele><time>2026-04-03T09:48:57.997Z</time></trkpt><trkpt lat="45.876457908167204" lon="11.590648576749416"><ele>1177.5714285714284</ele><time>2026-04-03T09:49:01.997Z</time></trkpt><trkpt lat="45.87642569156767" lon="11.590559941770534"><ele>1177.2857142857142</ele><time>2026-04-03T09:49:06.997Z</time></trkpt><trkpt lat="45.876403546816235" lon="11.590459288246876"><ele>1177.0</ele><time>2026-04-03T09:49:10.997Z</time></trkpt><trkpt lat="45.87638253493333" lon="11.590372084069251"><ele>1176.4285714285716</ele><time>2026-04-03T09:49:14.997Z</time></trkpt><trkpt lat="45.87637036894563" lon="11.590275876440316"><ele>1175.857142857143</ele><time>2026-04-03T09:49:20.997Z</time></trkpt><trkpt lat="45.87634041704082" lon="11.590177365784752"><ele>1175.2857142857142</ele><time>2026-04-03T09:49:25.996Z</time></trkpt><trkpt lat="45.87631467787962" lon="11.5900912709276"><ele>1174.7142857142858</ele><time>2026-04-03T09:49:29.996Z</time></trkpt><trkpt lat="45.87629495459403" lon="11.58998669999392"><ele>1174.142857142857</ele><time>2026-04-03T09:49:34.996Z</time></trkpt><trkpt lat="45.87630108839793" lon="11.589892202025995"><ele>1173.5714285714287</ele><time>2026-04-03T09:49:39.996Z</time></trkpt><trkpt lat="45.8763005289063" lon="11.589800339906551"><ele>1173.0</ele><time>2026-04-03T09:49:44.996Z</time></trkpt><trkpt lat="45.87630037011652" lon="11.58970377778954"><ele>1173.0000000000002</ele><time>2026-04-03T09:49:50.996Z</time></trkpt><trkpt lat="45.87630148020951" lon="11.58961001957291"><ele>1173.0</ele><time>2026-04-03T09:49:55.996Z</time></trkpt><trkpt lat="45.8762834451148" lon="11.589516932826012"><ele>1173.0</ele><time>2026-04-03T09:50:00.996Z</time></trkpt><trkpt lat="45.87627219025339" lon="11.58942177894247"><ele>1173.0</ele><time>2026-04-03T09:50:05.996Z</time></trkpt><trkpt lat="45.876231101962155" lon="11.589329036381486"><ele>1173.0</ele><time>2026-04-03T09:50:09.996Z</time></trkpt><trkpt lat="45.87620978702221" lon="11.589236439877588"><ele>1173.0000000000002</ele><time>2026-04-03T09:50:15.996Z</time></trkpt><trkpt lat="45.87621469531553" lon="11.589145599033827"><ele>1173.0</ele><time>2026-04-03T09:50:20.996Z</time></trkpt><trkpt lat="45.876217549439744" lon="11.589046203051966"><ele>1172.1428571428573</ele><time>2026-04-03T09:50:26.996Z</time></trkpt><trkpt lat="45.87621196878868" lon="11.588945802373052"><ele>1171.2857142857142</ele><time>2026-04-03T09:50:31.996Z</time></trkpt><trkpt lat="45.87619866604843" lon="11.588846663866489"><ele>1170.4285714285716</ele><time>2026-04-03T09:50:38.996Z</time></trkpt><trkpt lat="45.876197051173065" lon="11.588742982492182"><ele>1169.5714285714287</ele><time>2026-04-03T09:50:44.996Z</time></trkpt><trkpt lat="45.876188832227236" lon="11.588652055034391"><ele>1168.7142857142858</ele><time>2026-04-03T09:50:48.995Z</time></trkpt><trkpt lat="45.87618782063561" lon="11.588545751504487"><ele>1167.857142857143</ele><time>2026-04-03T09:50:54.997Z</time></trkpt><trkpt lat="45.87618967447808" lon="11.588452437946025"><ele>1167.0</ele><time>2026-04-03T09:50:59.997Z</time></trkpt><trkpt lat="45.87615904303735" lon="11.58836678780678"><ele>1165.4285714285716</ele><time>2026-04-03T09:51:03.996Z</time></trkpt><trkpt lat="45.876147565372506" lon="11.588258404468522"><ele>1163.857142857143</ele><time>2026-04-03T09:51:08.996Z</time></trkpt><trkpt lat="45.876141964831795" lon="11.588155703842132"><ele>1162.2857142857142</ele><time>2026-04-03T09:51:12.996Z</time></trkpt><trkpt lat="45.87614254315611" lon="11.588057268793907"><ele>1160.7142857142858</ele><time>2026-04-03T09:51:16.996Z</time></trkpt><trkpt lat="45.87614377557585" lon="11.58796262576674"><ele>1159.142857142857</ele><time>2026-04-03T09:51:20.996Z</time></trkpt><trkpt lat="45.876152599049576" lon="11.58786940149989"><ele>1157.5714285714287</ele><time>2026-04-03T09:51:24.996Z</time></trkpt><trkpt lat="45.87611913168904" lon="11.587786768541717"><ele>1156.0</ele><time>2026-04-03T09:51:28.996Z</time></trkpt><trkpt lat="45.87607601474028" lon="11.587695997882497"><ele>1154.4285714285716</ele><time>2026-04-03T09:51:33.996Z</time></trkpt><trkpt lat="45.87601943798108" lon="11.58764510065398"><ele>1152.857142857143</ele><time>2026-04-03T09:51:37.996Z</time></trkpt><trkpt lat="45.875950623573544" lon="11.587602899222551"><ele>1151.2857142857142</ele><time>2026-04-03T09:51:42.996Z</time></trkpt><trkpt lat="45.87588415948168" lon="11.587554080932577"><ele>1149.7142857142858</ele><time>2026-04-03T09:51:47.996Z</time></trkpt><trkpt lat="45.87582316630771" lon="11.587482721832952"><ele>1148.142857142857</ele><time>2026-04-03T09:51:52.996Z</time></trkpt><trkpt lat="45.875769899870285" lon="11.587404336145825"><ele>1146.5714285714287</ele><time>2026-04-03T09:51:57.995Z</time></trkpt><trkpt lat="45.87574815324383" lon="11.58731431931343"><ele>1145.0</ele><time>2026-04-03T09:52:01.995Z</time></trkpt><trkpt lat="45.875745327668064" lon="11.587223739511352"><ele>1145.0000000000002</ele><time>2026-04-03T09:52:06.995Z</time></trkpt><trkpt lat="45.87579178375799" lon="11.587157449801152"><ele>1145.0</ele><time>2026-04-03T09:52:11.995Z</time></trkpt><trkpt lat="45.87585328238889" lon="11.587119157839547"><ele>1145.0</ele><time>2026-04-03T09:52:15.995Z</time></trkpt><trkpt lat="45.87591826758188" lon="11.587071847098564"><ele>1145.0</ele><time>2026-04-03T09:52:20.995Z</time></trkpt><trkpt lat="45.87598622976501" lon="11.587022111558172"><ele>1145.0</ele><time>2026-04-03T09:52:25.995Z</time></trkpt><trkpt lat="45.87604925556655" lon="11.586971680809055"><ele>1145.0000000000002</ele><time>2026-04-03T09:52:30.995Z</time></trkpt><trkpt lat="45.87608440049133" lon="11.58688002088495"><ele>1145.0</ele><time>2026-04-03T09:52:35.995Z</time></trkpt><trkpt lat="45.87610385504591" lon="11.586776770411744"><ele>1143.5714285714287</ele><time>2026-04-03T09:52:40.995Z</time></trkpt><trkpt lat="45.876102261101124" lon="11.586665094319567"><ele>1142.142857142857</ele><time>2026-04-03T09:52:45.995Z</time></trkpt><trkpt lat="45.876051402636726" lon="11.58658921489689"><ele>1140.7142857142858</ele><time>2026-04-03T09:52:49.995Z</time></trkpt><trkpt lat="45.87600474056694" lon="11.586521099071483"><ele>1139.2857142857142</ele><time>2026-04-03T09:52:53.995Z</time></trkpt><trkpt lat="45.87594343792978" lon="11.586448737551475"><ele>1137.857142857143</ele><time>2026-04-03T09:52:58.996Z</time></trkpt><trkpt lat="45.87590131660768" lon="11.586380198540665"><ele>1136.4285714285716</ele><time>2026-04-03T09:53:02.997Z</time></trkpt><trkpt lat="45.875857540631095" lon="11.586298089713468"><ele>1135.0</ele><time>2026-04-03T09:53:07.997Z</time></trkpt><trkpt lat="45.875808131496576" lon="11.58621665597089"><ele>1139.5714285714287</ele><time>2026-04-03T09:53:12.996Z</time></trkpt><trkpt lat="45.875797710962665" lon="11.586127376673314"><ele>1144.142857142857</ele><time>2026-04-03T09:53:16.996Z</time></trkpt><trkpt lat="45.87577004278951" lon="11.586025404801843"><ele>1148.7142857142858</ele><time>2026-04-03T09:53:21.996Z</time></trkpt><trkpt lat="45.87575330727255" lon="11.585920400827229"><ele>1153.2857142857142</ele><time>2026-04-03T09:53:26.996Z</time></trkpt><trkpt lat="45.875753671375364" lon="11.585827288804847"><ele>1157.857142857143</ele><time>2026-04-03T09:53:30.996Z</time></trkpt><trkpt lat="45.875757764987014" lon="11.58572211872568"><ele>1162.4285714285716</ele><time>2026-04-03T09:53:35.996Z</time></trkpt><trkpt lat="45.87578262550473" lon="11.585622652664464"><ele>1167.0</ele><time>2026-04-03T09:53:40.996Z</time></trkpt><trkpt lat="45.87579925442514" lon="11.58553051060245"><ele>1167.0</ele><time>2026-04-03T09:53:49.996Z</time></trkpt><trkpt lat="45.875861312047576" lon="11.58550578720655"><ele>1167.0</ele><time>2026-04-03T09:53:58.996Z</time></trkpt><trkpt lat="45.875929116486056" lon="11.585499067524875"><ele>1167.0</ele><time>2026-04-03T09:54:04.996Z</time></trkpt><trkpt lat="45.875997932334094" lon="11.585468331327553"><ele>1167.0</ele><time>2026-04-03T09:54:11.996Z</time></trkpt><trkpt lat="45.87607476958324" lon="11.585476467586187"><ele>1167.0</ele><time>2026-04-03T09:54:16.996Z</time></trkpt><trkpt lat="45.876146777292114" lon="11.585464083048585"><ele>1167.0</ele><time>2026-04-03T09:54:20.996Z</time></trkpt><trkpt lat="45.87620902570644" lon="11.585436612467324"><ele>1167.0</ele><time>2026-04-03T09:54:25.996Z</time></trkpt><trkpt lat="45.87626074601407" lon="11.585349968781347"><ele>1164.2857142857142</ele><time>2026-04-03T09:54:29.996Z</time></trkpt><trkpt lat="45.87630508369613" lon="11.585279141955425"><ele>1161.5714285714287</ele><time>2026-04-03T09:54:33.995Z</time></trkpt><trkpt lat="45.87633248849655" lon="11.585187103801195"><ele>1158.857142857143</ele><time>2026-04-03T09:54:38.995Z</time></trkpt><trkpt lat="45.876349748429995" lon="11.58509049863947"><ele>1156.142857142857</ele><time>2026-04-03T09:54:43.995Z</time></trkpt><trkpt lat="45.8763832514214" lon="11.585004482458407"><ele>1153.4285714285716</ele><time>2026-04-03T09:54:48.995Z</time></trkpt><trkpt lat="45.87641269089561" lon="11.584894937892605"><ele>1150.7142857142858</ele><time>2026-04-03T09:54:53.995Z</time></trkpt><trkpt lat="45.87642952385846" lon="11.584804792612289"><ele>1148.0</ele><time>2026-04-03T09:54:58.995Z</time></trkpt><trkpt lat="45.87644872527625" lon="11.584687010411558"><ele>1148.0</ele><time>2026-04-03T09:55:04.997Z</time></trkpt><trkpt lat="45.87647537664283" lon="11.584587135716307"><ele>1148.0</ele><time>2026-04-03T09:55:08.996Z</time></trkpt><trkpt lat="45.87649845400129" lon="11.584495171351104"><ele>1148.0</ele><time>2026-04-03T09:55:13.997Z</time></trkpt><trkpt lat="45.876523257515295" lon="11.58438351257356"><ele>1148.0</ele><time>2026-04-03T09:55:18.996Z</time></trkpt><trkpt lat="45.87651825212684" lon="11.584274582957208"><ele>1148.0</ele><time>2026-04-03T09:55:22.995Z</time></trkpt><trkpt lat="45.876551941403534" lon="11.58418667865889"><ele>1148.0</ele><time>2026-04-03T09:55:26.994Z</time></trkpt><trkpt lat="45.87656644110372" lon="11.58407790179324"><ele>1148.0</ele><time>2026-04-03T09:55:31.993Z</time></trkpt><trkpt lat="45.87658282802664" lon="11.583975416052542"><ele>1148.2857142857142</ele><time>2026-04-03T09:55:36.992Z</time></trkpt><trkpt lat="45.876578279867026" lon="11.583883833332159"><ele>1148.5714285714284</ele><time>2026-04-03T09:55:42.992Z</time></trkpt><trkpt lat="45.87655227146886" lon="11.583798240189463"><ele>1148.857142857143</ele><time>2026-04-03T09:55:47.991Z</time></trkpt><trkpt lat="45.876517803920265" lon="11.583712906828163"><ele>1149.142857142857</ele><time>2026-04-03T09:55:53.991Z</time></trkpt><trkpt lat="45.87646745732716" lon="11.583643631267377"><ele>1149.4285714285713</ele><time>2026-04-03T09:55:57.991Z</time></trkpt><trkpt lat="45.87642546417894" lon="11.583563379343357"><ele>1149.7142857142858</ele><time>2026-04-03T09:56:02.991Z</time></trkpt><trkpt lat="45.87637014043469" lon="11.583510744913726"><ele>1150.0</ele><time>2026-04-03T09:56:07.99Z</time></trkpt><trkpt lat="45.87631157556161" lon="11.58345361375"><ele>1148.0</ele><time>2026-04-03T09:56:12.99Z</time></trkpt><trkpt lat="45.87624785949295" lon="11.583410691084552"><ele>1146.0</ele><time>2026-04-03T09:56:16.99Z</time></trkpt><trkpt lat="45.876174174075636" lon="11.583373837604704"><ele>1144.0</ele><time>2026-04-03T09:56:20.99Z</time></trkpt><trkpt lat="45.87610947775656" lon="11.583312566585303"><ele>1142.0</ele><time>2026-04-03T09:56:25.99Z</time></trkpt><trkpt lat="45.876060294008276" lon="11.58323708818525"><ele>1140.0</ele><time>2026-04-03T09:56:31.99Z</time></trkpt><trkpt lat="45.876014121720274" lon="11.583156516651519"><ele>1138.0</ele><time>2026-04-03T09:56:35.99Z</time></trkpt><trkpt lat="45.87598181651196" lon="11.583074905951555"><ele>1136.0</ele><time>2026-04-03T09:56:39.99Z</time></trkpt><trkpt lat="45.87597934219577" lon="11.582983037079316"><ele>1136.0</ele><time>2026-04-03T09:56:45.99Z</time></trkpt><trkpt lat="45.87600398334688" lon="11.582882979475919"><ele>1136.0</ele><time>2026-04-03T09:56:51.99Z</time></trkpt><trkpt lat="45.876012962542816" lon="11.582779662152793"><ele>1136.0</ele><time>2026-04-03T09:56:55.99Z</time></trkpt><trkpt lat="45.87602870667701" lon="11.582683809262669"><ele>1136.0</ele><time>2026-04-03T09:57:01.989Z</time></trkpt><trkpt lat="45.87602392236946" lon="11.582582578169877"><ele>1136.0</ele><time>2026-04-03T09:57:07.989Z</time></trkpt><trkpt lat="45.87603404695734" lon="11.582483374352744"><ele>1136.0</ele><time>2026-04-03T09:57:12.99Z</time></trkpt><trkpt lat="45.876059478751976" lon="11.5823896122464"><ele>1136.0</ele><time>2026-04-03T09:57:19.99Z</time></trkpt><trkpt lat="45.87609035534908" lon="11.582298404692311"><ele>1134.7142857142858</ele><time>2026-04-03T09:57:24.99Z</time></trkpt><trkpt lat="45.87612615769147" lon="11.582202809191841"><ele>1133.4285714285713</ele><time>2026-04-03T09:57:30.99Z</time></trkpt><trkpt lat="45.87614295097536" lon="11.58211423470704"><ele>1132.142857142857</ele><time>2026-04-03T09:57:34.99Z</time></trkpt><trkpt lat="45.876135313803" lon="11.582024065202365"><ele>1130.857142857143</ele><time>2026-04-03T09:57:38.99Z</time></trkpt><trkpt lat="45.87611423957779" lon="11.581931704829715"><ele>1129.5714285714284</ele><time>2026-04-03T09:57:42.99Z</time></trkpt><trkpt lat="45.87609606056416" lon="11.581829721830253"><ele>1128.2857142857142</ele><time>2026-04-03T09:57:47.99Z</time></trkpt><trkpt lat="45.876064184640136" lon="11.58172414991373"><ele>1127.0</ele><time>2026-04-03T09:57:53.99Z</time></trkpt><trkpt lat="45.87601859735753" lon="11.581634073314746"><ele>1127.0</ele><time>2026-04-03T09:57:58.99Z</time></trkpt><trkpt lat="45.87598375852435" lon="11.581547437631338"><ele>1127.0</ele><time>2026-04-03T09:58:03.99Z</time></trkpt><trkpt lat="45.87594666666861" lon="11.581473636231415"><ele>1127.0</ele><time>2026-04-03T09:58:07.99Z</time></trkpt><trkpt lat="45.875910353742555" lon="11.581387242831164"><ele>1127.0</ele><time>2026-04-03T09:58:12.99Z</time></trkpt><trkpt lat="45.87586953816568" lon="11.581302431912333"><ele>1127.0</ele><time>2026-04-03T09:58:18.99Z</time></trkpt><trkpt lat="45.875825004599186" lon="11.581233920652378"><ele>1127.0</ele><time>2026-04-03T09:58:23.99Z</time></trkpt><trkpt lat="45.875774789397745" lon="11.581153064433666"><ele>1127.0</ele><time>2026-04-03T09:58:28.99Z</time></trkpt><trkpt lat="45.875722629750854" lon="11.58107894183056"><ele>1132.142857142857</ele><time>2026-04-03T09:58:34.989Z</time></trkpt><trkpt lat="45.87568151306281" lon="11.581005874134677"><ele>1137.2857142857142</ele><time>2026-04-03T09:58:40.989Z</time></trkpt><trkpt lat="45.87561886139251" lon="11.58103564799802"><ele>1142.4285714285716</ele><time>2026-04-03T09:58:58.989Z</time></trkpt><trkpt lat="45.87555524844085" lon="11.581063411917379"><ele>1147.5714285714284</ele><time>2026-04-03T09:59:04.989Z</time></trkpt><trkpt lat="45.87561302328768" lon="11.581004318900657"><ele>1152.7142857142858</ele><time>2026-04-03T09:59:50.989Z</time></trkpt><trkpt lat="45.8756521081776" lon="11.580906598283878"><ele>1157.857142857143</ele><time>2026-04-03T09:59:53.989Z</time></trkpt><trkpt lat="45.87570657069444" lon="11.58084977234901"><ele>1163.0</ele><time>2026-04-03T09:59:55.989Z</time></trkpt><trkpt lat="45.87578092603577" lon="11.580745789194454"><ele>1163.0</ele><time>2026-04-03T09:59:58.989Z</time></trkpt><trkpt lat="45.875836861889816" lon="11.580669458836569"><ele>1163.0</ele><time>2026-04-03T10:00:00.989Z</time></trkpt><trkpt lat="45.875909890746954" lon="11.580585406943388"><ele>1163.0</ele><time>2026-04-03T10:00:02.989Z</time></trkpt><trkpt lat="45.875957292898036" lon="11.580486386885555"><ele>1163.0</ele><time>2026-04-03T10:00:04.989Z</time></trkpt><trkpt lat="45.876024470944266" lon="11.580348623056825"><ele>1163.0</ele><time>2026-04-03T10:00:06.989Z</time></trkpt><trkpt lat="45.87606562587605" lon="11.580208232011737"><ele>1157.1666666666667</ele><time>2026-04-03T10:00:08.989Z</time></trkpt><trkpt lat="45.87606459622763" lon="11.58009195137351"><ele>1151.3333333333335</ele><time>2026-04-03T10:00:10.989Z</time></trkpt><trkpt lat="45.8760680518498" lon="11.579972652525054"><ele>1145.5</ele><time>2026-04-03T10:00:12.989Z</time></trkpt><trkpt lat="45.8760845206983" lon="11.57984007023642"><ele>1139.6666666666667</ele><time>2026-04-03T10:00:14.989Z</time></trkpt><trkpt lat="45.87608249097162" lon="11.579732843976668"><ele>1133.8333333333333</ele><time>2026-04-03T10:00:16.989Z</time></trkpt><trkpt lat="45.87604726711892" lon="11.57962866888229"><ele>1128.0</ele><time>2026-04-03T10:00:18.989Z</time></trkpt><trkpt lat="45.87600625207556" lon="11.579523187384368"><ele>1128.7142857142858</ele><time>2026-04-03T10:00:20.989Z</time></trkpt><trkpt lat="45.87595616724456" lon="11.579434611184322"><ele>1129.4285714285713</ele><time>2026-04-03T10:00:22.989Z</time></trkpt><trkpt lat="45.87591728545934" lon="11.579362756639132"><ele>1130.142857142857</ele><time>2026-04-03T10:00:24.989Z</time></trkpt><trkpt lat="45.87589486175394" lon="11.579276523816445"><ele>1130.857142857143</ele><time>2026-04-03T10:00:26.989Z</time></trkpt><trkpt lat="45.87586838365403" lon="11.579179353884845"><ele>1131.5714285714287</ele><time>2026-04-03T10:00:28.989Z</time></trkpt><trkpt lat="45.87589029710835" lon="11.579086841568845"><ele>1132.2857142857142</ele><time>2026-04-03T10:00:30.989Z</time></trkpt><trkpt lat="45.875955871643605" lon="11.5790353761336"><ele>1133.0</ele><time>2026-04-03T10:00:32.989Z</time></trkpt><trkpt lat="45.876029863406615" lon="11.57897806931084"><ele>1133.0</ele><time>2026-04-03T10:00:35.989Z</time></trkpt><trkpt lat="45.87608642106711" lon="11.578933248315034"><ele>1133.0</ele><time>2026-04-03T10:00:37.989Z</time></trkpt><trkpt lat="45.8761625676804" lon="11.578865107499293"><ele>1133.0</ele><time>2026-04-03T10:00:40.989Z</time></trkpt><trkpt lat="45.87622004064999" lon="11.57881041536425"><ele>1133.0</ele><time>2026-04-03T10:00:43.989Z</time></trkpt><trkpt lat="45.876275586894565" lon="11.57872457476059"><ele>1133.0</ele><time>2026-04-03T10:00:46.989Z</time></trkpt><trkpt lat="45.87631092812827" lon="11.578631675404182"><ele>1133.0</ele><time>2026-04-03T10:00:48.989Z</time></trkpt><trkpt lat="45.876341283089786" lon="11.57851247504465"><ele>1135.1666666666667</ele><time>2026-04-03T10:00:50.989Z</time></trkpt><trkpt lat="45.87637658584137" lon="11.578389381738956"><ele>1137.3333333333335</ele><time>2026-04-03T10:00:53.988Z</time></trkpt><trkpt lat="45.876399221317264" lon="11.578275059265046"><ele>1139.5</ele><time>2026-04-03T10:00:56.988Z</time></trkpt><trkpt lat="45.8764120931301" lon="11.578165928233044"><ele>1141.6666666666667</ele><time>2026-04-03T10:00:58.988Z</time></trkpt><trkpt lat="45.876396889939016" lon="11.578043729172009"><ele>1143.8333333333333</ele><time>2026-04-03T10:01:01.988Z</time></trkpt><trkpt lat="45.876423899520226" lon="11.577937945146253"><ele>1146.0</ele><time>2026-04-03T10:01:03.988Z</time></trkpt><trkpt lat="45.87645703186388" lon="11.577859719703213"><ele>1148.0</ele><time>2026-04-03T10:01:05.988Z</time></trkpt><trkpt lat="45.87651639680021" lon="11.577775907425634"><ele>1150.0</ele><time>2026-04-03T10:01:09.988Z</time></trkpt><trkpt lat="45.8765617148699" lon="11.577685456691551"><ele>1152.0</ele><time>2026-04-03T10:01:12.988Z</time></trkpt><trkpt lat="45.87657361404401" lon="11.577595510293158"><ele>1154.0</ele><time>2026-04-03T10:01:15.988Z</time></trkpt><trkpt lat="45.876631818839" lon="11.5774898337382"><ele>1156.0</ele><time>2026-04-03T10:01:18.988Z</time></trkpt><trkpt lat="45.87665301388003" lon="11.577371216778518"><ele>1158.0</ele><time>2026-04-03T10:01:20.99Z</time></trkpt><trkpt lat="45.87667876216014" lon="11.577267662421333"><ele>1158.0</ele><time>2026-04-03T10:01:22.99Z</time></trkpt><trkpt lat="45.87672348676632" lon="11.577163292383144"><ele>1158.0</ele><time>2026-04-03T10:01:24.99Z</time></trkpt><trkpt lat="45.87677441847934" lon="11.577074006966441"><ele>1158.0</ele><time>2026-04-03T10:01:26.99Z</time></trkpt><trkpt lat="45.87681272677281" lon="11.576979233701651"><ele>1158.0</ele><time>2026-04-03T10:01:28.99Z</time></trkpt><trkpt lat="45.876849335369" lon="11.576884691992673"><ele>1158.0</ele><time>2026-04-03T10:01:30.99Z</time></trkpt><trkpt lat="45.87689082544726" lon="11.5767933631545"><ele>1158.0</ele><time>2026-04-03T10:01:32.99Z</time></trkpt><trkpt lat="45.87694015080402" lon="11.576681875617725"><ele>1158.0</ele><time>2026-04-03T10:01:34.99Z</time></trkpt><trkpt lat="45.87698262990892" lon="11.576574368515724"><ele>1158.0</ele><time>2026-04-03T10:01:36.99Z</time></trkpt><trkpt lat="45.877018009407735" lon="11.57648070403982"><ele>1158.0</ele><time>2026-04-03T10:01:38.99Z</time></trkpt><trkpt lat="45.87707071045795" lon="11.57638704866297"><ele>1158.0</ele><time>2026-04-03T10:01:40.99Z</time></trkpt><trkpt lat="45.877134033588284" lon="11.576285327429135"><ele>1158.0</ele><time>2026-04-03T10:01:42.99Z</time></trkpt><trkpt lat="45.87722768048534" lon="11.57621986688746"><ele>1158.0</ele><time>2026-04-03T10:01:44.99Z</time></trkpt><trkpt lat="45.877314281883805" lon="11.576115042835596"><ele>1158.0</ele><time>2026-04-03T10:01:46.99Z</time></trkpt><trkpt lat="45.8773812096921" lon="11.576053430670411"><ele>1158.0</ele><time>2026-04-03T10:01:48.99Z</time></trkpt><trkpt lat="45.877435030247746" lon="11.575988697985572"><ele>1158.0</ele><time>2026-04-03T10:01:50.99Z</time></trkpt><trkpt lat="45.8775253871301" lon="11.575898487498105"><ele>1158.0</ele><time>2026-04-03T10:01:53.99Z</time></trkpt><trkpt lat="45.87759247201803" lon="11.57578373784563"><ele>1158.0</ele><time>2026-04-03T10:01:55.99Z</time></trkpt><trkpt lat="45.877677748516625" lon="11.575706251237614"><ele>1156.75</ele><time>2026-04-03T10:01:57.99Z</time></trkpt><trkpt lat="45.87775553715037" lon="11.575575730304461"><ele>1155.5</ele><time>2026-04-03T10:01:59.99Z</time></trkpt><trkpt lat="45.87784638305828" lon="11.575451062329147"><ele>1154.25</ele><time>2026-04-03T10:02:01.99Z</time></trkpt><trkpt lat="45.877934349965564" lon="11.57534200818353"><ele>1153.0</ele><time>2026-04-03T10:02:03.99Z</time></trkpt><trkpt lat="45.87801519911948" lon="11.57523820377862"><ele>1153.0</ele><time>2026-04-03T10:02:05.99Z</time></trkpt><trkpt lat="45.87810754383895" lon="11.575160990395146"><ele>1153.0</ele><time>2026-04-03T10:02:07.99Z</time></trkpt><trkpt lat="45.87819067097122" lon="11.57506425063743"><ele>1153.0</ele><time>2026-04-03T10:02:09.99Z</time></trkpt><trkpt lat="45.87826672297248" lon="11.574997014922017"><ele>1153.0</ele><time>2026-04-03T10:02:11.99Z</time></trkpt><trkpt lat="45.878352672407225" lon="11.574910624109346"><ele>1153.0</ele><time>2026-04-03T10:02:14.99Z</time></trkpt><trkpt lat="45.87843735782616" lon="11.574827133974324"><ele>1153.8333333333333</ele><time>2026-04-03T10:02:16.99Z</time></trkpt><trkpt lat="45.87851741006706" lon="11.574747878176217"><ele>1154.6666666666665</ele><time>2026-04-03T10:02:18.99Z</time></trkpt><trkpt lat="45.878592993736845" lon="11.5747038766893"><ele>1155.5</ele><time>2026-04-03T10:02:20.989Z</time></trkpt><trkpt lat="45.878659318231705" lon="11.574648307403585"><ele>1156.3333333333333</ele><time>2026-04-03T10:02:22.989Z</time></trkpt><trkpt lat="45.87871784242151" lon="11.574575411967162"><ele>1157.1666666666667</ele><time>2026-04-03T10:02:24.989Z</time></trkpt><trkpt lat="45.87879375344972" lon="11.574512012616657"><ele>1158.0</ele><time>2026-04-03T10:02:26.989Z</time></trkpt><trkpt lat="45.87888031964645" lon="11.574469431771599"><ele>1158.0</ele><time>2026-04-03T10:02:28.989Z</time></trkpt><trkpt lat="45.878944233783024" lon="11.57439357370121"><ele>1158.0</ele><time>2026-04-03T10:02:30.989Z</time></trkpt><trkpt lat="45.879010070511576" lon="11.574343791910575"><ele>1158.0</ele><time>2026-04-03T10:02:32.989Z</time></trkpt><trkpt lat="45.87908323772081" lon="11.574289387376723"><ele>1158.0</ele><time>2026-04-03T10:02:34.989Z</time></trkpt><trkpt lat="45.87916433419758" lon="11.57423750221055"><ele>1158.0</ele><time>2026-04-03T10:02:36.989Z</time></trkpt><trkpt lat="45.87923362542479" lon="11.574184578667323"><ele>1158.0</ele><time>2026-04-03T10:02:38.989Z</time></trkpt><trkpt lat="45.87929972672573" lon="11.574122089762245"><ele>1155.8</ele><time>2026-04-03T10:02:40.989Z</time></trkpt><trkpt lat="45.879368612719595" lon="11.57405870538979"><ele>1153.6</ele><time>2026-04-03T10:02:42.989Z</time></trkpt><trkpt lat="45.87943831836633" lon="11.573973773522965"><ele>1151.4</ele><time>2026-04-03T10:02:45.989Z</time></trkpt><trkpt lat="45.87945897843951" lon="11.573885465244647"><ele>1149.2</ele><time>2026-04-03T10:02:47.989Z</time></trkpt><trkpt lat="45.87946923797318" lon="11.573763769599434"><ele>1147.0</ele><time>2026-04-03T10:02:49.989Z</time></trkpt><trkpt lat="45.87934528047771" lon="11.573670206962188"><ele>1148.6</ele><time>2026-04-03T10:02:51.989Z</time></trkpt><trkpt lat="45.87924524709669" lon="11.573648233479787"><ele>1150.2</ele><time>2026-04-03T10:02:53.989Z</time></trkpt><trkpt lat="45.8791525714275" lon="11.573589051152954"><ele>1151.8</ele><time>2026-04-03T10:02:55.989Z</time></trkpt><trkpt lat="45.87906306440461" lon="11.573533152261234"><ele>1153.4</ele><time>2026-04-03T10:02:57.989Z</time></trkpt><trkpt lat="45.87897450491896" lon="11.573486868858623"><ele>1155.0</ele><time>2026-04-03T10:02:59.989Z</time></trkpt><trkpt lat="45.87888494009065" lon="11.573443288343505"><ele>1155.0</ele><time>2026-04-03T10:03:01.989Z</time></trkpt><trkpt lat="45.878800029573235" lon="11.57338120922665"><ele>1155.0</ele><time>2026-04-03T10:03:03.989Z</time></trkpt><trkpt lat="45.87870285843371" lon="11.573354854009116"><ele>1155.0</ele><time>2026-04-03T10:03:05.989Z</time></trkpt><trkpt lat="45.878604285631724" lon="11.573369422035382"><ele>1155.0</ele><time>2026-04-03T10:03:07.989Z</time></trkpt><trkpt lat="45.878505508766956" lon="11.573377451828142"><ele>1155.0</ele><time>2026-04-03T10:03:09.989Z</time></trkpt><trkpt lat="45.87840035851892" lon="11.573381281033408"><ele>1156.0</ele><time>2026-04-03T10:03:11.989Z</time></trkpt><trkpt lat="45.878293291692465" lon="11.573381101694908"><ele>1157.0</ele><time>2026-04-03T10:03:13.989Z</time></trkpt><trkpt lat="45.8781824679269" lon="11.573389140192381"><ele>1158.0</ele><time>2026-04-03T10:03:15.989Z</time></trkpt><trkpt lat="45.87808092333946" lon="11.573402730472127"><ele>1159.0</ele><time>2026-04-03T10:03:17.989Z</time></trkpt><trkpt lat="45.87799431922096" lon="11.57348970792284"><ele>1160.0</ele><time>2026-04-03T10:03:19.989Z</time></trkpt><trkpt lat="45.87790421610736" lon="11.573576773038468"><ele>1160.0</ele><time>2026-04-03T10:03:21.989Z</time></trkpt><trkpt lat="45.87780877245019" lon="11.57366291810784"><ele>1160.0</ele><time>2026-04-03T10:03:23.989Z</time></trkpt><trkpt lat="45.877718019752216" lon="11.573752182973305"><ele>1160.0</ele><time>2026-04-03T10:03:25.989Z</time></trkpt><trkpt lat="45.87762804123631" lon="11.573843354714093"><ele>1160.0</ele><time>2026-04-03T10:03:27.99Z</time></trkpt><trkpt lat="45.87753616434525" lon="11.57393526346503"><ele>1160.0</ele><time>2026-04-03T10:03:29.99Z</time></trkpt><trkpt lat="45.87744900341163" lon="11.57399241389351"><ele>1159.8333333333335</ele><time>2026-04-03T10:03:31.99Z</time></trkpt><trkpt lat="45.87736079845012" lon="11.574014347059125"><ele>1159.6666666666667</ele><time>2026-04-03T10:03:33.989Z</time></trkpt><trkpt lat="45.87729615766827" lon="11.573960457014968"><ele>1159.5</ele><time>2026-04-03T10:03:35.99Z</time></trkpt><trkpt lat="45.87724207244802" lon="11.573874270938482"><ele>1159.3333333333333</ele><time>2026-04-03T10:03:37.99Z</time></trkpt><trkpt lat="45.877193469124165" lon="11.573764275069765"><ele>1159.1666666666665</ele><time>2026-04-03T10:03:39.99Z</time></trkpt><trkpt lat="45.87714002326229" lon="11.57364988365828"><ele>1159.0</ele><time>2026-04-03T10:03:41.99Z</time></trkpt><trkpt lat="45.87708139882652" lon="11.573560041338038"><ele>1159.0</ele><time>2026-04-03T10:03:43.99Z</time></trkpt><trkpt lat="45.877030219786015" lon="11.573467464508834"><ele>1159.0</ele><time>2026-04-03T10:03:45.989Z</time></trkpt><trkpt lat="45.876980886685566" lon="11.573374265809363"><ele>1159.0</ele><time>2026-04-03T10:03:47.989Z</time></trkpt><trkpt lat="45.876931177695496" lon="11.573271752665221"><ele>1159.0</ele><time>2026-04-03T10:03:49.989Z</time></trkpt><trkpt lat="45.876880839948235" lon="11.573147207340131"><ele>1159.0</ele><time>2026-04-03T10:03:51.989Z</time></trkpt><trkpt lat="45.87683930678185" lon="11.5730265021123"><ele>1159.0</ele><time>2026-04-03T10:03:53.989Z</time></trkpt><trkpt lat="45.876832386429236" lon="11.57289450483581"><ele>1158.8333333333333</ele><time>2026-04-03T10:03:55.989Z</time></trkpt><trkpt lat="45.8768189239839" lon="11.572765414191451"><ele>1158.6666666666665</ele><time>2026-04-03T10:03:57.989Z</time></trkpt><trkpt lat="45.87679964878651" lon="11.57263964410961"><ele>1158.5</ele><time>2026-04-03T10:03:59.989Z</time></trkpt><trkpt lat="45.876781788508005" lon="11.572508537064996"><ele>1158.3333333333333</ele><time>2026-04-03T10:04:01.989Z</time></trkpt><trkpt lat="45.8767409998668" lon="11.57238987593026"><ele>1158.1666666666667</ele><time>2026-04-03T10:04:03.989Z</time></trkpt><trkpt lat="45.87669119629763" lon="11.572307502517035"><ele>1158.0</ele><time>2026-04-03T10:04:05.989Z</time></trkpt><trkpt lat="45.87661928202559" lon="11.572300502618294"><ele>1160.0</ele><time>2026-04-03T10:04:09.989Z</time></trkpt><trkpt lat="45.876542613796765" lon="11.572368135724352"><ele>1162.0</ele><time>2026-04-03T10:04:14.989Z</time></trkpt><trkpt lat="45.87648746614253" lon="11.572449122098142"><ele>1164.0</ele><time>2026-04-03T10:04:16.989Z</time></trkpt><trkpt lat="45.87643514643394" lon="11.572526519872875"><ele>1166.0</ele><time>2026-04-03T10:04:18.989Z</time></trkpt><trkpt lat="45.87638238520246" lon="11.572593308708717"><ele>1168.0</ele><time>2026-04-03T10:04:20.989Z</time></trkpt><trkpt lat="45.876318193427394" lon="11.572662344784789"><ele>1170.0</ele><time>2026-04-03T10:04:22.989Z</time></trkpt><trkpt lat="45.87624944390902" lon="11.572725357266876"><ele>1170.0</ele><time>2026-04-03T10:04:24.989Z</time></trkpt><trkpt lat="45.87616724163347" lon="11.572718787270956"><ele>1170.0</ele><time>2026-04-03T10:04:26.989Z</time></trkpt><trkpt lat="45.87608304835834" lon="11.572738358993599"><ele>1170.0</ele><time>2026-04-03T10:04:28.989Z</time></trkpt><trkpt lat="45.87600551215736" lon="11.572701858406385"><ele>1170.0</ele><time>2026-04-03T10:04:30.989Z</time></trkpt><trkpt lat="45.87592501657293" lon="11.572670496207145"><ele>1170.0</ele><time>2026-04-03T10:04:32.989Z</time></trkpt><trkpt lat="45.87584800711965" lon="11.572632593354529"><ele>1170.0</ele><time>2026-04-03T10:04:34.989Z</time></trkpt><trkpt lat="45.87576281168224" lon="11.572606666129246"><ele>1169.0</ele><time>2026-04-03T10:04:37.989Z</time></trkpt><trkpt lat="45.87569952109028" lon="11.572594771505079"><ele>1168.0</ele><time>2026-04-03T10:04:39.989Z</time></trkpt><trkpt lat="45.87561910769169" lon="11.572594211025596"><ele>1167.0</ele><time>2026-04-03T10:04:41.989Z</time></trkpt><trkpt lat="45.87554512009216" lon="11.572625875676772"><ele>1166.0</ele><time>2026-04-03T10:04:43.989Z</time></trkpt><trkpt lat="45.87548514823561" lon="11.572682909650073"><ele>1165.0</ele><time>2026-04-03T10:04:45.989Z</time></trkpt><trkpt lat="45.8754398384269" lon="11.572762575358349"><ele>1164.0</ele><time>2026-04-03T10:04:47.989Z</time></trkpt><trkpt lat="45.87540160466077" lon="11.572860443283298"><ele>1163.0</ele><time>2026-04-03T10:04:49.989Z</time></trkpt><trkpt lat="45.875331821271224" lon="11.572952633965917"><ele>1164.8333333333335</ele><time>2026-04-03T10:04:51.989Z</time></trkpt><trkpt lat="45.87524565630968" lon="11.57302187953992"><ele>1166.6666666666667</ele><time>2026-04-03T10:04:53.989Z</time></trkpt><trkpt lat="45.875176387873374" lon="11.573051263690736"><ele>1168.5</ele><time>2026-04-03T10:04:55.989Z</time></trkpt><trkpt lat="45.8751134190032" lon="11.573114595898689"><ele>1170.3333333333333</ele><time>2026-04-03T10:04:57.989Z</time></trkpt><trkpt lat="45.875038527053825" lon="11.57315565641062"><ele>1172.1666666666665</ele><time>2026-04-03T10:04:59.988Z</time></trkpt><trkpt lat="45.87495896127155" lon="11.573189378832213"><ele>1174.0</ele><time>2026-04-03T10:05:01.988Z</time></trkpt><trkpt lat="45.87490112679518" lon="11.573149398169802"><ele>1174.0</ele><time>2026-04-03T10:05:02.988Z</time></trkpt><trkpt lat="45.87487959760539" lon="11.573062765282504"><ele>1174.0</ele><time>2026-04-03T10:05:03.988Z</time></trkpt><trkpt lat="45.87491980292199" lon="11.572942574432677"><ele>1174.0</ele><time>2026-04-03T10:05:05.988Z</time></trkpt><trkpt lat="45.874991096487484" lon="11.572860015637403"><ele>1174.0</ele><time>2026-04-03T10:05:07.988Z</time></trkpt><trkpt lat="45.8750448722866" lon="11.572731035673716"><ele>1174.0</ele><time>2026-04-03T10:05:09.988Z</time></trkpt><trkpt lat="45.875086510802895" lon="11.572609504081123"><ele>1174.0</ele><time>2026-04-03T10:05:11.988Z</time></trkpt><trkpt lat="45.87511256877144" lon="11.572496376589177"><ele>1172.1666666666665</ele><time>2026-04-03T10:05:13.988Z</time></trkpt><trkpt lat="45.87514091732071" lon="11.572376272743348"><ele>1170.3333333333333</ele><time>2026-04-03T10:05:15.988Z</time></trkpt><trkpt lat="45.875174980209486" lon="11.572248431187612"><ele>1168.5</ele><time>2026-04-03T10:05:17.988Z</time></trkpt><trkpt lat="45.875214493476776" lon="11.572130603628223"><ele>1166.6666666666667</ele><time>2026-04-03T10:05:19.988Z</time></trkpt><trkpt lat="45.87525927186195" lon="11.572018744836"><ele>1164.8333333333335</ele><time>2026-04-03T10:05:21.988Z</time></trkpt><trkpt lat="45.87530868944251" lon="11.571920354159545"><ele>1163.0</ele><time>2026-04-03T10:05:23.988Z</time></trkpt><trkpt lat="45.87537520128638" lon="11.57186646869343"><ele>1160.6666666666667</ele><time>2026-04-03T10:05:25.988Z</time></trkpt><trkpt lat="45.8754357930328" lon="11.571814673222331"><ele>1158.3333333333335</ele><time>2026-04-03T10:05:27.988Z</time></trkpt><trkpt lat="45.87552470373784" lon="11.571720460340734"><ele>1156.0</ele><time>2026-04-03T10:05:30.988Z</time></trkpt><trkpt lat="45.8755961267247" lon="11.571680873659355"><ele>1153.6666666666667</ele><time>2026-04-03T10:05:32.99Z</time></trkpt><trkpt lat="45.875676019087244" lon="11.571636368924915"><ele>1151.3333333333333</ele><time>2026-04-03T10:05:34.989Z</time></trkpt><trkpt lat="45.87572898238117" lon="11.571572894483122"><ele>1149.0</ele><time>2026-04-03T10:05:35.989Z</time></trkpt><trkpt lat="45.8757931213711" lon="11.571451797206677"><ele>1149.0</ele><time>2026-04-03T10:05:37.99Z</time></trkpt><trkpt lat="45.87583232024043" lon="11.571312360583358"><ele>1149.0</ele><time>2026-04-03T10:05:39.989Z</time></trkpt><trkpt lat="45.875850064727956" lon="11.571168392351774"><ele>1149.0</ele><time>2026-04-03T10:05:41.989Z</time></trkpt><trkpt lat="45.87586859136767" lon="11.571043361929695"><ele>1149.0</ele><time>2026-04-03T10:05:43.99Z</time></trkpt><trkpt lat="45.87587470100201" lon="11.570937187816568"><ele>1149.0</ele><time>2026-04-03T10:05:45.989Z</time></trkpt><trkpt lat="45.87590749562228" lon="11.570831422242287"><ele>1147.2</ele><time>2026-04-03T10:05:47.989Z</time></trkpt><trkpt lat="45.87595923195145" lon="11.5707212987488"><ele>1145.4</ele><time>2026-04-03T10:05:49.989Z</time></trkpt><trkpt lat="45.87600234486821" lon="11.570599519412434"><ele>1143.6</ele><time>2026-04-03T10:05:51.989Z</time></trkpt><trkpt lat="45.87607248059196" lon="11.570470181870839"><ele>1141.8</ele><time>2026-04-03T10:05:53.989Z</time></trkpt><trkpt lat="45.87611487746043" lon="11.570316466696475"><ele>1140.0</ele><time>2026-04-03T10:05:55.989Z</time></trkpt><trkpt lat="45.87617976652513" lon="11.570164827550576"><ele>1139.0</ele><time>2026-04-03T10:05:57.989Z</time></trkpt><trkpt lat="45.87627915501366" lon="11.570058874468165"><ele>1138.0</ele><time>2026-04-03T10:05:59.989Z</time></trkpt><trkpt lat="45.876370521854966" lon="11.56997725818732"><ele>1137.0</ele><time>2026-04-03T10:06:01.989Z</time></trkpt><trkpt lat="45.87644235672875" lon="11.569861657277682"><ele>1136.0</ele><time>2026-04-03T10:06:03.989Z</time></trkpt><trkpt lat="45.87649285789317" lon="11.569749221138949"><ele>1135.0</ele><time>2026-04-03T10:06:05.989Z</time></trkpt><trkpt lat="45.87652722502974" lon="11.569644555115433"><ele>1135.0</ele><time>2026-04-03T10:06:07.989Z</time></trkpt><trkpt lat="45.8765514037764" lon="11.569527329134878"><ele>1135.0</ele><time>2026-04-03T10:06:09.989Z</time></trkpt><trkpt lat="45.87656633563466" lon="11.569416499560557"><ele>1135.0</ele><time>2026-04-03T10:06:11.989Z</time></trkpt><trkpt lat="45.87657695312062" lon="11.569313860408101"><ele>1135.0</ele><time>2026-04-03T10:06:13.989Z</time></trkpt><trkpt lat="45.876573015035895" lon="11.569213943881676"><ele>1135.0</ele><time>2026-04-03T10:06:15.989Z</time></trkpt><trkpt lat="45.87657541466747" lon="11.5691097901567"><ele>1135.0</ele><time>2026-04-03T10:06:17.989Z</time></trkpt><trkpt lat="45.87656447800504" lon="11.569012220358587"><ele>1135.0</ele><time>2026-04-03T10:06:19.989Z</time></trkpt><trkpt lat="45.87654975379414" lon="11.568904987273244"><ele>1134.6666666666665</ele><time>2026-04-03T10:06:21.989Z</time></trkpt><trkpt lat="45.87651480559293" lon="11.568800288958352"><ele>1134.3333333333333</ele><time>2026-04-03T10:06:23.989Z</time></trkpt><trkpt lat="45.87649024982238" lon="11.568681220616202"><ele>1134.0</ele><time>2026-04-03T10:06:25.989Z</time></trkpt><trkpt lat="45.87646685630608" lon="11.568582345520719"><ele>1133.6666666666667</ele><time>2026-04-03T10:06:27.989Z</time></trkpt><trkpt lat="45.876440654295706" lon="11.56847846936881"><ele>1133.3333333333335</ele><time>2026-04-03T10:06:29.989Z</time></trkpt><trkpt lat="45.876376274859446" lon="11.568334151988793"><ele>1133.0</ele><time>2026-04-03T10:06:31.988Z</time></trkpt><trkpt lat="45.87633203284934" lon="11.568246408050491"><ele>1133.0</ele><time>2026-04-03T10:06:32.988Z</time></trkpt><trkpt lat="45.87629671448217" lon="11.568143958412177"><ele>1133.0</ele><time>2026-04-03T10:06:33.988Z</time></trkpt><trkpt lat="45.87626675219367" lon="11.568032922920159"><ele>1133.0</ele><time>2026-04-03T10:06:34.988Z</time></trkpt><trkpt lat="45.87623526054347" lon="11.567911593277271"><ele>1133.0</ele><time>2026-04-03T10:06:35.988Z</time></trkpt><trkpt lat="45.87618228335455" lon="11.567789611393863"><ele>1133.0</ele><time>2026-04-03T10:06:36.988Z</time></trkpt><trkpt lat="45.876110749390996" lon="11.567651975482642"><ele>1130.0</ele><time>2026-04-03T10:06:37.988Z</time></trkpt><trkpt lat="45.87602746621062" lon="11.567501790596785"><ele>1130.0</ele><time>2026-04-03T10:06:38.988Z</time></trkpt><trkpt lat="45.87593087582131" lon="11.567346218011682"><ele>1129.0</ele><time>2026-04-03T10:06:39.988Z</time></trkpt></trkseg></trk></gpx>